16^ Giulietta e Romeo Half Marathon

Verona 12 febbraio 2023

M/W Cat. Race Number Surname Name Gender Year Cat Società Ctry Tempo RealTime
1 1 1 MENGESHA MIKESA M 2000 SM   ETH 1:00:15 1:00:15
2 2 11 ROBERTSON JAKE M 1989 SM   NZL 1:00:21 1:00:21
3 1 5 KIPROP BRAVIN M 2001 PM   KEN 1:00:23 1:00:23
4 3 6 BAZEZEW MULAT M 1999 SM   ETH 1:00:48 1:00:48
5 4 3 AOUANI ILIASS M 1995 SM G.S. FIAMME AZZURRE ITA 1:01:49 1:01:49
6 5 4 KURGAT STANLEY M 1999 SM   KEN 1:02:58 1:02:58
7 6 14 MELI JOSPHAT M 1997 SM   KEN 1:03:48 1:03:48
8 7 2 KIPTANUI ERIC M 1990 SM   KEN 1:03:49 1:03:49
9 8 8 MASSIMI STEFANO M 1992 SM ASD ATL. VOMANO ITA 1:04:25 1:04:25
10 9 13 MASAI GILBERT M 1989 SM   KEN 1:04:27 1:04:26
11 10 7 FONTANA GRANOTTO MARCO M 2000 SM ATL. INSIEME VERONA ITA 1:05:21 1:05:19
1 1 20 CHEPNGETICH JANETH F 1998 SF   KEN 1:06:58 1:06:57
12 11 35 HOFER MICHAEL M 1995 SM ASV DEUTSCHNOFEN ITA 1:07:04 1:07:01
13 12 10 OUHDA AHMED M 1997 SM ASD IMPERIALI ATLETICA ITA 1:07:05 1:07:04
2 2 19 ADERAW GELAW ZEWDITU F 1996 SF   ETH 1:07:25 1:07:24
14 1 39 RONCHI LUCA M 1988 SM35 SPORT PROJECT VCO ITA 1:08:00 1:07:58
3 3 16 MEGERTU ALEMU F 1997 SF   ETH 1:08:26 1:08:26
15 13 5012 PLANKENSTEINER MARTIN M 2000 SM LAUFCLUB PUSTERTAL ITA 1:08:32 1:08:30
4 4 34 KIPYATICH JOAN F 1998 SF   KEN 1:08:34 1:08:32
16 14 4500 AVALLE STEFANO M 1993 SM A.S.D.PODISTICA VALLE VARAITA ITA 1:08:43 1:08:39
5 5 21 MOGES MESKEREM MOLLA F 2000 SF   ETH 1:08:44 1:08:42
17 15 9 JEREB URBAN M 1993 SM   SLO 1:08:48 1:08:44
18 16 26 ORTU FEDERICO M 2000 SM C.U.S. SASSARI ITA 1:09:03 1:09:01
6 6 17 CHEPTOO VIOLAH F 1989 SF   KEN 1:09:27 1:09:25
19 17 57 ANGILELLA DAVIDE M 1999 SM ATL. FRANCIACORTA ITA 1:09:30 1:09:28
20 18 75 PISANI FEDERICO M 1992 SM TEAM ATTIVASALUTE ASD ITA 1:09:32 1:09:30
21 19 61 PARISI DAVIDE M 1991 SM LAGARINA CRUS TEAM ITA 1:09:45 1:09:43
22 1 27 CONFESSA EDGARDO M 1978 SM45 A.S.D. TEAM KM SPORT ITA 1:09:57 1:09:55
23 2 4334 REBECCHI ELIA M 1988 SM35 ATL. PIACENZA ITA 1:10:06 1:10:03
7 7 33 TEGEGN ADDISALEM F 1995 SF   ETH 1:10:08 1:10:06
24 20 65 MALPIGHI LUCA M 1997 SM ATL. IMOLA SACMI AVIS ITA 1:10:20 1:10:17
25 2 94 ZUGNONI GRAZIANO M 1974 SM45 G.P. SANTI NUOVA OLONIO ITA 1:10:27 1:10:24
8 8 18 CHEBET SANDRAFELIS F 1998 SF   KEN 1:10:56 1:10:54
26 3 76 GHENO ENRICO M 1984 SM35 EMME RUNNING TEAM ITA 1:11:04 1:10:59
27 21 83 LUXFORD THOMAS M 1989 SM RUNCARD GBR 1:11:09 1:11:05
28 22 74 MAKOVEC ALJAZ M 1997 SM RUNCARD SLO 1:11:19 1:11:15
29 1 71 MOLINARI FABIO M 1982 SM40 ENERGIA FOR SPORT S.S.D. R.L. ITA 1:11:34 1:11:31
30 23 62 SUGHI DAVIDE M 2000 SM ATLETICA BLIZZARD ITA 1:11:36 1:11:34
31 2 5022 PADOAN MARCO M 1983 SM40 VICENZA RUNNERS ITA 1:11:40 1:11:38
32 4 32 GIBELLINI MAURO M 1984 SM35 ATL. RODENGO SAIANO MICO ITA 1:11:43 1:11:40
33 3 56 BERNARDINI MAURO M 1975 SM45 SPORT PROJECT VCO ITA 1:11:47 1:11:40
34 5 4737 PESSINA SIMONE M 1985 SM35 BERGAMO STARS ATLETICA ITA 1:11:50 1:11:49
35 24 72 JANACH MARIO M 1989 SM LC VILLACH AUT 1:11:55 1:11:52
36 4 30 VIVIAN LUIGI M 1974 SM45 ASD NICO RUNNERS ITA 1:12:08 1:12:08
37 25 28 GIACOMOTTI ROBERTO M 1999 SM PEGARUN A.S.D. ITA 1:12:19 1:12:16
38 26 108 FARRONATO STEFANO M 1990 SM POL. LIBERTAS PORCIA ITA 1:12:28 1:12:22
39 27 63 TANARA MATTIA M 2000 SM A.S.D. TEAM KM SPORT ITA 1:12:50 1:12:47
40 28 66 GATTO STEFANO M 1989 SM A.S.D. TEAM KM SPORT ITA 1:12:52 1:12:49
41 29 58 BOINEGA LUCA M 1991 SM ATL. URBANIA ITA 1:13:14 1:13:11
42 6 55 ZIRONDA ROBERTO M 1986 SM35 VICENZA MARATHON ITA 1:13:18 1:13:17
43 7 67 RINALDI GIOACCHINO M 1985 SM35 A.S.D. DAUNIA RUNNING ITA 1:13:33 1:13:31
44 8 77 VARESCO ARMIN M 1984 SM35 RUNCARD ITA 1:13:38 1:13:35
45 30 5016 LIU DAVIDE M 1997 SM ASSINDUSTRIA SPORT ITA 1:13:53 1:13:51
46 9 60 RODIGARI ALEX M 1986 SM35 U.S. CARISOLO ITA 1:13:53 1:13:50
47 5 82 BRUNNER RUDI M 1974 SM45 SPORTCLUB MERANO ITA 1:13:59 1:13:56
48 31 78 ZILIO CESARE M 1989 SM G.A. BASSANO ITA 1:14:07 1:14:03
49 32 68 BOINEGA LORENZO M 1991 SM ATL. URBANIA ITA 1:14:08 1:14:06
50 10 5024 PASSERA ALESSIO M 1988 SM35 ASV L.C. BOZEN RAIFFEISEN ITA 1:14:08 1:14:05
51 3 84 CIOTTI EMANUELE M 1980 SM40 CESENA TRIATHLON ASD ITA 1:14:09 1:14:06
52 4 5023 MAFFEZZINI MARIO M 1981 SM40 TEAM PASTURO ASD ITA 1:14:19 1:14:16
    64 WACKO MARCIN M 1985 SM35   POL 1:14:39 1:14:35
53 33 130 TRAME ALBERTO M 1989 SM ASD BUNKER SPORT ITA 1:14:40 1:14:35
54 11 4436 DA VIA' MIRKO M 1986 SM35 GR.MARC. CALALZO ATL. CADORE ITA 1:14:56 1:14:52
55 34 105 VILLA STEFANO M 1996 SM O.S.A. ORG.SPORTIVA ALPINISTI ITA 1:14:57 1:14:55
56 5 110 PAOLAZZI CHRISTIAN M 1983 SM40 ATLETICA VALLE DI CEMBRA ITA 1:15:01 1:14:55
57 35 4484 FAVARON FULVIO M 1992 SM TRIIRON ITA 1:15:06 1:15:03
58 6 205 BRIOSCHI FRANCESCO M 1980 SM40 CUS PRO PATRIA MILANO ITA 1:15:20 1:15:15
59 36 98 GERACE SIMONE M 1991 SM ATLETICA SALUZZO ITA 1:15:26 1:15:17
60 12 149 BONSI GIUSEPPE M 1985 SM35 CORRINTIME ITA 1:15:27 1:15:20
9 1 37 JEBET SALINA F 1986 SF35   KEN 1:15:29 1:15:27
61 13 70 FAGHERAZZI ALESSANDRO M 1986 SM35 ATL.FIORI BARP ITA 1:15:33 1:15:31
62 14 5020 DONATI ALESSANDRO M 1985 SM35 ATLETICA MDS PANARIAGROUP ASD ITA 1:15:39 1:15:33
63 7 59 SELLA MANUEL M 1983 SM40 ATL. LECCO-COLOMBO COSTRUZ. ITA 1:15:39 1:15:35
64 8 80 MARINI MARCO M 1979 SM40 BOSCAINI RUNNERS ITA 1:15:39 1:15:37
65 6 91 PERTINGER SIMON M 1977 SM45 S.G EISACKTAL RAIFFEISEN ASV ITA 1:15:45 1:15:41
66 9 96 CORTIANA SIMONE M 1980 SM40 VICENZA MARATHON ITA 1:15:45 1:15:43
67 37 162 GENESI LUCA M 1991 SM RUNCARD ITA 1:15:47 1:15:42
68 38 119 ANTONACCI ANDREA M 1999 SM ASD BUMBASINA RUN ITA 1:15:54 1:15:52
69 1 73 LONER ALESSIO M 1971 SM50 ATLETICA VALLE DI CEMBRA ITA 1:15:58 1:15:55
70 39 107 ORLANDI LUCA M 1995 SM G.P. AVIS SUZZARA ITA 1:16:05 1:15:57
71 40 112 CALABRESE MARCO M 1992 SM AZZURRA GARBAGNATE M.SE ITA 1:16:06 1:16:02
72 41 254 MION CHRISTIAN M 1995 SM RUNCARD ITA 1:16:09 1:16:02
73 7 104 D'ORO ANTONIO M 1977 SM45 ATLETICA BLIZZARD ITA 1:16:13 1:16:10
74 15 101 AICARDI DAVIDE M 1986 SM35 RUNCARD EPS - A.S.D. KRAV MAGA PARABELLU ITA 1:16:18 1:16:11
75 10 144 GELMETTI ALESSIO M 1982 SM40 A.S.D. TEAM KM SPORT ITA 1:16:23 1:16:18
76 16 81 FILIPPI GABRIELE M 1985 SM35 POL.VA GIUDICARIE ESTERIORI ITA 1:16:25 1:16:21
77 42 111 CAGLIARI MANUEL M 1990 SM ATLETICA GUASTALLA REGGIOLO ITA 1:16:28 1:16:24
78 43 3780 MARTINI DANILO M 1994 SM CLUB PANTERA ROSA ITA 1:16:40 1:16:32
79 17 129 CARNIGLIA SIMONE M 1987 SM35 DERTHONA ATLETICA ITA 1:16:53 1:16:50
80 8 115 MANAZZALE GABRIELE M 1974 SM45 ATHLETIC CLUB VILLASANTA ITA 1:16:53 1:16:51
81 44 3620 GIRARDI PAOLO M 1992 SM ASD G.P. A.T.P. TORINO ITA 1:16:59 1:16:54
82 45 141 GUIDOTTI MATTEO M 1989 SM DK RUNNERS MILANO ITA 1:17:07 1:16:59
83 18 89 ZANI PARIDE M 1986 SM35 ATL. CARPENEDOLO ITA 1:17:15 1:17:10
84 9 219 KHAMIDULIN RENAT M 1978 SM45 RUNCARD RUS 1:17:19 1:17:14
85 11 4234 EISENSTECKEN MARC M 1982 SM40 RUNCARD ITA 1:17:29 1:17:18
86 12 116 ADDEO DANIELE M 1979 SM40 ASD ATLETICA CEREA ITA 1:17:39 1:17:32
87 10 5026 SAURINI OMAR M 1976 SM45 ATL.  VALLI DI NON E SOLE ITA 1:17:44 1:17:38
88 2 3739 BERNARDI EZIO M 1973 SM50 ATLETICA VALLE DI CEMBRA ITA 1:17:49 1:17:43
89 46 166 OREGIONI PIETRO M 1989 SM AMICI MADONNA NEVE LAGUNC ITA 1:17:50 1:17:44
90 47 238 REGGIORI GIOVANNI M 1993 SM DK RUNNERS MILANO ITA 1:17:56 1:17:52
91 3 127 GINESTRI FABIO M 1972 SM50 A.S.D. TEAM KM SPORT ITA 1:17:57 1:17:52
92 19 3869 ADAMO ANTONIO M 1987 SM35 A.S.D.POL. TEAM F. INGARGIOLA ITA 1:17:57 1:17:54
93 20 122 TONELLO PAOLO M 1985 SM35 ASD REVELO ITA 1:18:04 1:17:58
94 21 140 CICCIARELLA GIUSEPPE M 1985 SM35 ESERCITO-4 REGG. ALPINI PARAC. ITA 1:18:15 1:18:11
95 11 113 CUDA ROCCO M 1974 SM45 PASSO CAPPONI ASD ITA 1:18:17 1:18:14
96 48 243 TOMMASI GIOVANNI M 1989 SM A.S.D. TEAM KM SPORT ITA 1:18:18 1:18:13
10 9 290 BRAZZOLI STEFANIA F 1991 SF A.S.D.PODISTICA VALLE VARAITA ITA 1:18:21 1:18:19
    147 PATTERSON ANDY M 1994 SM   GBR 1:18:26 1:18:22
97 22 251 MAINAS ANDREA M 1984 SM35 ATHLETIC CLUB FIREX BELLUNO ITA 1:18:27 1:18:18
98 12 167 ABBISOGNI ADRIANO M 1974 SM45 A.S.D. TRINACRIA PALERMO ITA 1:18:30 1:18:24
99 49 97 MALAGOLI NICHOLAS M 1992 SM RUNCARD EPS - SPORTING CLUB SASSUOLO ITA 1:18:38 1:18:35
100 23 123 DAVOLI FEDERICO M 1986 SM35 PODISTICA CORREGGIO ITA 1:18:39 1:18:35
101 4 5002 SCERRINO ANDREA M 1972 SM50 G.S.SELF ATL. MONTANARI GRUZZA ITA 1:18:39 1:18:37
102 13 15 TIBERTI TITO FIORENZO M 1981 SM40 ATL. RODENGO SAIANO MICO ITA 1:18:41 1:18:39
103 50 164 SARACCO GIORGIO M 1989 SM RUNCARD ITA 1:18:59 1:18:53
104 51 135 MONTI MARCO M 1991 SM EASY RUNNER ASD ITA 1:19:00 1:18:56
105 24 145 ROSSI LUCA M 1986 SM35 G.S.D. VALDALPONE DE MEGNI ITA 1:19:10 1:19:06
106 52 272 SPIAZZI MATTEO M 1996 SM A.S.D. ATLETICA LUPATOTINA ITA 1:19:10 1:19:03
    132 KONIECZKA RAFAL M 1980 SM40   POL 1:19:13 1:19:07
107 53 214 FRANZIN MATTIA M 1991 SM A.S.D. JESOLO TRIATHLON ITA 1:19:14 1:19:06
108 54 4516 BENEDETTI ALESSIO M 1999 SM S.S. TENNO ITA 1:19:15 1:19:12
109 25 194 TRAPANI SALVATORE M 1984 SM35 A.S.D. BAROCCO RUNNING RAGUSA ITA 1:19:15 1:19:13
110 55 4515 TURRINI LORENZO M 1996 SM S.S. TENNO ITA 1:19:16 1:19:12
111 14 5010 PLONA FABIO M 1983 SM40 RUNCARD ITA 1:19:17 1:19:08
    220 ORLIKOWSKI MARCIN M 1978 SM45   POL 1:19:19 1:19:11
112 26 264 DOSSI MARCO M 1984 SM35 G.P. I CAGNON ITA 1:19:21 1:19:19
113 15 281 SOSSELLA DAVIDE M 1981 SM40 TRI SCHIO ASD ITA 1:19:24 1:19:15
114 27 284 MINA LUCA M 1984 SM35 RUNCARD ITA 1:19:25 1:19:20
115 1 114 BENDER VOLKER M 1968 SM55 TSV Neuenstadt GER 1:19:25 1:19:20
116 16 4518 DI PAOLA FERDINANDO M 1982 SM40 ATL. IMOLA SACMI AVIS ITA 1:19:25 1:19:21
117 56 242 TACCONI MICHELE M 1990 SM A.S.D. TEAM KM SPORT ITA 1:19:27 1:19:21
118 28 497 PANIZ PAOLO M 1986 SM35 ATL.FIORI BARP ITA 1:19:28 1:19:17
119 29 239 PERRI DARIO M 1984 SM35 ATL. MALNATE ITA 1:19:28 1:19:26
120 57 253 BULGARELLI GIANLUCA M 1990 SM GR.PODISTICO AVIS TAGLIO DI PO ITA 1:19:28 1:19:21
121 58 118 JENCIC BOSTJAN M 1990 SM TK SMARNOGORSKA NAVEZA SLO 1:19:29 1:19:26
122 5 187 STIVANELLO ENRICO M 1973 SM50 ROAD RUNNERS CLUB MILANO ITA 1:19:29 1:19:21
    131 MARQUEDANT DOMINIC M 1987 SM35   GER 1:19:30 1:19:20
123 17 157 VANZO MAURO M 1983 SM40 BOSCAINI RUNNERS ITA 1:19:31 1:19:26
124 59 188 WOHLGUT VALENTIN M 1993 SM RUNCARD GER 1:19:34 1:19:28
125 30 223 MONTEVERDI IVANO M 1984 SM35 RUNCARD ITA 1:19:38 1:19:36
126 31 198 DAL COROBBO MARCO M 1984 SM35 SPORT RACE A.S.D. ITA 1:19:47 1:19:40
127 60 332 BORTOLOT MARCO M 1999 SM DUEROCCHE A.S.D. ITA 1:19:50 1:19:40
11 10 24 LUTTERI ARIANNA F 1990 SF A.S.D. TEAM KM SPORT ITA 1:19:50 1:19:46
128 18 247 MOCCIA GERARDO M 1980 SM40 ASD 3'.30'' TEAM ITA 1:19:52 1:19:43
129 61 38 AGOSTINI FRANCESCO M 1997 SM ATL. CASONE NOCETO ITA 1:19:56 1:19:54
130 13 152 MIDEO GIUSEPPE M 1977 SM45 RUNCARD SUI 1:20:04 1:19:55
131 2 193 BRUSCO ALESSANDRO M 2003 PM G.P. AVIS POL. MALAVICINA ITA 1:20:09 1:20:04
132 32 4473 MAZZOLA FRANCESCO M 1987 SM35 RUNCARD ITA 1:20:11 1:20:05
133 14 197 BEDIN ERMES M 1974 SM45 RUN SPINEA RUN A.S.D. ITA 1:20:12 1:20:03
12 1 196 BETTIN LORETTA F 1980 SF40 ATL. PARATICO ITA 1:20:14 1:20:10
134 33 102 FORNACIARI ANDREA M 1985 SM35 ATLETICA MDS PANARIAGROUP ASD ITA 1:20:16 1:20:12
135 62 189 ZANOTTI LUCA M 1994 SM ACQUADELA BOLOGNA ITA 1:20:27 1:20:20
136 15 192 VOLTOLINI IGOR M 1975 SM45 ATL.BASSANO RUNNING STORE ITA 1:20:30 1:20:24
137 6 5028 ARCARI MIRCO M 1969 SM50 ZEROTRENTA TRIATHLON BRESCIA ITA 1:20:36 1:20:32
138 63 384 DALIPI HENRI M 1995 SM ASD RUNNERS VALCALEPIO ITA 1:20:40 1:20:28
139 64 5003 TESTA NICOLA M 1992 SM CAMISANO RUNNING A.S.D. ITA 1:20:42 1:20:36
140 16 268 SANGIORGI ENRICO M 1974 SM45 G.P. AVIS PAVIA ITA 1:20:42 1:20:34
141 34 259 CASAGRANDE MARCO M 1987 SM35 DUEROCCHE A.S.D. ITA 1:20:55 1:20:49
142 19 356 LOUTFI HASSAN M 1982 SM40 ATL.AGORDINA MAR 1:20:59 1:20:48
143 35 231 MEZZADRI DAVIDE M 1984 SM35 RUNCARD EPS - SPARTACUS A.S.D. ITA 1:21:00 1:20:57
144 17 155 CAPPELLARI DAMIANO M 1974 SM45 RUN RAN RUN ASD ITA 1:21:00 1:20:53
13 2 245 ANDRIGHETTONI CLAUDIA F 1981 SF40 U.S. QUERCIA TRENTINGRANA ITA 1:21:00 1:20:57
145 7 209 CANTACHIN CAMILLO M 1971 SM50 G.S.D. VALDALPONE DE MEGNI ITA 1:21:03 1:20:55
146 8 255 GUALDI FAUSTO M 1971 SM50 RUNCARD EPS - CAMPOGALLIANO CIRCOLO POL. ITA 1:21:14 1:21:11
147 65 393 CELARDO FILIPPO M 1995 SM CREMONACORRE ASD ITA 1:21:15 1:21:05
148 9 171 TENUTI GABRIELE M 1973 SM50 VICENZA MARATHON ITA 1:21:16 1:21:12
149 66 307 NICOLINI FILIPPO M 1991 SM RUNCARD ITA 1:21:20 1:21:15
150 1 4060 SIRIANNI FERNANDO M 1955 SM65 ASSOCIAZIONE STRAVERONA ASD ITA 1:21:22 1:20:26
151 36 143 MOTTA ANGELO M 1985 SM35 ASD GRUPPO PODISTI PORTO TOLLE ITA 1:21:22 1:21:16
152 18 176 TONI FABIO M 1978 SM45 ASD SPORTINSIEME CASTELLARANO ITA 1:21:24 1:21:17
153 19 201 BORDO MARCO M 1976 SM45 PODISTICA PONTELUNGO BOLOGNA ITA 1:21:25 1:21:22
154 20 179 TOSO ALESSANDRO M 1983 SM40 A.S.D. ATLETICA LUPATOTINA ITA 1:21:26 1:21:19
155 20 269 GREGORI NATALE M 1976 SM45 A.S.D. C.U.S. BRESCIA ITA 1:21:29 1:21:21
156 21 324 DE CLARA GIANNI M 1980 SM40 RUNCARD ITA 1:21:31 1:20:46
14 3 213 CARDUCCI SARA F 1982 SF40 ATLETICA 85 FAENZA ITA 1:21:37 1:21:35
157 67 383 PAGANI STEFANO M 1989 SM ASD RUNNERS VALCALEPIO ITA 1:21:38 1:21:26
158 22 5004 VITALI MARCO M 1982 SM40 G.S. CROCE VERDE ORZINUOVI ASD ITA 1:21:38 1:21:31
159 23 378 PIVA FABIO M 1981 SM40 VICENZA MARATHON ITA 1:21:38 1:21:29
160 68 218 TANO LUCA M 1998 SM ATHLETIC CLUB TERMOLI ASD ITA 1:21:40 1:21:36
161 37 5948 SKAFIDAS SPYROS M 1986 SM35 RUNCARD EPS - RUNCARD GRE 1:21:45 1:21:09
162 10 225 SANCASSANI ANGELO M 1973 SM50 RUNCARD ITA 1:21:52 1:21:47
163 21 163 RAUTER CHRISTOPH M 1974 SM45 LAUFCLUB PUSTERTAL ITA 1:21:56 1:21:52
164 24 202 CASEROTTI ANDREA M 1983 SM40 ATL.  VALLI DI NON E SOLE ITA 1:22:04 1:21:57
165 22 5015 RUSSO STEFANO M 1978 SM45 A.S.D.ARIES COMO ATHLETIC TEAM ITA 1:22:05 1:21:59
166 11 4712 TECCHIO GIANLUIGI M 1973 SM50 G.S.D. VALDALPONE DE MEGNI ITA 1:22:08 1:22:00
167 38 210 ZANOTTI MATTIA M 1986 SM35 A.S.D. TEAM KM SPORT ITA 1:22:11 1:22:05
168 23 5005 LUCCHI FELICE M 1975 SM45 U.S. 5 STELLE SEREGNANO A.S.D. ITA 1:22:12 1:22:05
169 39 190 CAMPAGNA DAVIDE M 1987 SM35 RUNCARD ITA 1:22:14 1:22:06
170 12 150 MAROSO ANDREA M 1973 SM50 ASD NICO RUNNERS ITA 1:22:14 1:22:03
171 25 175 RENZI LUCA M 1981 SM40 ASD MIRAMARE RUNNER ITA 1:22:14 1:22:11
15 11 4702 SERENA EVA F 1993 SF RUNCARD EPS - RUNCARD ITA 1:22:15 1:21:46
172 13 248 PARISI ANDREA M 1973 SM50 ATLETICA ALTO GARDA E LEDRO ITA 1:22:16 1:22:09
173 24 5017 DELMONTE FABRIZIO M 1974 SM45 POLISPORTIVA AURORA 76 ASD ITA 1:22:17 1:22:12
174 40 302 PADOVANO MATTEO M 1987 SM35 TORINO ROAD RUNNERS A.S.D. ITA 1:22:20 1:22:15
175 41 178 LUNARDON NICOLA M 1985 SM35 AFV BELTRAME ITA 1:22:21 1:22:14
176 3 326 GOIO MATTEO M 2002 PM NON SOLO RUNNING ITA 1:22:22 1:21:47
16 2 296 DI FANT VERONICA F 1985 SF35 RUNCARD ITA 1:22:28 1:22:19
177 14 981 VACCARI MASSIMO M 1972 SM50 VICENZA MARATHON ITA 1:22:29 1:22:18
178 2 126 PIZZATO MASSIMO M 1964 SM55 ASD NICO RUNNERS ITA 1:22:30 1:22:26
179 69 121 TARCHETTI DARIO MARIA M 1994 SM RUNCARD ITA 1:22:31 1:22:24
180 26 174 ZABIHI GOLEKOLAHI BEHROOZ M 1979 SM40 ASD MIRAMARE RUNNER ITA 1:22:31 1:22:28
181 42 4684 CAMPISI SALVATORE M 1988 SM35 A.S.D. VEGAN POWER TEAM ITA 1:22:33 1:22:24
17 3 203 FESTINI PURLAN MARTINA F 1986 SF35 ATL BRUGNERA PN FRIULINTAGLI ITA 1:22:34 1:22:29
182 70 275 BORTOLETTI ANTHONY M 1990 SM A.S.D. TEAM KM SPORT ITA 1:22:35 1:22:29
183 43 4705 MARCHESONI MICHELE M 1988 SM35 G.S. ORECCHIELLA GARFAGNANA ITA 1:22:40 1:22:30
18 1 301 BATTACCHI FRANCESCA F 1974 SF45 ACQUADELA BOLOGNA ITA 1:22:40 1:22:35
184 44 120 DE TOGNI MARCO M 1986 SM35 TORNADO ITA 1:22:42 1:22:36
185 71 582 GAROFANO SILVIO M 1996 SM S.S.D. TELESIA RUNNING TEAM ITA 1:22:49 1:22:16
186 25 4679 CENTRA GAETANO M 1974 SM45 ATLETICA BRESCIA MARATHON ITA 1:22:50 1:22:45
187 45 520 PANELLA FABRIZIO M 1984 SM35 A.S.D. TEAM KM SPORT ITA 1:22:56 1:22:17
188 46 300 RICCI STEFANO M 1984 SM35 ATLETICA CORRIFERRARA ITA 1:22:58 1:22:48
    5029 ZVEREV DMITRY M 1978 SM45   UKR 1:23:02 1:22:58
189 26 541 MEINERO SAMUELE M 1974 SM45 RUNCARD EPS - RUNCARD ITA 1:23:02 1:22:51
190 27 260 BRANCHINI LUCA M 1977 SM45 RUNCARD EPS - UISP REGGIO EMILIA ITA 1:23:03 1:22:57
191 28 413 CALISE FRANCESCO M 1978 SM45 A.S.D. NAPOLI NORD MARATHON ITA 1:23:04 1:22:48
192 47 420 BERTAGGIA FABIO M 1985 SM35 ASD MARATHON CAVALLI MARINI ITA 1:23:05 1:22:53
193 29 589 LORENZI MARCO M 1975 SM45 G.S. ATLETICA 75 CATTOLICA ITA 1:23:06 1:22:55
194 27 170 ZOLIN ROBERTO M 1983 SM40 ASD REVELO ITA 1:23:07 1:22:59
195 28 258 FORTI GIUSEPPE M 1981 SM40 TRENTINO RUNNING TEAM ITA 1:23:07 1:22:58
196 30 516 MIGLIO MARCO M 1977 SM45 NOVARA CHE CORRE ITA 1:23:12 1:23:07
197 48 5096 PANAITIU BOGDAN M 1985 SM35 SPORT RACE A.S.D. ITA 1:23:15 1:22:49
198 29 297 ZANNONI DIEGO M 1980 SM40 TRI SCHIO ASD ITA 1:23:17 1:23:08
199 49 5935 BRUGNARA JACOPO M 1987 SM35 RUNCARD ITA 1:23:19 1:22:49
200 50 199 IUDICA TOMMASO M 1984 SM35 ATL. CASTENASO  CELTIC DRUID ITA 1:23:20 1:23:13
201 3 5779 COLOMBO ANTONIO M 1968 SM55 RUNCARD ITA 1:23:21 1:23:16
202 72 182 POSENATO DANIELE M 1989 SM A.S.D. TEAM KM SPORT ITA 1:23:23 1:23:16
203 15 216 CERATO GIANMARCO M 1972 SM50 RUNCARD ITA 1:23:24 1:23:19
204 16 343 RICCIERI ALDO M 1973 SM50 PODISTICA AVIS DERUTA ITA 1:23:24 1:23:09
205 4 4589 GROTTOLO IVANO M 1964 SM55 ATLETICA ALTO GARDA E LEDRO ITA 1:23:26 1:23:17
206 51 5762 PATTON SIMONE M 1984 SM35 RUNCARD ITA 1:23:29 1:22:59
207 5 271 FILIPPINI MASSIMO M 1968 SM55 PODISTICA CORREGGIO ITA 1:23:29 1:23:22
208 30 294 BISARELLI MARCO M 1981 SM40 SKYRUNNERS LE VIGNE VICENZA ITA 1:23:32 1:23:23
209 31 298 CAPELLI MARCO M 1981 SM40 ATLETICA VALLE DI CEMBRA ITA 1:23:32 1:23:28
210 73 100 SPADOTTO ENRICO M 1990 SM A.S.D. TRIATHLON TEAM ITA 1:23:34 1:23:24
211 31 337 BACCELLIERE MAURIZIO M 1978 SM45 PODISTICA PONTELUNGO BOLOGNA ITA 1:23:37 1:23:27
212 32 392 ZANASI LUCA M 1981 SM40 MODENA RUNNERS CLUB ASD ITA 1:23:38 1:23:25
213 74 670 POLONI ROBERTO M 1994 SM LA RECASTELLO RADICI GROUP ITA 1:23:39 1:23:25
214 33 327 MARCHI PAOLO M 1982 SM40 G.P. ARCI GOODWIN ITA 1:23:40 1:23:15
215 75 1000 MENESTRINA FRANCESCO M 1991 SM TRENTINO RUNNING TEAM ITA 1:23:41 1:23:26
216 32 291 MENEGHELLO ALESSIO M 1974 SM45 GIANCARLO BIASIN ILLASI ASD ITA 1:23:43 1:23:37
217 76 403 CHEMELLO ROBERTO M 1989 SM RUNNERS TEAM ZANE' ITA 1:23:43 1:23:17
218 52 514 DOMINANTE ANGELO M 1985 SM35 MARATONETI ERACLEA ITA 1:23:45 1:23:31
219 33 424 BARANA ANDREA M 1978 SM45 RUNCARD ITA 1:23:45 1:23:33
220 17 184 FONGARO RICCARDO M 1972 SM50 VICENZA MARATHON ITA 1:23:48 1:23:42
19 12 400 LUCACI IOANA F 1994 SF G.P. PARCO ALPI APUANE ITA 1:23:49 1:23:37
221 34 806 MARCHESONI FABIO M 1976 SM45 GS VALSUGANA TRENTINO ITA 1:23:50 1:23:27
222 53 396 MUSSINI GIORGIO M 1984 SM35 ASD MIRAMARE RUNNER ITA 1:23:51 1:23:35
223 35 86 BORGHESI GIANLUCA M 1978 SM45 ATL. AVIS CASTEL S.PIETRO ITA 1:23:53 1:23:49
20 13 289 COLELLA ELENA F 1989 SF ASD MIRAMARE RUNNER ITA 1:23:53 1:23:49
224 34 285 CORBELLI LUCA M 1981 SM40 ASD MIRAMARE RUNNER ITA 1:23:55 1:23:50
225 6 236 PALESA MARCO M 1965 SM55 A.S.D. TEAM KM SPORT ITA 1:23:55 1:23:50
226 35 596 BIANCO ANDREA M 1982 SM40 RUNNER VARESE ITA 1:23:56 1:23:33
227 54 4320 BOLDO FILIPPO M 1984 SM35 RUNCARD EPS - SPORTING CLUB SASSUOLO ITA 1:23:57 1:23:04
228 7 217 ZANARDO FRANCO M 1966 SM55 CIMAVILLA RUNNING TEAM ITA 1:24:00 1:23:55
229 36 228 BACCHELLI CLAUDIO M 1983 SM40 RUNCARD EPS - FERRARI ASC ITA 1:24:02 1:23:51
230 36 304 ZORDAN ALBERTO M 1976 SM45 A.S.D. TEAM KM SPORT ITA 1:24:03 1:23:57
231 18 305 ODDERA CRISTIANO M 1972 SM50 PODISTICA PONTELUNGO BOLOGNA ITA 1:24:04 1:23:58
232 77 357 SPOLAOR NICOLO' M 1991 SM ATLETICA RIVIERA DEL BRENTA ITA 1:24:05 1:23:57
233 78 4054 ZENNARO MATTEO M 1989 SM VENEZIA RUNNERS ATL.MURANO ITA 1:24:06 1:23:58
234 79 328 MATAOUS PETER M 1993 SM RUNCARD EGY 1:24:06 1:23:52
235 80 436 RICO NICOLA M 1992 SM RUNCARD ITA 1:24:08 1:23:56
236 37 4514 DIGESTO GIUSEPPE M 1977 SM45 AMATORI ATL. CASORATE S. ITA 1:24:08 1:23:59
237 81 4517 BONFANTE ALESSANDRO M 1991 SM VICENZA MARATHON ITA 1:24:08 1:23:58
238 1 227 TOSCANO PAOLO M 1960 SM60 RUNNERS PADOVA ITA 1:24:11 1:24:05
239 19 160 VALENTINI VALENTINO M 1973 SM50 VENICEMARATHON SSD A R.L. ITA 1:24:11 1:24:01
240 37 156 ARCARO GABRIELE M 1983 SM40 AFV BELTRAME ITA 1:24:11 1:24:05
241 82 574 BERTOLDI DAVIDE M 1995 SM VENICEMARATHON SSD A R.L. ITA 1:24:11 1:23:45
242 55 4429 CUCCAROLLO FAUSTO M 1984 SM35 ASD NICO RUNNERS ITA 1:24:15 1:24:08
21 2 475 WEISSTEINER DORIS F 1977 SF45 S.G EISACKTAL RAIFFEISEN ASV ITA 1:24:16 1:24:01
243 4 303 GRECO NICOLAS M 2001 PM TORNADO ITA 1:24:17 1:24:07
244 38 292 ZANDONAI MICHELE M 1981 SM40 LAGARINA CRUS TEAM ITA 1:24:18 1:24:14
245 20 446 FERAZZINI JURI M 1971 SM50 RUNNERS BERGAMO ITA 1:24:18 1:24:06
246 38 5009 SANTORO ALESSANDRO M 1977 SM45 TRENTINO RUNNING TEAM ITA 1:24:19 1:24:10
247 83 504 GALEAZZI LUCA M 1995 SM ASD TOSCO-ROMAGNOLA ITA 1:24:20 1:24:08
22 4 438 DAL SANTO VANINA F 1980 SF40 VICENZA MARATHON ITA 1:24:22 1:24:01
23 14 4411 NATOLINI SERENA F 1989 SF ESERCITO-4 REGG. ALPINI PARAC. ITA 1:24:23 1:24:15
248 39 4629 DALLARI WALTER M 1975 SM45 RUNCARD ITA 1:24:25 1:24:13
249 8 375 GASPAROTTO ALBERTO M 1966 SM55 LA FULMINEA RUNNING TEAM SINCE ITA 1:24:26 1:24:03
250 21 165 GISONDA DOMENICO M 1972 SM50 S.S.D. A.R.L. DYNAMYK FITNESS ITA 1:24:26 1:24:24
251 40 148 SCALERCIO MASSIMO M 1975 SM45 SETTE LAGHI RUNNERS ITA 1:24:30 1:24:21
252 84 422 ROMA FELICE M 1997 SM CLUB ATLETICO POTENZA ITA 1:24:32 1:24:14
253 39 279 CASTAGNEDI ALESSANDRO M 1980 SM40 A.S.D. TEAM KM SPORT ITA 1:24:35 1:24:25
254 56 474 NOVARO MATTIA M 1985 SM35 ASD MAURINA OLIO CARLI ITA 1:24:35 1:24:24
255 85 4720 CARBONE CARLO M 1993 SM LIBERTAS MANTOVA ITA 1:24:37 1:24:06
    391 KUSKE MACIEJ M 1988 SM35   POL 1:24:38 1:23:51
256 41 351 GOBBO FABIO M 1978 SM45 RUNCARD ITA 1:24:39 1:24:17
257 40 379 ROUSSELLE ROMUALD M 1979 SM40 VICENZA MARATHON BEL 1:24:39 1:24:16
258 42 288 BOATTO ANDREA M 1975 SM45 RUNNERS CLUB AGGGREDIRE ITA 1:24:40 1:24:37
24 4 276 CESCHI FUTURA F 1987 SF35 A.S.D. TEAM KM SPORT ITA 1:24:42 1:24:34
259 22 306 PARACCHINI ROBERTO M 1973 SM50 TRIATHLON CREMONA STRADIVARI S ITA 1:24:49 1:24:44
260 41 435 VENTURINI MARCO M 1981 SM40 POLISPORTIVA LOSA S.S.D.R.L. ITA 1:24:50 1:24:41
261 86 605 VISPI LORENZO M 1989 SM RUNCARD ITA 1:24:51 1:24:40
262 23 703 LAMBERTI WAINER M 1970 SM50 TRIIRON ITA 1:24:52 1:24:29
263 87 672 BENETTI DIEGO M 1990 SM EMME RUNNING TEAM ITA 1:24:52 1:24:29
264 42 273 QUINZI RICCARDO M 1982 SM40 A.S.D. TEAM KM SPORT ITA 1:24:55 1:24:47
265 43 5007 RIGO DANIELE M 1981 SM40 A.S.D. TEAM KM SPORT ITA 1:24:59 1:24:51
266 43 409 RAPONI FRANCESCO M 1978 SM45 ERNICA VEROLI ASDDILETTANTISCICA ITA 1:25:00 1:24:49
267 57 399 ZECCHI DAVIDE M 1985 SM35 RUNCARD ITA 1:25:01 1:24:50
268 44 180 SCACCIAFERRO VINCENZO M 1979 SM40 A.S.D. ATLETICA LUPATOTINA ITA 1:25:02 1:24:54
269 44 133 MOCELLIN ALESSANDRO M 1974 SM45 G.A. BASSANO ITA 1:25:03 1:24:54
270 45 395 STERMIERI NICOLA M 1978 SM45 ATL. CIBENO ITA 1:25:06 1:24:57
271 46 358 NETTIS GIANLUCA M 1974 SM45 LISPHERA ITA 1:25:10 1:24:48
25 3 265 FABIANI ELENA F 1977 SF45 GROTTINI TEAM RECANATI ASD ITA 1:25:11 1:25:00
272 45 677 GLIATTA MAURIZIO M 1981 SM40 RUNCARD ITA 1:25:11 1:24:53
273 47 278 CROIN STEFANO M 1978 SM45 A.S.D. TEAM KM SPORT ITA 1:25:11 1:25:04
274 88 430 PIOMBONI NICOLO' M 1989 SM BLACK WARRIORS ASD ITA 1:25:12 1:25:05
275 58 611 DALEFFE MATTEO M 1985 SM35 ATL. GAVARDO '90 LIB. ITA 1:25:14 1:24:58
276 59 558 MELOTTO ANDREA M 1984 SM35 RUNCARD EPS - RUNCARD ITA 1:25:14 1:24:22
277 24 5027 MUNNO VALENTINO M 1971 SM50 ASD TAPASCIONE RUNNING TEAM ITA 1:25:20 1:25:16
278 25 311 PIANTANIDA MAURIZIO M 1971 SM50 PRO PATRIA A.R.C. BUSTO A. ITA 1:25:20 1:24:33
279 89 539 PRANDO GIANMARCO M 1997 SM ATLETICO BASTIA ITA 1:25:21 1:24:55
280 48 263 CORNACCHIA ANGELO M 1978 SM45 AVIS ASCOLI MARATHON ITA 1:25:24 1:25:19
281 26 553 BERGAMO MASSIMO M 1970 SM50 ATL.JESOLO TURISMO ITA 1:25:27 1:25:12
282 90 431 PIERNI NICOLO' GUIDO M 1990 SM A.ATL.DOLOMITI BELLUNO ITA 1:25:29 1:25:23
283 9 5069 ROSSI MASSIMO MARCO M 1966 SM55 RUNNERS CAPRIOLESE 42,195 ITA 1:25:30 1:25:18
284 46 581 GASBARRA ANDREA M 1981 SM40 RUNCARD ITA 1:25:31 1:25:22
285 91 3667 BORTOLAMI PIETRO M 1993 SM RUNCARD ITA 1:25:34 1:25:20
286 92 315 VIEZZI ELIA M 1994 SM G.M. G.S. AQUILE FRIULANE ITA 1:25:34 1:25:10
287 60 159 PICCOLO RICCARDO M 1985 SM35 A.S.D. POLISPORTIVA BRENTELLA ITA 1:25:37 1:25:29
288 49 295 TORGHELE GABRIELE M 1976 SM45 TRENTINO LAGORAI TEAM ITA 1:25:38 1:25:34
289 27 186 NEGRO FILIPPO M 1973 SM50 VICENZA MARATHON ITA 1:25:39 1:25:30
290 61 345 CIAMPOLI VINCENZO M 1986 SM35 ATL. CIBENO ITA 1:25:41 1:25:30
291 28 232 CRISCUOLO GIUSEPPE M 1971 SM50 GARDA RUNNING A.S.D. ITA 1:25:41 1:25:35
292 29 5013 VALLANI LUCA M 1971 SM50 ASD REVELO ITA 1:25:41 1:25:35
293 10 221 FASOLI TIZIANO M 1965 SM55 BOSCAINI RUNNERS ITA 1:25:42 1:25:36
294 62 518 DORIO ANDREA M 1985 SM35 AFV BELTRAME ITA 1:25:43 1:24:58
295 93 526 SPADARO BIAGIO M 1990 SM RUNCARD ITA 1:25:45 1:25:09
296 47 309 BARONI PAOLO M 1981 SM40 JUNIOR SPORT AVIO ITA 1:25:48 1:25:37
297 94 455 RIZZITELLI MARCO M 1991 SM RUNCARD ITA 1:25:48 1:25:10
298 30 211 PASQUINI GABRIELE M 1972 SM50 A.S.D. TEAM KM SPORT ITA 1:25:50 1:25:42
299 31 246 NICASTRO SALVATORE M 1973 SM50 CUS PRO PATRIA MILANO ITA 1:25:51 1:25:44
300 48 5159 GIURDANELLA STEFANO M 1981 SM40 A.S. DIL. LIB. RUNNING MODICA ITA 1:25:51 1:25:37
301 50 394 DATO CARMELO M 1976 SM45 CUS INSUBRIA VARESE COMO ITA 1:25:53 1:25:29
302 49 454 VERONESI IVANO M 1979 SM40 RUNCARD ITA 1:25:58 1:25:37
303 32 5025 TIRONI STEFANO M 1969 SM50 RUNNERS BERGAMO ITA 1:26:06 1:25:56
304 33 183 CAPPELLARI ANDREA M 1973 SM50 VICENZA MARATHON ITA 1:26:06 1:25:55
305 50 5117 FASOLI LUCA M 1983 SM40 G.P. AVIS POL. MALAVICINA ITA 1:26:07 1:25:34
306 95 587 BENTINI ANDREA M 2000 SM POL. DIL. SANTA LUCIA ITA 1:26:08 1:25:56
307 96 951 RIZZI NICOLA M 1991 SM RUNCARD ITA 1:26:11 1:25:48
308 63 414 CAROBELLI GIULIO M 1986 SM35 RUNCARD EPS - SSDS MENS SANA IN CORPORE  ITA 1:26:11 1:25:20
309 51 5011 FERRARI PAOLO M 1982 SM40 A.S.D. 3T ITA 1:26:12 1:26:04
310 52 226 MASCHERINI CIRO M 1980 SM40 PICO RUNNERS ITA 1:26:12 1:26:04
311 34 249 CORRENDO MIRKO M 1973 SM50 A.S.D. POLISPORTIVA BRENTELLA ITA 1:26:16 1:26:07
312 11 5019 TODESCO ARNO M 1965 SM55 U.S. PRIMIERO ASD ITA 1:26:18 1:26:10
313 35 267 LUONGO GIANPIERO M 1972 SM50 G.S. FRAVEGGIO ITA 1:26:18 1:26:10
26 5 280 BACCI VERONICA F 1987 SF35 A.S.D. TEAM KM SPORT ITA 1:26:19 1:26:11
314 51 195 PAGNOTTA MAURIZIO M 1974 SM45 A. ATL. PORTO S. ELPIDIO ITA 1:26:22 1:26:14
315 52 370 AZZARI BRUNO M 1975 SM45 PODISTICA CORREGGIO ITA 1:26:24 1:26:09
316 97 756 PIOLANTI MIRCO M 1993 SM RUNCARD ITA 1:26:25 1:26:16
317 53 4613 PAGLIAZZI ANDREA M 1976 SM45 ATL. CASTELLO ITA 1:26:26 1:26:12
27 4 173 OLAVE ANDRADE GEMA F 1975 SF45 MARATON RIOJA ESP 1:26:26 1:26:02
318 54 389 BERTOLI MARCO M 1978 SM45 CREMONACORRE ASD ITA 1:26:28 1:26:04
319 53 299 MATTIUSSI GABRIELE M 1981 SM40 JALMICCO CORSE ASSOCIAZIONE SP ITA 1:26:28 1:26:22
28 5 523 RIZZA' VANIA F 1976 SF45 ATL.BASSANO RUNNING STORE ITA 1:26:32 1:26:20
320 98 322 GALVANETTO NICOLO' M 1997 SM ATL.VICENTINA ITA 1:26:33 1:26:20
321 64 769 ANTICO RICCARDO M 1987 SM35 SALTWELLHARRIERS ITA 1:26:34 1:25:41
322 55 623 MASOTTI LORENZO M 1974 SM45 RUNCARD ITA 1:26:36 1:26:21
    4058 NOCKELS NICOLAS M 1991 SM   FRA 1:26:37 1:25:41
323 65 1262 MAZZI FILIPPO M 1986 SM35 RUNCARD ITA 1:26:40 1:26:25
324 66 656 LUDWIG FLORIAN M 1988 SM35 RUNCARD GER 1:26:42 1:26:12
325 56 233 BAUMGARTNER MICHAEL M 1976 SM45 RUNCARD AUT 1:26:43 1:26:37
326 36 5120 BELLINI LORENZO M 1972 SM50 ATLETICA GUASTALLA REGGIOLO ITA 1:26:44 1:26:23
327 67 339 BERTE' MATTEO M 1987 SM35 JUNIOR SPORT AVIO ITA 1:26:44 1:26:09
328 54 5772 LEMMO FILIPPO M 1982 SM40 RUNCARD ITA 1:26:46 1:26:43
329 57 3817 CATTELAN FABIO M 1976 SM45 VICENZA RUNNERS ITA 1:26:46 1:26:42
330 99 5014 CARNELOS ERIK M 1993 SM A.S.D. TRIATHLON TEAM ITA 1:26:48 1:26:38
331 100 503 WAGNER SEBASTIAN M 1998 SM RUNCARD ITA 1:26:50 1:26:19
332 68 534 TESSARI MATTEO M 1987 SM35 RUNCARD ITA 1:26:50 1:26:20
333 101 1484 CANCELLI OSCAR M 1989 SM RUNCARD ITA 1:26:51 1:26:48
334 55 3809 PEDRONI NICOLA M 1980 SM40 LYKOS TRIATHLON TEAM ASD ITA 1:26:52 1:26:48
29 6 4263 VENTURI GIORGIA F 1984 SF35 POD. OZZANESE ITA 1:26:52 1:26:30
335 102 476 NATRELLA NICOLA M 1990 SM G.P. AVIS LOCATE DI TRIULZI ITA 1:26:54 1:26:14
336 69 758 BISCAGLIA FIORENZO M 1987 SM35 RUNCARD ITA 1:26:54 1:26:24
337 56 286 BERTO' OMAR M 1979 SM40 RUNCARD EPS - RUNCARD ITA 1:26:56 1:26:50
338 70 889 MAGALINI DENIS M 1984 SM35 G.P. AVIS POL. MALAVICINA ITA 1:26:58 1:26:44
339 57 551 MUSIU GIANLUCA M 1979 SM40 VIGILI DEL FUOCO VENEZIA ITA 1:27:00 1:26:46
340 103 502 AVI VALENTINO M 1997 SM TRAGUARDO VOLANTE RACING ITA 1:27:00 1:26:29
341 58 1181 BERTAGNOLI ALBERTO M 1981 SM40 RUNCARD ITA 1:27:01 1:26:22
342 58 367 FONTI MASSIMILIANO M 1974 SM45 ATLETICA BLIZZARD ITA 1:27:03 1:26:52
343 37 229 ROSSI ANDREA M 1973 SM50 LA FULMINEA RUNNING TEAM SINCE ITA 1:27:08 1:26:59
344 59 782 CAVALIERI MARCO M 1980 SM40 A.S.D. TEAM KM SPORT ITA 1:27:10 1:27:00
345 59 545 BIANCARDI SILVIO M 1978 SM45 GRUPPO PODISTI MONSELICENSI ITA 1:27:16 1:26:30
346 38 536 LIONETTI MARIO M 1973 SM50 LAGARINA CRUS TEAM ITA 1:27:20 1:26:59
347 104 416 VECCHIONI MATTIA M 1991 SM RUNCARD ITA 1:27:20 1:26:35
348 60 592 BIMBATO ANDREA M 1981 SM40 A.S.D. ATLETICA LUPATOTINA ITA 1:27:22 1:26:47
349 105 643 FACCI FILIPPO M 1998 SM ASD BUNKER SPORT ITA 1:27:27 1:27:13
350 61 460 MONTI MICHELE M 1983 SM40 DELTA ATL. SASSUOLO ITA 1:27:27 1:26:58
351 62 987 CONTE MATTEO M 1980 SM40 VICENZA MARATHON ITA 1:27:28 1:27:11
352 63 421 GIACOMELLI FLAVIO M 1981 SM40 ENERGIA FOR SPORT S.S.D. R.L. ITA 1:27:30 1:26:58
353 39 538 PERUZZO PAOLO M 1970 SM50 RUNNERS PADOVA ITA 1:27:32 1:27:22
354 40 780 BRUSCO EMANUELE M 1973 SM50 G.P. AVIS POL. MALAVICINA ITA 1:27:34 1:26:59
355 12 3972 BAU ROBERTO M 1965 SM55 LAGARINA CRUS TEAM ITA 1:27:38 1:27:19
356 41 3823 PUZZOLANTE SANDRO M 1971 SM50 CORRERE OLTRE ASD ITA 1:27:39 1:27:34
357 13 5085 LACHHAB MHAMED M 1968 SM55 ASD CITTA' DI TRENTO ITA 1:27:39 1:27:26
358 64 441 CECCON ALESSANDRO M 1979 SM40 RIDE YOUR DREAMS TREVISO ITA 1:27:39 1:27:08
359 65 293 RAVAGNAN GIORGIO M 1980 SM40 RUN RAN RUN ASD ITA 1:27:40 1:27:34
360 14 5102 FACCIOLO VALERIO M 1968 SM55 EUROATLETICA 2002 ITA 1:27:40 1:27:37
30 15 723 LONGO ELISABETTA F 1993 SF A.S.D. TEAM KM SPORT ITA 1:27:40 1:27:25
361 66 3873 ONGARO CHRISTIAN M 1981 SM40 ASV GHERDEINA RUNNERS ITA 1:27:41 1:27:22
362 2 5051 BOLDRIN CLAUDIO M 1962 SM60 RAIN RUNNERS ITA 1:27:43 1:26:52
363 67 542 MOSER DAVID M 1980 SM40 RUNCARD ITA 1:27:46 1:27:36
364 68 208 MODANESE LUCA M 1981 SM40 GS RUN FOR MIKE ASD ITA 1:27:46 1:27:38
365 60 5116 TOMMASINI CHRISTIAN M 1975 SM45 ATHLETIC CLUB 96 ALPERIA ITA 1:27:47 1:27:26
366 15 411 MASIA MARCO M 1968 SM55 STUDIUM ET STADIUM ITA 1:27:48 1:27:15
367 69 524 SILVA WILLIANS ANDERSON M 1983 SM40 RUNCARD ITA 1:27:49 1:27:05
368 70 390 BORTOLOTTI ALESSANDRO M 1980 SM40 ASS.SPORT.DILETTANT.DRIBBLING ITA 1:27:50 1:27:29
    348 ORCHOWSKI PRZEMYSÅ‚AW M 1984 SM35   POL 1:27:55 1:27:08
    684 MUñOZ MORENO JOSé ANTONIO M 1975 SM45   ESP 1:27:56 1:27:32
369 106 686 BARBOLINI GIULIANO M 1996 SM RUNCARD ITA 1:27:58 1:27:35
370 42 398 PEDRINOLLA DAVIDE M 1971 SM50 LAGARINA CRUS TEAM ITA 1:28:00 1:27:39
371 107 513 DI TERLIZZI MATTEO M 1995 SM RUNCARD ITA 1:28:03 1:27:35
372 61 859 ZAGARIA MICHELE M 1975 SM45 BARLETTA SPORTIVA ITA 1:28:03 1:27:53
373 62 442 GANGI ANGELO M 1976 SM45 RUNCARD ITA 1:28:05 1:27:54
374 71 4499 BIRTELE FRANCESCO M 1988 SM35 RUNCARD EPS - RUNCARD ITA 1:28:06 1:27:45
375 72 479 SFARDINI ALESSIO M 1986 SM35 RUNCARD ITA 1:28:07 1:27:19
376 73 563 DI GREGORIO ALBERTO M 1984 SM35 ASD FILMAR RUNNING ITA 1:28:08 1:27:45
377 63 4112 SIRIGNANO ERNESTO M 1976 SM45 LIONS VALLE UFITA ITA 1:28:12 1:28:09
378 43 388 COLOMBA PAOLO M 1969 SM50 I SARMATI ITA 1:28:14 1:27:51
379 74 529 POZZAN FILIPPO M 1985 SM35 A.S.D. TEAM KM SPORT ITA 1:28:14 1:27:39
380 64 266 MICOLI FRANCESCO M 1977 SM45 G.M. G.S. AQUILE FRIULANE ITA 1:28:15 1:28:04
381 16 4435 MAGGIORE MATTEO M 1968 SM55 A.S. DIL. POL. ATL. BAGHERIA ITA 1:28:17 1:27:57
382 44 450 BELLETTI ANDREA M 1971 SM50 ASD MIRAMARE RUNNER ITA 1:28:17 1:28:02
383 65 699 MINEI FULVIO M 1975 SM45 A.S.D. PODISTICA TORINO ITA 1:28:18 1:27:47
384 45 429 DEGLI ESPOSTI UMBERTO M 1973 SM50 ASD ATLETICA  PRATO ITA 1:28:21 1:28:04
385 46 714 PUIATTI STEFANO M 1971 SM50 RUNCARD EPS - RUNCARD ITA 1:28:24 1:27:51
386 3 783 ADAMO GIUSEPPE M 1963 SM60 G.S.D. 5 TORRI  FIAMME CREMISI ITA 1:28:24 1:28:12
387 71 657 GIUST FABIO M 1983 SM40 VICENZA MARATHON ITA 1:28:24 1:27:46
388 66 5133 COSTALUNGA ALESSANDRO M 1974 SM45 VICENZA RUNNERS ITA 1:28:25 1:28:04
389 72 842 CHIAROT GIOVANNI M 1982 SM40 RUNCARD ITA 1:28:26 1:27:53
390 67 451 BABICI ANDREA M 1975 SM45 G.S.D.  VAL ROSANDRA TRIESTE ITA 1:28:27 1:28:18
391 75 612 ZANONE FRANCESCO M 1984 SM35 GRUPPO SPORTIVO NATISONE ITA 1:28:28 1:27:51
392 73 490 GELMI DAVIDE M 1981 SM40 G. ALPINISTICO VERTOVESE ITA 1:28:30 1:27:48
393 68 3975 GENTILE PRIMO M 1974 SM45 PODISTI CORDENONS ITA 1:28:32 1:28:27
394 69 319 DAL SASSO ALBERTO M 1975 SM45 AFV BELTRAME ITA 1:28:32 1:28:23
395 108 274 SALVADORE ANDREA M 1992 SM A.S.D. TEAM KM SPORT ITA 1:28:33 1:28:27
396 74 439 PEZZONI ARONNE M 1980 SM40 RUNCARD ITA 1:28:34 1:28:20
397 109 668 GATTO FRANCESCO M 1994 SM RUNCARD ITA 1:28:35 1:28:07
398 47 386 GASTALDI ERMINIO M 1973 SM50 K3 SSD ARL ITA 1:28:35 1:28:26
399 17 426 FERRERA SALVATORE M 1968 SM55 A.S.D. BARRAFRANCA RUNNING ITA 1:28:36 1:28:18
400 70 785 PIROVANO ALESSANDRO M 1977 SM45 GS AVIS TREVIGLIO G.BRUSAFERRI ITA 1:28:37 1:28:12
    483 STEFAÅƑSKI PIOTR M 1960 SM60   POL 1:28:38 1:28:17
401 48 560 MARETTI MIRCO M 1972 SM50 MARATHON LEGNAGO ITA 1:28:39 1:27:52
402 110 740 MANCINI SIMONE M 1994 SM RUNCARD ITA 1:28:39 1:27:59
403 75 1056 BILATO SIMONE M 1983 SM40 RUNCARD ITA 1:28:41 1:28:23
404 76 397 ZANETTI MATTEO M 1980 SM40 RUNCARD ITA 1:28:42 1:28:12
405 49 5053 MENIN CRISTIANO M 1970 SM50 A.S.D. TEAM KM SPORT ITA 1:28:42 1:27:54
406 18 333 SERAFINI IRENO M 1965 SM55 U.S. CARISOLO ITA 1:28:43 1:28:34
407 71 5083 CARVINI NICOLA M 1977 SM45 ASD FILMAR RUNNING ITA 1:28:43 1:28:20
408 19 462 LANGHI CARLO M 1968 SM55 A.S.D. CIRCUITO RUNNING ITA 1:28:43 1:28:30
409 77 575 PRIULI NICOLO M 1982 SM40 A.S.D. TEAM KM SPORT ITA 1:28:46 1:28:03
410 78 761 MORETTI DANIELE M 1981 SM40 G. ALPINISTICO VERTOVESE ITA 1:28:47 1:28:06
411 50 989 MENTI CRISTIANO M 1971 SM50 VICENZA MARATHON ITA 1:28:47 1:28:09
412 79 95 MONACO ENEA M 1981 SM40 ENERGIA FOR SPORT S.S.D. R.L. ITA 1:28:48 1:28:42
413 51 4635 FEICHTER MANFRED M 1971 SM50 SUEDTIROLER LV SPARKASSE ITA 1:28:48 1:26:58
414 80 1069 FANELLI LUCA M 1979 SM40 AZALAI A.S.D. ITA 1:28:48 1:28:35
415 76 1127 CAZZADOR ENRICO M 1986 SM35 TRENTINO RUNNING TEAM ITA 1:28:50 1:28:34
416 81 212 NARDELLI GILLES M 1982 SM40 TRENTINO RUNNING TEAM ITA 1:28:50 1:28:35
417 77 957 GALDIOLO NICOLA M 1987 SM35 A.S.D. ATLETICA LUPATOTINA ITA 1:28:51 1:28:17
418 111 5110 ALESSIO GIANLUCA M 1991 SM RUNCARD ITA 1:28:52 1:28:39
419 4 471 SALONIA FRANCESCO M 1961 SM60 SIRACUSATLETICA ITA 1:28:54 1:28:45
420 78 618 FREDDI DAMIANO M 1988 SM35 RUNCARD ITA 1:28:56 1:28:18
421 79 602 RASI ANDREA M 1988 SM35 RUNCARD EPS - RUNCARD ITA 1:28:56 1:28:18
422 20 452 LIGOTTI GIUSEPPE M 1965 SM55 ASD FREE RUNNERS TRIESTE ITA 1:28:57 1:28:42
423 52 759 CAMPAGNOLO MAURO M 1973 SM50 EMME RUNNING TEAM ITA 1:28:57 1:28:43
424 82 667 GAETANI MARCO M 1982 SM40 A.S.D. TEAM KM SPORT ITA 1:28:58 1:28:36
425 80 540 MALAGOLI MARCO M 1984 SM35 MARATHON CREMONA ITA 1:29:00 1:28:44
426 53 552 GABUTTI LUCA M 1970 SM50 RUNCARD ITA 1:29:01 1:28:23
427 81 771 GIRALDO SAMUELE M 1984 SM35 I SARMATI ITA 1:29:02 1:28:51
428 83 787 BRAGAGNOLO MANUEL M 1980 SM40 EMME RUNNING TEAM ITA 1:29:02 1:28:46
429 54 3989 LA TORRE TOMMASO M 1970 SM50 A.S.D. C.U.S. BRESCIA ITA 1:29:02 1:29:00
430 72 382 GASPERONI ANDREA M 1974 SM45 RUNCARD ITA 1:29:04 1:28:42
431 112 585 MATERA SIMONE M 1999 SM G.S.D. 5 TORRI  FIAMME CREMISI ITA 1:29:05 1:28:45
432 82 878 DELL'OCCHIO FABRIZIO M 1984 SM35 RUNCARD ITA 1:29:05 1:28:16
    4228 REBOLLO GARCIA JACINTO M 1991 SM   ESP 1:29:09 1:28:56
433 113 525 BARALDO NICOLA M 1994 SM G.S.D. VALDALPONE DE MEGNI ITA 1:29:10 1:28:53
434 114 606 VIANI LORENZO M 1993 SM RUNCARD ITA 1:29:11 1:28:51
435 115 4424 SANGIOVANNI GUIDO M 1990 SM RUNCARD ITA 1:29:12 1:28:50
436 73 687 GERONAZZO ALESSANDRO M 1975 SM45 ATL.AUDACE NOALE ITA 1:29:13 1:28:45
437 84 405 MORLACCO GIOVANNI M 1983 SM40 RUNCARD ITA 1:29:16 1:28:48
438 74 715 PARISE IVAN M 1975 SM45 ATL. MALNATE ITA 1:29:16 1:28:56
439 75 230 ORI ALESSIO M 1976 SM45 POLISPORTIVA VODO DI CADORE ITA 1:29:17 1:29:11
440 55 674 CIURLEO VINCENZO M 1972 SM50 GSBR ITA 1:29:19 1:29:10
441 56 535 SCHUSTER ANDRÉ M 1973 SM50 SPORT RUSCHER TEAM GER 1:29:20 1:28:54
442 57 688 ALBANI IVAN M 1969 SM50 BERGAMO STARS ATLETICA ITA 1:29:20 1:28:36
443 76 4564 ANGRI STEFANO M 1974 SM45 U.S. SAN MAURIZIO ITA 1:29:22 1:29:05
444 83 5106 FORNARO MATTEO M 1986 SM35 A.S.D. TEAM KM SPORT ITA 1:29:22 1:28:42
445 77 5778 LIONELLO DAVIDE M 1974 SM45 ATLETICA MONTEGRAPPA ITA 1:29:25 1:29:21
446 78 1082 SINIGAGLIA SEBASTIANO M 1974 SM45 PADOVA TRIATHLON E DUATHLON ITA 1:29:27 1:29:06
447 79 694 MEDEOT GIACOMO M 1978 SM45 RUNNING CLUB 2 MONFALCONE ITA 1:29:27 1:29:05
31 7 5098 PANCIERA FEDERICA F 1988 SF35 TORINO ROAD RUNNERS A.S.D. ITA 1:29:28 1:28:44
448 5 3709 FRANCESCATO DINO M 1962 SM60 ATL. CIBENO ITA 1:29:29 1:29:10
32 5 610 DALLA TOR ELISA F 1979 SF40 DK RUNNERS MILANO ITA 1:29:30 1:28:52
449 58 317 GABRIELLI DAVIDE M 1973 SM50 RUNCARD ITA 1:29:31 1:28:54
450 21 261 PLAICKNER HERMANN GERALD M 1966 SM55 LAUFCLUB PUSTERTAL ITA 1:29:33 1:29:26
451 116 1089 CARMINATI ALESSANDRO M 1991 SM RUNCARD ITA 1:29:34 1:28:39
452 80 1112 DECARLI STEFANO M 1978 SM45 G.S. FRAVEGGIO ITA 1:29:36 1:28:58
453 117 970 MONTI FILIPPO M 1989 SM SSDRL CINQUE CERCHI ITA 1:29:37 1:29:15
454 85 5008 REGGIANI ANDREA M 1980 SM40 A.S.D. TEAM KM SPORT ITA 1:29:39 1:29:31
455 84 949 KOEK ROBIN VINCENT M 1985 SM35 RUNCARD NED 1:29:39 1:29:22
    841 CSASZAR ISTVAN M 1974 SM45   HUN 1:29:40 1:29:09
    427 WAWRZYNIAK-WACKO ZOFIA F 1986 SF35   POL 1:29:40 1:29:10
33 16 5088 MARCHESONI GIULIA F 1992 SF U.S. CARISOLO ITA 1:29:40 1:29:15
34 17 522 LUCACI ANDREEA F 1994 SF G.P. PARCO ALPI APUANE ROU 1:29:41 1:29:28
456 118 4730 JOSOL JAN RAVEN M 1994 SM RUNCARD ITA 1:29:41 1:29:31
457 119 828 CHIEA LUCA M 1992 SM RUNCARD ITA 1:29:43 1:28:52
458 120 4521 VENTURI RICCARDO M 1995 SM A.S.D. TEAM KM SPORT ITA 1:29:44 1:29:23
459 86 4523 VERZENI DANIELE M 1982 SM40 ADDA RUNNING TEAM ITA 1:29:44 1:29:25
460 59 567 BUSON LORENZO M 1969 SM50 ATLETICA ROTALIANA ITA 1:29:49 1:29:17
461 81 369 FORMENTI ANDREA M 1977 SM45 G.P. AVIS POL. MALAVICINA ITA 1:29:50 1:29:26
462 85 364 ALTOLINI DIEGO M 1986 SM35 ATL.VICENTINA ITA 1:29:52 1:29:42
463 121 5147 DIPILATO ALESSANDRO M 1989 SM RUNCARD ITA 1:29:52 1:29:28
35 6 320 SCHIO FEDERICA F 1981 SF40 A.S.D. ATLETICA LUPATOTINA ITA 1:29:53 1:29:19
36 6 851 DEL CARLO SONIA F 1974 SF45 A.S. LA FRATELLANZA 1874 ITA 1:29:53 1:29:32
464 122 768 CECCHIN RICCARDO M 1990 SM RUNCARD ITA 1:29:53 1:28:58
465 86 900 ANDROMARI ANDREA M 1985 SM35 ASD RUN IT ITA 1:29:53 1:29:39
466 82 717 FAEDO ANDREA M 1975 SM45 A.S.D. ATLETICA LUPATOTINA ITA 1:29:56 1:29:21
37 8 3821 ZOCCATELLI GIORGIA F 1987 SF35 ASD REVELO ITA 1:29:59 1:29:45
467 87 875 CAPPELLI VALERIO M 1987 SM35 RUNCARD ITA 1:30:01 1:29:22
468 123 1208 CHIGIONI ANGELO M 1992 SM RUNCARD ITA 1:30:01 1:29:36
469 83 766 DE ZOTTI ALESSANDRO M 1974 SM45 RUNCARD ITA 1:30:01 1:29:28
470 60 1331 DI FELICE MARCO M 1973 SM50 CSD GUARDIA DI FINANZA AOSTA ITA 1:30:01 1:29:45
471 84 344 VANNINI MATTEO M 1977 SM45 ATL. CASTENASO  CELTIC DRUID ITA 1:30:02 1:29:39
472 61 3811 SANNA GIANLUCA M 1972 SM50 ATLETICA SAN NICOLA ITA 1:30:03 1:29:21
473 62 484 QAZIMLLARI ALTIN M 1973 SM50 ATL. CIBENO ALB 1:30:05 1:29:40
474 85 459 PIETRA GIANLUCA M 1974 SM45 A.S.D.  CANOTTIERI TICINO ITA 1:30:06 1:29:53
475 63 4000 ROSSINI GIANMARIA M 1969 SM50 SPORTS CLUB MELEGNANO ITA 1:30:07 1:29:33
476 124 1915 ZARRILLI ALESSANDRO M 1999 SM RUNCARD ITA 1:30:08 1:30:05
477 64 329 DELL'OSTE MASSIMO M 1970 SM50 A.S.D. TEAM KM SPORT ITA 1:30:10 1:29:37
478 86 417 GASPERETTI ALESSANDRO M 1978 SM45 ATL.  VALLI DI NON E SOLE ITA 1:30:11 1:29:23
479 87 724 MALAVASI ANDREA M 1983 SM40 TRIIRON ITA 1:30:11 1:29:56
480 125 1075 SACCOMAN GIANLUCA M 1990 SM A.S.D. JESOLO TRIATHLON ITA 1:30:12 1:29:39
481 88 1468 MAROZIN CRISTIAN M 1979 SM40 VICENZA MARATHON ITA 1:30:13 1:29:58
482 126 1087 VERGANI ANDREA M 1994 SM G.S. AVIS - SEREGNO ITA 1:30:13 1:29:33
483 87 652 QUEQUESANA EDDY M 1976 SM45 G.S. MONTESTELLA BOL 1:30:13 1:29:37
484 127 1904 BIASOLO ALESSANDRO M 1996 SM RUNCARD ITA 1:30:15 1:30:13
485 128 5178 FOLLONI LUCA M 1997 SM TRILAKE ASD ITA 1:30:16 1:29:40
486 88 4607 FANTUZ IGOR M 1977 SM45 E20RUN ITA 1:30:17 1:29:37
487 22 4601 CASTELLI CLAUDIO M 1967 SM55 GIOVANNI SCAVO 2000 ATL. ITA 1:30:18 1:29:57
488 89 530 SERINO MAURO M 1981 SM40 RUNNING SARONNO ITA 1:30:18 1:30:01
489 88 1474 BISCEGLIE FRANCESCO JUNIOR M 1987 SM35 A.S.D. MACURI TEAM ITA 1:30:18 1:30:14
490 89 5109 BERGAMELLI FEDERICO M 1985 SM35 RUNCARD ITA 1:30:21 1:29:51
491 129 793 LIBRIZZI GIOVANNI M 1992 SM RUNCARD ITA 1:30:22 1:30:01
492 65 499 FILIPPI GIANLUCA M 1970 SM50 GS VALSUGANA TRENTINO ITA 1:30:22 1:29:52
38 9 508 WIEDER MARY ELIZABETH F 1984 SF35 A.S.D. TEAM KM SPORT ITA 1:30:24 1:30:01
493 90 794 MASTROPASQUA STEFANO M 1987 SM35 ROSA RUNNING TEAM ITA 1:30:24 1:30:08
    671 PETER FREDERIK M 1990 SM   SUI 1:30:25 1:29:41
494 89 685 MARES RICCARDO M 1977 SM45 ASD RUN IT ITA 1:30:27 1:30:02
495 23 3816 SANNA MASSIMO M 1965 SM55 LIBERTAS VALLESABBIA ITA 1:30:27 1:30:15
496 90 650 BELLISANO LUCA M 1979 SM40 A.P.D. SPORTERAPIA ITA 1:30:29 1:30:16
497 130 5094 ZILIO ANDREA M 1990 SM RUNCARD ITA 1:30:30 1:29:34
498 91 139 SARTO FABIO M 1979 SM40 GR.PODISTICO AVIS TAGLIO DI PO ITA 1:30:31 1:30:22
499 90 372 ALBARELLI DANIELE M 1974 SM45 PODISTICA CORREGGIO ITA 1:30:32 1:30:17
500 66 5125 SACCHI ANTONIO M 1970 SM50 SPORTIAMO ITA 1:30:34 1:30:18
501 131 742 PASCULLI MICHELE M 1990 SM G.P. AVIS POL. MALAVICINA ITA 1:30:35 1:30:03
502 92 346 CANZIO MATTEO M 1983 SM40 RUNCARD EPS - RUNCARD ITA 1:30:36 1:30:03
503 93 665 PELOSO THOMAS M 1980 SM40 VICENZA MARATHON ITA 1:30:36 1:29:58
504 91 336 ANGIONE ANGELO M 1976 SM45 BARLETTA SPORTIVA ITA 1:30:38 1:30:01
505 67 774 CAFFAGNI FABIO M 1972 SM50 PODISTICA CORREGGIO ITA 1:30:39 1:30:22
506 24 5060 BARBIERI MAURO M 1967 SM55 KINO MANA ITA 1:30:39 1:30:22
507 94 501 ZANEI LORENZO M 1981 SM40 GS VALSUGANA TRENTINO ITA 1:30:41 1:30:11
508 132 1048 DEL FABRO GIOVANNI M 1992 SM RUNCARD ITA 1:30:42 1:30:01
39 7 730 ZAMBONI IRENE F 1982 SF40 GS VALSUGANA TRENTINO ITA 1:30:42 1:30:11
509 6 366 BEATRICI ROLANDO M 1962 SM60 G.S. FRAVEGGIO ITA 1:30:43 1:30:18
510 68 506 FROSINI FEDERICO M 1970 SM50 RUNCARD EPS - RUNCARD ITA 1:30:46 1:30:27
511 5 4566 NICOLETTO PIETRO M 2001 PM RUNCARD ITA 1:30:46 1:30:32
512 69 262 MATERA ANGELO MASSIMO M 1969 SM50 G.S.D. 5 TORRI  FIAMME CREMISI ITA 1:30:46 1:30:26
    880 PONROY GUILLAUME M 1984 SM35   FRA 1:30:47 1:30:04
    992 GILLESPIE CARINA F 1995 SF   USA 1:30:50 1:30:33
513 92 437 TIBONI TIZIANO M 1975 SM45 SPORT&FITNESS SRL  SSD ITA 1:30:52 1:30:42
    597 WESER GEORG ATHANASIUS M 1990 SM   GER 1:30:53 1:30:22
514 91 641 VICENTINI MARCELLO M 1985 SM35 LAGARINA CRUS TEAM ITA 1:30:53 1:30:07
515 92 4445 THEINER WOLFGANG M 1984 SM35 RUNCARD ITA 1:30:55 1:30:27
516 93 5154 TOMMASINI NICOLA M 1984 SM35 6XCORRERE ITA 1:30:56 1:30:40
517 93 736 PASSINI ANDREA M 1975 SM45 PASSO CAPPONI ASD ITA 1:30:56 1:30:27
518 70 681 SBARRA AGOSTINO M 1973 SM50 UNIONE SPORTIVA NAVE ASD ITA 1:30:57 1:30:42
    368 DOMINGUEZ FERNANDO M 1992 SM   MEX 1:30:59 1:30:12
519 94 1447 DALLA RIVA DENIS M 1978 SM45 VICENZA MARATHON ITA 1:30:59 1:30:56
520 25 308 FARINA ANDREA STEFANO M 1965 SM55 G.S.D. 5 TORRI  FIAMME CREMISI ITA 1:30:59 1:30:40
40 1 5103 SANTI ELENA F 1970 SF50 ASD PRATO PROMOZIONE ITA 1:31:00 1:30:47
521 94 923 BORGA MATTEO M 1985 SM35 ESERCITO-4 REGG. ALPINI PARAC. ITA 1:31:00 1:30:42
522 133 4441 POGGI LUCA M 1990 SM RUNCARD ITA 1:31:02 1:30:45
523 95 645 PASSARINI STEFANO M 1977 SM45 A.S.D. ATLETICA LUPATOTINA ITA 1:31:03 1:30:29
524 26 5104 FALTNER KURT M 1967 SM55 RUNCARD ITA 1:31:04 1:30:20
525 96 5071 BARBIERI CRISTIAN M 1976 SM45 RUNCARD ITA 1:31:06 1:30:51
526 95 1367 FURLAN IVAN M 1982 SM40 RUNCARD ITA 1:31:06 1:30:55
527 134 709 TAUFER MARCO M 1991 SM ANA ATL.FELTRE ITA 1:31:07 1:30:25
528 97 512 REALE PASQUALE M 1976 SM45 PICO RUNNERS ITA 1:31:09 1:30:37
529 95 1139 ARMENISE ALBERTO M 1988 SM35 ATLETICA PRO CANOSA ITA 1:31:10 1:31:00
530 96 4220 HASANAGIC MALIK M 1979 SM40 TRENTINO RUNNING TEAM ITA 1:31:10 1:31:03
531 97 4690 CESCHI CRISTIAN M 1980 SM40 VICENZA MARATHON ITA 1:31:11 1:30:59
532 98 4664 SFOGLIARINI ROBERTO M 1976 SM45 PRO SESTO ATL. CERNUSCO ITA 1:31:12 1:30:34
533 71 5099 DONATONI STEFANO M 1973 SM50 A.S.D. LA RUSTICA PESCANTINA ITA 1:31:13 1:31:08
534 27 456 RADAELLI GIANCARLO M 1965 SM55 CAMISANO RUNNING A.S.D. ITA 1:31:13 1:30:55
535 96 1829 CANNIZZARO FILIPPO M 1987 SM35 RUNCARD ITA 1:31:13 1:30:52
    5351 BEAUDLET THOMAS M 1998 SM   FRA 1:31:17 1:30:50
41 10 5066 BELLINI GIULIA F 1984 SF35 ATLETICA CORRIFERRARA ITA 1:31:18 1:31:06
536 72 1547 NOVELLO ANDREA M 1970 SM50 VENEZIA RUNNERS ATL.MURANO ITA 1:31:18 1:31:15
537 98 1448 TRUZZOLI MASSIMO M 1983 SM40 A.S.D. TEAM KM SPORT ITA 1:31:19 1:31:14
538 135 713 GARBUIO LEONARDO M 1991 SM A.S.D. TEAM KM SPORT ITA 1:31:21 1:30:38
539 73 823 VITALE CARLO M 1973 SM50 MONDRAGONE IN CORSA ITA 1:31:21 1:30:42
    494 CARTER JENNY F 1973 SF50   GBR 1:31:22 1:30:27
540 99 726 PO FABRIZIO M 1981 SM40 RUNCARD ITA 1:31:22 1:30:49
541 99 3810 GEMMA GIORDANO M 1976 SM45 GRUPPO SAN PIO X ITA 1:31:22 1:31:08
542 100 485 BOSSU' FRANCESCO M 1974 SM45 PASSO CAPPONI ASD ITA 1:31:22 1:30:29
543 101 739 MORA LORENZO M 1974 SM45 ATL. CIBENO ITA 1:31:23 1:31:04
544 100 5097 EVANGELISTI MATTEO M 1982 SM40 ATLETICA CORRIFERRARA ITA 1:31:25 1:31:04
545 101 252 BANNO' GIUSEPPE M 1982 SM40 ATLETICA ROTALIANA ITA 1:31:26 1:31:19
42 11 482 PIZZOLATO GRETA F 1988 SF35 POLISPORTIVA AURORA 76 ASD ITA 1:31:26 1:31:05
43 18 1126 PIZZOLATO FRANCESCA F 1996 SF AFV BELTRAME ITA 1:31:26 1:31:05
546 136 799 BIANCHI ANDREA M 1995 SM ESERCITO-4 REGG. ALPINI PARAC. ITA 1:31:29 1:31:11
547 74 314 DELLA VEDOVA CLAUDIO M 1969 SM50 G.M. G.S. AQUILE FRIULANE ITA 1:31:29 1:31:14
548 102 5082 CORVINI SIMONE M 1983 SM40 PERSICETANA PODISTICA ITA 1:31:30 1:30:44
549 103 472 PETRILLO GABRIELE M 1982 SM40 ROAD RUNNERS CLUB MILANO ITA 1:31:30 1:31:05
550 75 515 MAGGIO LUIGI M 1973 SM50 ASD FILMAR RUNNING ITA 1:31:31 1:31:09
44 2 5091 RIGO FRANCESCA F 1970 SF50 BOSCAINI RUNNERS ITA 1:31:32 1:31:09
551 97 805 SPAGNOLO MARCO M 1984 SM35 ATL.VICENTINA ITA 1:31:33 1:30:53
552 28 752 RIVA ANDREA M 1967 SM55 A.S.D. TEAM KM SPORT ITA 1:31:33 1:31:16
553 102 601 MAZZOCCHI MATTEO M 1978 SM45 EMME RUNNING TEAM ITA 1:31:33 1:31:17
554 76 764 CASATI FRANCO M 1973 SM50 MONZA MARATHON TEAM - A.S.D. ITA 1:31:34 1:31:00
555 104 661 PEGORARO ALESSANDRO M 1979 SM40 VICENZA MARATHON ITA 1:31:35 1:30:37
45 7 457 VECELLIO SILVIA F 1975 SF45 ATLETICADORE - GIOCALLENA ASD ITA 1:31:37 1:31:22
556 98 543 FASOLI YORICK M 1984 SM35 BOSCAINI RUNNERS ITA 1:31:37 1:31:13
557 77 321 FRIZZERA DANIEL M 1971 SM50 TRENTINO RUNNING TEAM ITA 1:31:38 1:30:54
558 137 465 RUSSO ANGELO M 1994 SM RUNCARD ITA 1:31:38 1:31:09
559 138 1014 CIAMBELLI SIMONE M 1990 SM RUNCARD ITA 1:31:38 1:31:16
560 139 625 MARCHIORI FEDERICO M 1991 SM RUNCARD ITA 1:31:39 1:31:12
561 99 1039 COLANGELO PIETRO M 1984 SM35 A.S.D. EQUILIBRA RUNNING TEAM ITA 1:31:40 1:30:54
562 7 755 DI GAETANO PAOLO M 1963 SM60 LBM SPORT TEAM ITA 1:31:40 1:31:21
563 140 507 DORIO LUCA M 1990 SM A.S.D. TEAM KM SPORT ITA 1:31:41 1:30:56
564 78 544 BENETTON MASSIMO M 1973 SM50 RUNNERS PADOVA ITA 1:31:41 1:31:25
565 103 689 SAGGIO ALESSANDRO M 1978 SM45 RUNCARD ITA 1:31:43 1:31:18
566 141 5077 GAINELLI FEDERICO M 2000 SM A.S.D. TEAM KM SPORT ITA 1:31:43 1:31:28
567 142 1704 TURRI ANTONIO M 1991 SM RUNCARD ITA 1:31:44 1:31:40
568 79 537 NASSI ANDREA M 1970 SM50 RUNNERS TEAM ZANE' ITA 1:31:45 1:31:25
569 104 644 CEVOLINI ALBERTO M 1974 SM45 A.S. LA FRATELLANZA 1874 ITA 1:31:46 1:31:12
570 100 449 GAMBARELLI MARCO M 1986 SM35 ASS. POL. SCANDIANESE ITA 1:31:49 1:31:40
    807 VAN BOMMEL JELMER M 1998 SM   NED 1:31:50 1:31:22
571 105 489 ZIZZOLA MARCO M 1977 SM45 EMME RUNNING TEAM ITA 1:31:50 1:31:21
572 106 700 COSMO SIMONE M 1976 SM45 U.S.ATL.QUINTO-MASTELLA ITA 1:31:50 1:31:19
573 105 1004 VETTORAZZI MAURIZIO M 1980 SM40 RUNCARD ITA 1:31:50 1:31:29
574 29 4674 VALENTI PIERO M 1968 SM55 G.S. BONDO ITA 1:31:55 1:31:16
575 107 803 MATERAZZI ENRICO M 1976 SM45 RUNCARD ITA 1:31:57 1:31:44
576 108 791 TARTARINI ALAN M 1977 SM45 PICO RUNNERS ITA 1:31:58 1:31:33
577 80 982 BRACCIOLINI FABIO M 1972 SM50 VICENZA MARATHON ITA 1:31:58 1:31:10
578 106 770 COLBERTALDO LUCA M 1979 SM40 RUN RAN RUN ASD ITA 1:32:02 1:31:25
579 30 316 FRANZIN FABIO M 1965 SM55 ATLETICA ROTALIANA ITA 1:32:05 1:31:35
580 31 3808 VANELLI ANDREA M 1965 SM55 PERSICETANA PODISTICA ITA 1:32:06 1:32:02
581 107 433 PETRINI GIANLUCA M 1980 SM40 EASY RUNNER ASD ITA 1:32:09 1:31:56
46 19 4648 NERI FRANCESCA ROMANA F 1992 SF RUNCARD ITA 1:32:10 1:31:26
582 101 434 MAIORCA GIOVANNI MARIA M 1987 SM35 ATLETICA ALTO GARDA E LEDRO ITA 1:32:10 1:31:56
583 143 5090 LUPPICHINI ALBERTO M 1990 SM PISA ROAD RUNNERS CLUB ITA 1:32:10 1:31:58
584 109 619 SESTO STEFANO M 1976 SM45 PISA ROAD RUNNERS CLUB ITA 1:32:10 1:31:59
585 108 1214 MODENA MARTINO M 1981 SM40 A.S.D. LA RUSTICA PESCANTINA ITA 1:32:17 1:31:55
47 3 669 VENTURELLI NICOLETTA F 1973 SF50 ASD 3'.30'' TEAM ITA 1:32:18 1:32:06
586 32 282 BONETTI ROBERTO M 1968 SM55 ASD 3'.30'' TEAM ITA 1:32:18 1:32:06
587 109 1644 ROTHENBERG SAM M 1980 SM40 RUNCARD USA 1:32:19 1:32:16
588 81 3936 CECCATO NICOLA M 1971 SM50 VENEZIA RUNNERS ATL.MURANO ITA 1:32:19 1:31:55
589 33 872 MARCOTTI PAOLO M 1967 SM55 G.S. CARLO BUTTARELLI ITA 1:32:19 1:31:45
590 110 734 CARRARA ALESSANDRO M 1977 SM45 RUNNING SARONNO ITA 1:32:20 1:31:44
591 82 698 LILLO VITO M 1969 SM50 BITONTO SPORTIVA ITA 1:32:24 1:32:00
592 110 5095 MAGGIO SIMONE M 1980 SM40 ATHLETIC CLUB VILLASANTA ITA 1:32:26 1:32:06
593 111 527 FAZION GUIDO M 1983 SM40 RUNCARD ITA 1:32:26 1:32:15
48 12 712 AGNETTI FEDERICA F 1986 SF35 ATL. MALNATE ITA 1:32:28 1:32:15
594 34 960 STOPPATO MARCELLO M 1968 SM55 A.S.D. ATLETICA LUPATOTINA ITA 1:32:31 1:32:11
595 35 616 MAROTTA ANDREA M 1966 SM55 LISPHERA ITA 1:32:31 1:32:07
596 112 4431 AGNESINI DANIELE M 1982 SM40 RUNCARD ITA 1:32:33 1:32:02
    342 MOSHAMMER EUGEN M 1987 SM35   AUT 1:32:38 1:31:48
597 102 4459 TAROZZI MARCO PAOLO M 1988 SM35 RUNCARD ITA 1:32:38 1:32:14
598 111 432 SANVIDO SIMONE M 1976 SM45 EMME RUNNING TEAM ITA 1:32:38 1:32:26
599 103 1111 CORRADIN FABIO M 1986 SM35 RUNCARD ITA 1:32:39 1:32:16
600 112 801 QUARESIMA GIOVANNI M 1977 SM45 A.S.D. CC GIUSEPPE CAVAGNERO ITA 1:32:40 1:32:20
601 144 871 PERONA MATTEO M 1992 SM ASSINDUSTRIA SPORT ITA 1:32:42 1:32:26
602 36 4470 ALBERTAZZI FLAVIO M 1968 SM55 POL. PORTA SARAGOZZA ITA 1:32:43 1:32:00
603 113 940 MERCIARO RENZO M 1983 SM40 ASD RUNNERS CHIETI ITA 1:32:45 1:31:59
604 104 4494 SENO ALESSANDRO M 1988 SM35 RUNCARD ITA 1:32:47 1:32:17
605 83 5142 DODARO EUGENIO M 1969 SM50 RUNCARD ITA 1:32:48 1:32:23
606 113 376 TEZZA ALBERTO M 1976 SM45 LA FULMINEA RUNNING TEAM SINCE ITA 1:32:48 1:32:02
607 84 707 MAFFEIS WILMER M 1970 SM50 ATL. LA TORRE ITA 1:32:49 1:32:32
608 114 953 GIANELLI SANDRO M 1983 SM40 RUNCARD EPS - ASD INTERFORZE MODENA ITA 1:32:50 1:32:17
49 8 495 AZZIMONTI FEDERICA F 1979 SF40 PRO PATRIA A.R.C. BUSTO A. ITA 1:32:50 1:32:03
50 8 692 GIRELLI AMELIA F 1975 SF45 ATL. INSIEME VERONA ITA 1:32:50 1:32:16
609 114 757 PASCALE STEFANO M 1974 SM45 ASD MIRAMARE RUNNER ITA 1:32:51 1:32:34
610 115 312 ZANGHERI ALESSANDRO M 1980 SM40 ASD MIRAMARE RUNNER ITA 1:32:51 1:32:35
611 105 1098 GERVASI SIMONE M 1984 SM35 ASD MIRAMARE RUNNER ITA 1:32:51 1:32:35
51 9 371 BELLI LORENA F 1980 SF40 ATL. REGGIO ASD ITA 1:32:52 1:31:56
612 85 628 DANIELI ADELMO M 1969 SM50 RUNCARD ITA 1:32:52 1:32:42
613 116 746 BALBONI ANDREA M 1983 SM40 ASD POD. LIPPO CALDERARA ITA 1:32:53 1:32:00
614 37 626 GIURANNO SERGIO M 1968 SM55 C.U.S. PARMA ITA 1:32:54 1:32:25
615 145 4122 FEDRIZZI ANDREA M 1989 SM POL.VA GIUDICARIE ESTERIORI ITA 1:32:55 1:32:37
616 106 418 VERNILE ANTONIO M 1984 SM35 ASD CORRERE PER SEMPRE ITA 1:32:55 1:32:04
617 86 789 ZANATTA LUCA M 1971 SM50 RUNNING SARONNO ITA 1:32:57 1:32:34
618 115 4476 FERRARINI PAOLO M 1976 SM45 RUNCARD ITA 1:32:58 1:32:43
619 107 810 FUSI MANUEL M 1984 SM35 RUNCARD ITA 1:32:58 1:32:23
620 116 4591 MARCHETTI ADRIANO M 1975 SM45 RUNCARD ITA 1:32:59 1:32:40
621 117 634 NONINI LUCA M 1976 SM45 NIU' TEAM ITA 1:33:00 1:32:26
    466 KOWALSKI RAFAL M 1978 SM45   POL 1:33:01 1:32:22
622 108 1445 GANDOLFO VINCENZO M 1986 SM35 A.S.D. TEAM KM SPORT ITA 1:33:06 1:32:37
623 8 716 AZZALI ALBERTO M 1959 SM60 PODISTICA CORREGGIO ITA 1:33:06 1:32:48
624 118 743 GRANZOTTO MASSIMO M 1976 SM45 RUNCARD ITA 1:33:07 1:32:27
625 119 5064 CASAGRANDE EZIO M 1978 SM45 E20RUN ITA 1:33:07 1:32:03
626 146 5941 MENIN SIMONE M 1997 SM   ITA 1:33:09 1:32:05
627 87 5063 BOF STEFANO M 1973 SM50 E20RUN ITA 1:33:09 1:32:04
628 109 4201 GALLO PAOLO M 1988 SM35 A.S.D. ORTIGIA MARCIA ITA 1:33:09 1:32:27
629 147 4667 PIOLI STEFANO M 1991 SM RUNCARD EPS - ASD GRUPPO PODISTICO TANET ITA 1:33:09 1:32:36
630 117 5101 FALAVIGNA GIUSEPPE M 1981 SM40 ATL. VIADANA ITA 1:33:10 1:32:20
631 118 858 BALLARIN GUIDO M 1982 SM40 SPORTS CLUB MELEGNANO ITA 1:33:12 1:32:36
632 120 861 COSER STEFANO M 1975 SM45 ATLETICA ROTALIANA ITA 1:33:13 1:32:42
633 38 586 MAROCCHI GIANMARCO M 1968 SM55 S.S. TENNO ITA 1:33:13 1:32:45
634 148 4239 SERAGLIO MARCO M 1999 SM RUNCARD ITA 1:33:15 1:33:01
635 149 905 NANFACK PAGUI BLAISE M 1991 SM RUNNING SARONNO ITA 1:33:15 1:32:39
636 121 830 BRAZZAROLA MARCO M 1974 SM45 RUNCARD ITA 1:33:16 1:32:18
637 119 899 SARACINO ROBERTO VINCENZO M 1979 SM40 RUNNING SARONNO ITA 1:33:17 1:32:41
638 122 1315 CINQUEMANI LUCIANO M 1975 SM45 PRO SESTO ATL. CERNUSCO ITA 1:33:18 1:32:58
639 123 488 VERONESE ALBERTO M 1976 SM45 ASD GRUPPO PODISTI PORTO TOLLE ITA 1:33:18 1:32:41
640 88 1282 VACCA MAURIZIO M 1971 SM50 LIBERTAS VALLESABBIA ITA 1:33:20 1:32:52
641 124 820 TAMBURINI ANDREA M 1974 SM45 ATLETI BANCA DI PESARO C.STORICO ITA 1:33:20 1:33:04
642 89 955 MELOTTI GIULIANO M 1971 SM50 RUNCARD EPS - ASD INTERFORZE MODENA ITA 1:33:20 1:32:58
643 90 1173 DE MASI MARCELLO M 1973 SM50 RUNCARD ITA 1:33:21 1:32:56
644 150 1512 PIANTANIDA CHRISTIAN M 1997 SM ASD AVIS OGGIONO ITA 1:33:23 1:33:15
645 110 1147 COLLETT GARETH M 1987 SM35 RUNCARD GBR 1:33:23 1:32:47
646 125 675 MAISTO AMEDEO M 1974 SM45 POLISPORTIVA SERVIGLIANO ASD ITA 1:33:24 1:32:48
647 91 4612 DE SANTIS GIOVANNI M 1969 SM50 TRI SCHIO ASD ITA 1:33:25 1:32:36
648 151 4596 MENEGHELLI MANUEL PEDRO M 1990 SM RUNCARD ITA 1:33:25 1:32:59
649 9 916 FUSON GABRIELE M 1962 SM60 ATL.VALDOBBIADENE G.S.A. ITA 1:33:25 1:32:44
650 152 1046 DI PIETRO DANIELE M 1990 SM RUNCARD ITA 1:33:25 1:32:47
651 120 1705 PICCINNI GIUSEPPE M 1979 SM40 A.S.D. BIPEDI ITA 1:33:25 1:33:25
652 153 387 RAMBELLI LUCA M 1994 SM LEOPODISTICA ITA 1:33:27 1:33:13
653 2 1156 BASSAN VITTORIO M 1957 SM65 ATL. MALNATE ITA 1:33:27 1:33:13
654 92 797 BORGATTI MASSIMO M 1969 SM50 G.P. I CAGNON ITA 1:33:27 1:32:55
655 126 5070 DE GUIDI ROBERTO M 1974 SM45 RUNCARD ITA 1:33:28 1:32:43
656 121 447 BERTOLDINI TADDEO M 1981 SM40 FALCHI-LECCO ITA 1:33:28 1:33:19
657 122 1375 PELLEGRINO RAFFAELE M 1981 SM40 ATLETICA CORRIFERRARA ITA 1:33:32 1:33:02
658 93 373 MENCARELLI GIACOMO M 1972 SM50 PODISTICA CORREGGIO ITA 1:33:33 1:33:18
659 127 1042 BAUCER MATTEO M 1976 SM45 RUNCARD ITA 1:33:33 1:33:11
    932 KAMPUS VAHUR M 1984 SM35   EST 1:33:34 1:33:20
660 154 969 PASQUALI ENEA M 1996 SM RUNCARD ITA 1:33:34 1:32:42
661 155 950 VERZAGLIA ANDREA M 1991 SM RUNCARD ITA 1:33:35 1:33:09
662 156 846 TABAI MATTIA M 1992 SM RUNCARD ITA 1:33:35 1:33:10
663 123 864 BRUNELLI ROSARIO M 1980 SM40 PARMARATHON ASD ITA 1:33:36 1:33:06
52 10 571 POVERO FABIANA F 1979 SF40 ATL.VICENTINA ITA 1:33:36 1:33:14
664 111 631 CONSOLINI FRANCESCO M 1985 SM35 RUNCARD ITA 1:33:38 1:32:37
665 128 954 DOKU AGRON M 1974 SM45 9,92 RUNNING ASD ITA 1:33:39 1:33:20
666 112 853 BOSCHI MARWIN M 1987 SM35 RUNCARD EPS - ASD SWATT CLUB ITA 1:33:40 1:32:43
667 129 491 CAVAZZA DANIELE M 1978 SM45 PICO RUNNERS ITA 1:33:40 1:32:48
668 130 607 CUCCHI ENRICO M 1977 SM45 LA BOTTEGA CASINALBO ASD ITA 1:33:40 1:32:49
53 11 5107 FANTONETTI ELISA F 1980 SF40 A.S.D. CADDESE ITA 1:33:42 1:32:58
669 131 834 TADDIA DENIS M 1975 SM45 G.P. I CAGNON ITA 1:33:42 1:33:10
670 157 835 GAMBARETTO LUCA M 1989 SM A.S.D. TEAM KM SPORT ITA 1:33:44 1:32:55
54 9 913 FACCINCANI VERONICA F 1977 SF45 G.P. AVIS POL. MALAVICINA ITA 1:33:45 1:33:10
671 39 1018 BALDESSARINI PAOLO M 1966 SM55 LAGARINA CRUS TEAM ITA 1:33:45 1:33:09
672 113 87 MENINI OSCAR M 1987 SM35 G.P. AVIS POL. MALAVICINA ITA 1:33:45 1:33:10
673 132 696 MISLEJ SLAVKO M 1975 SM45 ATKLUB ULTRAMARATON SLOVENIJA SLO 1:33:46 1:33:21
674 133 944 ZANOCCO CARLO M 1974 SM45 RASCHIANI TRIATHLON PAVESE ITA 1:33:47 1:33:36
675 124 510 BERTASO ALESSIO M 1981 SM40 A.S.D. TEAM KM SPORT ITA 1:33:47 1:33:18
55 1 583 GAGLIARDI PAOLA F 1963 SF60 LISPHERA ITA 1:33:47 1:33:24
676 158 1212 MATTEDI GIACOMO M 1995 SM RUNCARD ITA 1:33:47 1:33:25
677 40 735 LOCCI FELICE M 1964 SM55 SACEN CORRIDONIA ITA 1:33:48 1:33:35
678 125 718 PAGANI ALESSANDRO M 1979 SM40 A.S.D. ATLETICA LUPATOTINA ITA 1:33:48 1:33:29
679 126 804 FURLAN DAVIDE M 1983 SM40 S.S.R. LA COLFRANCULANA ITA 1:33:49 1:33:30
680 114 4714 MARTINELLO DAVIDE M 1984 SM35 ASD ATLETICA CEREA ITA 1:33:50 1:32:59
681 127 917 BRUGNARA STEFANO M 1981 SM40 ATLETICA VALLE DI CEMBRA ITA 1:33:50 1:33:21
682 128 848 ATZORI DARIO M 1983 SM40 RUNCARD ITA 1:33:51 1:33:05
683 129 1184 SCANDELLA CRISTIAN M 1981 SM40 G. ALPINISTICO VERTOVESE ITA 1:33:53 1:33:12
684 41 3719 TROMBETTA ALBERTO M 1967 SM55 RUNCARD ITA 1:33:54 1:33:40
685 42 604 POSSAMAI ANDREA M 1967 SM55 ANA ATL.FELTRE ITA 1:33:56 1:33:39
686 134 4420 BIANCO DIEGO M 1976 SM45 A.S.D. JESOLO TRIATHLON ITA 1:33:57 1:33:50
687 159 831 CONSOLATI ANDRÉ M 1995 SM RUNCARD ITA 1:33:58 1:33:13
688 135 750 ROMAGNOLI ALAN M 1974 SM45 POD. OZZANESE ITA 1:33:59 1:33:37
689 115 840 CREMONA FERDINANDO M 1986 SM35 G.S. CARLO BUTTARELLI ITA 1:34:01 1:33:26
690 116 922 COLOGNATO ALESSANDRO M 1986 SM35 RUNCARD ITA 1:34:02 1:33:28
691 117 1422 SIGNORATO MIRKO M 1988 SM35 FREE RUNNERS SAN GIUSTINO ASD ITA 1:34:02 1:33:33
692 130 5129 AGNELLI ALESSANDRO M 1983 SM40 VICENZA RUNNERS ITA 1:34:03 1:33:43
693 3 1035 RECCE ROCCO M 1957 SM65 A.S.D. ATLETICA SALERNO ITA 1:34:03 1:33:49
694 131 200 VERDELLI DANIELE M 1983 SM40 SPORTS CLUB MELEGNANO ITA 1:34:03 1:33:58
56 13 4673 BOSCARO SIMONETTA F 1985 SF35 ACQUADELA BOLOGNA ITA 1:34:04 1:33:22
695 4 3828 PAVONE VINCENZO M 1958 SM65 RUNNERS PADOVA ITA 1:34:05 1:33:42
57 12 967 RAFFAELLI ANNA F 1982 SF40 TRENTINO RUNNING TEAM ITA 1:34:05 1:33:38
696 160 1093 PASTORE ALESSANDRO M 1998 SM RUNCARD ITA 1:34:06 1:33:48
697 136 1241 VALENTINI ALESSANDRO M 1977 SM45 ASD ATLETICA CEREA ITA 1:34:06 1:33:41
698 137 467 SEMPRINI FABIO M 1976 SM45 OLIMPIA AMATORI RIMINI ITA 1:34:06 1:33:51
699 132 1033 MERIGGI PIERPAOLO M 1981 SM40 TRISESSANTA A.S.D. ITA 1:34:06 1:33:54
700 118 1051 ROSSINI DARIO M 1987 SM35 RUNCARD ITA 1:34:07 1:33:58
701 161 240 TOSI GIOVANNI STEFANO M 1995 SM DK RUNNERS MILANO ITA 1:34:07 1:34:00
702 138 732 MIRON NICOLA M 1975 SM45 RUNCARD EPS - RUNCARD ITA 1:34:08 1:33:25
703 133 1037 CARNELLI ALESSANDRO M 1979 SM40 5 CASCINE CISLAGO ITA 1:34:09 1:33:49
58 20 5115 SACCANI VERONICA F 1998 SF ATL. RIGOLETTO ITA 1:34:09 1:33:35
704 162 4594 GIOVANETTI LORENZO M 1997 SM RUNCARD ITA 1:34:09 1:33:09
705 134 4309 PANICOCOLO GIUSEPPE M 1979 SM40 G.P. LA GUGLIA SASSUOLO S.S.D. ITA 1:34:10 1:34:06
706 94 635 FOLIGNO ROBERTO M 1970 SM50 RUNCARD ITA 1:34:11 1:34:00
707 119 649 FASSINA ENRICO MARIA M 1988 SM35 RUNCARD ITA 1:34:12 1:33:54
708 120 5330 KHAIT MARK LEONIDOVICH M 1984 SM35 RUNCARD NED 1:34:12 1:34:05
709 121 655 VISCHI ENRICO M 1986 SM35 A.S.D. TEAM KM SPORT ITA 1:34:12 1:33:40
710 139 1983 ZORDAN DANIELE DOMENICO M 1978 SM45 VICENZA MARATHON ITA 1:34:13 1:33:30
711 140 1198 COLAMARTINO PAOLO M 1974 SM45 ATLETICA BLIZZARD ITA 1:34:13 1:33:59
712 141 580 ERBA EDOARDO M 1976 SM45 MONZA MARATHON TEAM - A.S.D. ITA 1:34:14 1:34:01
713 163 1504 DE GIULIO ERNESTO M 1995 SM RUNCARD ITA 1:34:15 1:34:15
714 43 683 LAUMANN JÖRG M 1968 SM55 RSLC HOLZKIRCHEN GER 1:34:15 1:33:47
59 14 1086 BELLETTI EKATERINA F 1984 SF35 RUNCARD ITA 1:34:17 1:34:03
715 95 1063 MENGHINI FRANCO M 1973 SM50 PODISTICA CORREGGIO ITA 1:34:17 1:34:02
716 164 1411 DE BIASIO ANDREA M 1991 SM RUNCARD EPS - RUNCARD ITA 1:34:18 1:34:15
717 96 1023 TARTER ALESSANDRO M 1969 SM50 ATLETICA ROTALIANA ITA 1:34:18 1:33:56
718 44 5141 BARBUGIAN RENZO M 1966 SM55 SSD RCS ACTIVE TEAM A R.L. ITA 1:34:20 1:34:07
719 142 4520 TURRI MARCO M 1975 SM45 RUNCARD EPS - PACERS GLI ORIGINALI ITA 1:34:20 1:34:09
720 135 1047 PROPERSI STERBIATI ERNESTO M 1983 SM40 ASD RUN LIFE ITA 1:34:20 1:33:59
721 122 4525 BERTONI MIRKO M 1985 SM35 GIANCARLO BIASIN ILLASI ASD ITA 1:34:21 1:34:09
722 123 870 FALAVIGNA VALERIO M 1985 SM35 RUNCARD ITA 1:34:21 1:33:36
723 45 4522 ACCORSI CRISTIAN M 1967 SM55 GRUPPO SAN PIO X ITA 1:34:21 1:34:00
724 124 4540 HADDAJI JAMEL M 1986 SM35 GRUPPO SAN PIO X ITA 1:34:21 1:34:00
725 46 222 BOSIO DINO M 1967 SM55 GRUPPO SAN PIO X ITA 1:34:21 1:34:13
726 125 907 FINAZZI DANIELE M 1987 SM35 RUNNING TORRE DE' ROVERI ITA 1:34:21 1:33:30
727 97 3812 FIOCCO GIAMPAOLO M 1969 SM50 A.S.D. ATLETICA LUPATOTINA ITA 1:34:21 1:33:59
728 165 1049 CARMINATI MIRKO M 1997 SM RUNCARD Trail - RUNCARD ITA 1:34:22 1:33:27
729 166 4692 MARCHETTO DANIELE M 1994 SM VICENZA MARATHON ITA 1:34:22 1:33:33
730 143 800 PASQUALINI MASSIMILIANO M 1975 SM45 RUNCARD ITA 1:34:22 1:33:45
731 144 528 DALPIAZ ALEX M 1976 SM45 RUNCARD ITA 1:34:22 1:34:09
732 136 4709 GRASSILLI GIACOMO M 1980 SM40 G.P. I CAGNON ITA 1:34:22 1:33:49
60 13 910 DI PIETRO LETIZIA F 1982 SF40 G.S. LE PANCHE CASTELQUARTO ITA 1:34:23 1:34:08
733 167 4582 AYOUBI OMAR M 1994 SM RUNCARD EPS - RUNCARD ITA 1:34:23 1:34:13
734 137 359 DOMENIGHINI MARCO M 1983 SM40 A.S.D. C.U.S. BRESCIA ITA 1:34:23 1:33:29
735 126 3819 SURICO NICOLA M 1984 SM35 ASSINDUSTRIA SPORT ITA 1:34:25 1:34:03
    2614 OLSEN NICOLINE PILEGAARD F 1996 SF   DEN 1:34:26 1:34:20
736 168 1364 BATTAGLIA STEFANO M 1991 SM MARATONETI CITTADELLESI ITA 1:34:26 1:34:23
737 169 1604 CIARONI ALESSANDRO M 1995 SM RUNCARD ITA 1:34:28 1:34:22
738 127 493 CHIGNOLA LUCA M 1988 SM35 RUNCARD ITA 1:34:28 1:33:39
739 128 1027 BIANCHESSI ROBERTO M 1986 SM35 G.T.A. CREMA ITA 1:34:30 1:34:11
740 170 711 TURISINI GABRIELE M 1999 SM U.S. MALONNO ITA 1:34:30 1:34:02
741 129 1386 ROTTA FABRIZIO M 1988 SM35 RUNCARD ITA 1:34:33 1:34:15
742 171 5943 NEGRETTO MIRKO M 1993 SM RUNCARD ITA 1:34:34 1:34:22
743 47 1400 COLLETTI CALOGERO M 1965 SM55 RUNCARD ITA 1:34:35 1:34:14
744 145 4306 BIRAL GIANLUCA M 1974 SM45 VENICEMARATHON SSD A R.L. ITA 1:34:35 1:34:22
745 138 1008 COSTA CARLO M 1983 SM40 SPORT RACE A.S.D. ITA 1:34:35 1:34:09
746 48 5176 ARCARI ALFREDO M 1967 SM55 POD. FORMIGINESE ITA 1:34:36 1:33:53
747 130 941 DZIONEK TOMASZ M 1985 SM35 RUNCARD POL 1:34:36 1:33:49
748 98 847 FINATTI GIUSEPPE M 1972 SM50 EUROATLETICA 2002 ITA 1:34:38 1:34:02
749 172 5302 PREGIO IVAN M 1989 SM ATLETICA LONATO ITA 1:34:39 1:34:36
750 146 453 MAZZIOTTI FRANCESCO M 1976 SM45 GIOIA RUNNING A.S.D. ITA 1:34:39 1:34:04
751 131 355 SANDRINI SIMONE M 1988 SM35 RUNCARD EPS - RUNCARD ITA 1:34:39 1:33:59
752 49 5123 GELAO GIUSEPPE M 1968 SM55 G.P. I CAGNON ITA 1:34:39 1:34:07
753 147 569 BONI NICOLA M 1978 SM45 G.S. CARLO BUTTARELLI ITA 1:34:40 1:34:04
754 139 753 GERONAZZO CRISTIAN M 1981 SM40 RUNCARD ITA 1:34:41 1:34:09
755 173 4345 SPINACE' MARCO M 1994 SM A.S.D. JESOLO TRIATHLON ITA 1:34:42 1:34:39
756 148 802 BENAGLIA GIUSEPPE M 1975 SM45 PODISTICA CORREGGIO ITA 1:34:43 1:34:22
757 140 331 FERRARI ANDREA M 1979 SM40 ATL. REGGIO ASD ITA 1:34:44 1:33:45
758 174 1182 PROVENZANO LUCA M 1994 SM A.S.D.POL. ATLETICA HYBLA ITA 1:34:44 1:34:00
759 132 1662 VACCARO DOMENICO M 1985 SM35 RUNCARD ITA 1:34:46 1:34:40
760 99 1339 SASSI ROBERTO M 1971 SM50 GRUPPO SAN PIO X ITA 1:34:47 1:34:27
761 133 4218 FOGAROLLI LORENZO M 1984 SM35 TRENTINO RUNNING TEAM ITA 1:34:48 1:34:00
762 134 1501 PAVANELLO MARCO M 1984 SM35 RUNCARD ITA 1:34:49 1:34:41
763 175 4029 ZANATA DIEGO M 1991 SM RUNCARD ITA 1:34:51 1:34:21
764 50 5165 LARICCIA LUCA M 1967 SM55 ROAD RUNNERS CLUB MILANO ITA 1:34:52 1:34:39
765 176 959 PELOSO JACOPO M 1989 SM AFV BELTRAME ITA 1:34:52 1:34:23
766 135 1163 BERTI ALBERTO M 1985 SM35 RUNCARD ITA 1:34:52 1:34:05
767 136 1002 FERRARI FABIO M 1987 SM35 RUNCARD ITA 1:34:54 1:34:18
768 141 1405 COLOMBO ALESSIO M 1979 SM40 AMICI DELLO SPORT BRIOSCO-MI ITA 1:34:55 1:34:25
769 177 4677 CENZATO DAVIDE M 1994 SM LIBERTAS MANTOVA ITA 1:34:56 1:34:22
770 10 1218 CAPELLI GIUSEPPE M 1963 SM60 CANTO DI CORSA ITA 1:34:56 1:34:28
771 51 1228 CASTELLANI GIOVANNI M 1966 SM55 ATLETICA CIVITANOVA ITA 1:34:56 1:34:30
772 178 5162 MIRANDOLA MATTEO M 1997 SM G.P. AVIS POL. MALAVICINA ITA 1:34:57 1:34:31
773 179 2356 VILLA ALFONSO MANUEL M 1989 SM G.P. VIRGILIANO ITA 1:34:58 1:34:23
774 180 4595 GRAZI CARLO M 1991 SM RUNCARD ITA 1:34:59 1:33:49
775 149 4071 VETTORELLO DANIELE M 1974 SM45 RUNCARD ITA 1:35:01 1:34:50
776 100 3824 CECCHETTO MAURO M 1970 SM50 GRUPPO ATLETICA VEDELAGO ITA 1:35:01 1:34:13
777 142 1281 TRAFOJER ANDREAS M 1981 SM40 RUNCARD EPS - RUNCARD ITA 1:35:01 1:34:12
778 143 1477 CLEMENTI CHRISTIAN M 1979 SM40 A-LC KALTERN ITA 1:35:02 1:34:52
779 101 410 KOMPARE CRISTIAN M 1970 SM50 G.M. G.S. AQUILE FRIULANE ITA 1:35:03 1:34:18
780 181 134 GALLINA ANDREA M 1989 SM TRIATHLON CREMONA STRADIVARI S ITA 1:35:04 1:35:00
    824 KLEYN VALERIA F 1980 SF40   CYP 1:35:04 1:34:15
781 182 4286 PONTI MATTEO M 1994 SM LEOPODISTICA ITA 1:35:06 1:34:52
61 14 1007 BORTOLAS ELISABETTA F 1982 SF40 G.P. SANTI NUOVA OLONIO ITA 1:35:06 1:34:27
782 137 733 CARAMASCHI NICOLO' M 1988 SM35 BLACK WARRIORS ASD ITA 1:35:07 1:34:08
783 138 1276 TAMBURINI FRANCESCO M 1987 SM35 PODISTICA SOLIDARIETA' ITA 1:35:07 1:34:25
784 139 4572 FALCONE VITTORIO M 1985 SM35 ESERCITO-4 REGG. ALPINI PARAC. ITA 1:35:08 1:34:58
62 21 1496 CAPODIFERRO BARBARA F 1989 SF DK RUNNERS MILANO ITA 1:35:08 1:35:05
785 150 3840 PIVOTTO AMOS M 1978 SM45 RUNNERS TEAM ZANE' ITA 1:35:09 1:35:00
786 183 5108 FONTANA NICHOLAS M 1993 SM ATL. CASONE NOCETO ITA 1:35:09 1:34:52
787 102 1077 BENASSI STEFANO M 1972 SM50 ATLETICA GUASTALLA REGGIOLO ITA 1:35:10 1:34:48
788 52 4722 MALTESE PLACIDO M 1964 SM55 G.S.D. 5 TORRI  FIAMME CREMISI ITA 1:35:10 1:34:52
789 184 653 SONCIN LUCA M 1990 SM A.S.D. JESOLO TRIATHLON ITA 1:35:12 1:34:20
790 103 945 GOSTOLI MAURIZIO M 1969 SM50 OLIMPIA NUOVA RUNNING A.S.D. ITA 1:35:13 1:34:43
791 104 5092 ABBATI ALESSIO M 1973 SM50 MODENA RUNNERS CLUB ASD ITA 1:35:13 1:34:54
63 1 912 MIRANDA MARIA F 1966 SF55 MARATON RIOJA ESP 1:35:14 1:34:49
64 10 772 LOATELLI LAURA F 1977 SF45 ASD RIVAROLO DEL RE ITA 1:35:16 1:34:41
792 53 1502 TURANO PASQUALE M 1966 SM55 POL. MAGNA GRAECIA ASD CASSANO ITA 1:35:18 1:35:13
793 151 1108 SILVETTI ANDREA M 1975 SM45 RUNCARD ITA 1:35:18 1:34:53
794 105 1157 NOZZA VITTORIO M 1971 SM50 CUS BERGAMO ASD ITA 1:35:20 1:34:58
795 144 1532 MAZZUCCO ALESSANDRO M 1979 SM40 U.S.ATL.QUINTO-MASTELLA ITA 1:35:22 1:35:18
796 106 5105 AMORETTI CRISTIANO M 1971 SM50 ASD 3'.30'' TEAM ITA 1:35:24 1:34:43
797 107 1562 MOTTA GIUSEPPE M 1971 SM50 RUNCARD ITA 1:35:25 1:34:01
798 108 660 BERLI MARCO M 1969 SM50 VICENZA MARATHON ITA 1:35:26 1:34:53
799 54 4655 ZINI PIERPAOLO M 1968 SM55 RUNCARD ITA 1:35:26 1:35:04
800 152 825 MASELLI GIOVANNI M 1976 SM45 ATLETICA BLIZZARD ITA 1:35:27 1:34:51
801 153 1308 MAGNI MATTEO M 1978 SM45 A.S.D TEAM SPARTANS ITA 1:35:29 1:35:04
65 15 673 PRANTEDA GIULIA F 1986 SF35 GSBR ITA 1:35:30 1:35:22
802 154 594 CEVOLINI ANDREA M 1974 SM45 A.S. LA FRATELLANZA 1874 ITA 1:35:31 1:34:55
803 109 934 ZOCCA ANDREA M 1973 SM50 VRM TEAM ASD ITA 1:35:31 1:35:14
804 155 1149 TREVISAN DAVIDE M 1977 SM45 RUNCARD ITA 1:35:32 1:34:59
805 140 664 DONADELLO MARCO M 1988 SM35 VICENZA MARATHON ITA 1:35:32 1:35:08
806 145 682 ZAMPIRIOLO RICCARDO M 1983 SM40 RUNCARD ITA 1:35:33 1:35:06
66 15 4625 COMINI LORENZA F 1979 SF40 GRUPPO SAN PIO X ITA 1:35:33 1:35:10
807 185 1905 DE ROSSI RICCARDO M 1993 SM A.S.D. JESOLO TRIATHLON ITA 1:35:33 1:35:25
808 110 5100 GOZZI FRANCESCO M 1972 SM50 RUNCARD ITA 1:35:33 1:34:43
809 156 1219 D'AGOSTINO DAVID M 1976 SM45 ATLETICA MDS PANARIAGROUP ASD ITA 1:35:34 1:35:04
810 111 781 WARNAKULASURIY ANTANY TISSERA M 1969 SM50 U.S. INTREPIDA SRI 1:35:34 1:35:05
    4198 GAZO MARIO M 1993 SM   SVK 1:35:34 1:35:01
67 4 1230 SABIDO CIBELE F 1969 SF50 RUNCARD POR 1:35:36 1:35:21
811 146 1370 BENETTI ENRICO M 1983 SM40 VICENZA MARATHON ITA 1:35:36 1:35:33
68 16 980 VERLATO MARTINA F 1980 SF40 VICENZA MARATHON ITA 1:35:37 1:35:19
812 112 822 CIRRUTO GIANNI M 1971 SM50 PODISTICA CORREGGIO ITA 1:35:38 1:34:55
813 113 1072 DALL'OLMO MASSIMO M 1972 SM50 ATL.VICENTINA ITA 1:35:38 1:35:18
814 141 3969 BUSSOLA ALESSANDRO M 1988 SM35 RUNCARD ITA 1:35:38 1:34:54
815 55 908 PIZZARDO FABRIZIO M 1967 SM55 ASSINDUSTRIA SPORT ITA 1:35:39 1:35:04
816 186 1713 GRANUZZO NICOLA M 1992 SM RUNCARD ITA 1:35:39 1:34:57
817 114 1396 GATTO ROMEO M 1972 SM50 ATLETICA SAN NICOLA ITA 1:35:40 1:35:24
69 11 819 GIOIA ROSSELLA ELISA CHI F 1978 SF45 ASD GIANNONERUNNING CIRCUIT ITA 1:35:41 1:35:05
818 147 754 GALLINA MICHELE M 1982 SM40 G.P. AVIS POL. MALAVICINA ITA 1:35:41 1:35:28
819 142 2757 SESTILI FABIO M 1987 SM35 RUNCARD ITA 1:35:42 1:34:46
820 56 1085 TONOLLI GIOVANNI M 1967 SM55 ASC NEUGRIES ITA 1:35:43 1:35:04
821 57 577 FRANCESCHI ANTONIO M 1966 SM55 VENICEMARATHON SSD A R.L. ITA 1:35:44 1:35:02
822 115 5067 BIONDI SAMUEL M 1972 SM50 ATL. CASONE NOCETO ITA 1:35:44 1:35:27
823 148 2498 FERRI MAURIZIO M 1981 SM40 ROSA RUNNING TEAM ITA 1:35:45 1:34:50
824 116 1775 ROSSI ENRICO M 1971 SM50 A.S.D. TEAM KM SPORT ITA 1:35:46 1:35:35
825 149 1530 GALEAZZO RICCARDO M 1979 SM40 RUNCARD ITA 1:35:48 1:35:38
826 157 1318 MAGNANI ANDREA M 1978 SM45 RUNCARD ITA 1:35:48 1:35:34
70 17 1059 PAVIOTTI MONICA F 1980 SF40 RUNCARD ITA 1:35:50 1:35:19
827 58 869 FELTRIN MAURO M 1965 SM55 GRUPPO ATLETICA VEDELAGO ITA 1:35:51 1:35:31
71 5 1300 CORAGGIO VIRGINIA F 1972 SF50 CAIVANO RUNNERS ITA 1:35:52 1:35:37
828 187 1442 PASINELLI MIRKO M 1992 SM RUNCARD SUI 1:35:52 1:35:45
72 22 1066 DALMASO ALESSIA F 1991 SF A.S.D. TEAM KM SPORT ITA 1:35:55 1:35:09
829 158 5058 TRAFOJER PETER M 1977 SM45 RUNCARD ITA 1:35:55 1:35:07
73 2 4560 VIANELLO VALENTINA F 1964 SF55 RUNLAB UDINE A.S.D. ITA 1:35:57 1:35:48
830 188 4417 BICEGO GIOELE M 1995 SM RUNCARD ITA 1:35:57 1:35:49
831 159 1205 RUBESSI FABRIZIO M 1976 SM45 RUNCARD ITA 1:35:57 1:35:25
74 12 1766 BECK SANDRA F 1978 SF45 RUNCARD GER 1:35:59 1:35:49
832 189 856 MOIRAGHI GIACOMO M 1995 SM PASSO CAPPONI ASD ITA 1:36:00 1:35:20
833 143 2286 CAMERLENGO LUCA M 1985 SM35 A.S.D. TEAM KM SPORT ITA 1:36:00 1:35:11
834 150 349 STONFER DANIELE M 1982 SM40 ATLETICA VALLE DI CEMBRA ITA 1:36:02 1:35:50
835 160 1159 DE VITA ANDREA M 1974 SM45 ASD ORTICA TEAM MILANO ITA 1:36:02 1:35:20
836 117 5152 TURINA CLAUDIO M 1969 SM50 6XCORRERE ITA 1:36:02 1:35:45
837 151 929 BOVI NICO M 1981 SM40 A.S.D. TEAM KM SPORT ITA 1:36:03 1:35:27
    1254 BRANDENBURG MARTIN M 1963 SM60 DJK LOWICK GER 1:36:03 1:35:35
838 118 1239 PILLON FABIO GIULIO M 1973 SM50 RUNCARD ITA 1:36:03 1:35:44
839 161 1161 ZANOLO MASSIMILIANO M 1978 SM45 RUNCARD ITA 1:36:04 1:35:38
840 152 798 BARZON GIANANDREA M 1980 SM40 RUNCARD ITA 1:36:08 1:35:57
75 18 1412 DIAMANTI OKSANA F 1983 SF40 ATLETICA BLIZZARD ITA 1:36:08 1:35:58
841 153 486 LICCIARDI MATTEO M 1980 SM40 A.S.D. TEAM KM SPORT ITA 1:36:10 1:35:17
842 5 5059 FORADORI DIEGO M 1958 SM65 ATLETICA CLARINA TRENTINO ITA 1:36:11 1:35:56
843 144 4103 SCHIAVI JACOPO M 1986 SM35 RUNCARD ITA 1:36:13 1:35:43
844 119 1162 CALI' SERGIO M 1971 SM50 A.S.D. MONTI ROSSI NICOLOSI ITA 1:36:13 1:36:04
845 120 5166 TOMAS FABRIZIO M 1972 SM50 RUNCARD ITA 1:36:15 1:35:27
846 190 914 IANNIKIS GIORGIO M 1991 SM RUNCARD ITA 1:36:16 1:35:33
847 121 4482 CARIA ALBERTO M 1969 SM50 GS PIONIERI MARMILLA MOGORO ITA 1:36:16 1:35:43
848 122 4341 TRENTINI PAOLO M 1972 SM50 ASD CITTA' DI TRENTO ITA 1:36:18 1:35:30
849 191 4606 MAZZÙ SALVATORE M 1998 SM RUNCARD ITA 1:36:19 1:35:15
850 192 5072 GENTILE GIANCARLO M 1989 SM RUNCARD EPS - RUNCARD ITA 1:36:19 1:35:29
851 59 795 FRANCESCHI ROBERTO M 1964 SM55 G.S. FRAVEGGIO ITA 1:36:20 1:35:38
76 16 5075 TORRI CHIARA F 1987 SF35 RUNCARD ITA 1:36:20 1:35:30
852 193 892 MASTROSERIO GUGLIELMO M 1989 SM RUNCARD ITA 1:36:20 1:35:24
853 11 821 KIRSCH MAX M 1963 SM60 SPORT RUSCHER TEAM GER 1:36:20 1:35:54
854 162 5314 VILLOVICH GIANLUCA M 1974 SM45 ASD TOP RUN ITA 1:36:20 1:36:17
855 163 888 LAGRUTTA FRANCESCO M 1977 SM45 G.P.A. LUGHESINA ITA 1:36:21 1:35:38
856 60 4600 ROSASPINA MAURIZIO M 1967 SM55 MARATHON CS ITA 1:36:21 1:35:37
857 12 979 CASALI CARLO M 1962 SM60 VENICEMARATHON SSD A R.L. ITA 1:36:23 1:35:43
858 154 1935 ALESSANDRINI LUIGI M 1982 SM40 RUNCARD ITA 1:36:25 1:36:21
859 155 5061 CIACCIA DANIELE M 1980 SM40 POLISPORT CICLO CLUB FASANO ITA 1:36:26 1:36:12
860 164 2024 DI PACE ATTILIO M 1977 SM45 ASD ATLETICA CASTELLABATE ITA 1:36:27 1:34:56
861 165 1981 MELOTTI MARCO M 1976 SM45 A.S.D. TEAM KM SPORT ITA 1:36:28 1:36:18
77 19 5068 MATTIUZZI CLAUDIA F 1983 SF40 ASD LUCCA MARATHON ITA 1:36:30 1:36:12
862 194 4295 BENELLI LUCA M 1992 SM RUNCARD EPS - SPORTING CLUB SASSUOLO ITA 1:36:31 1:36:26
863 166 4294 MONTAVOCI ALBERTO M 1977 SM45 ASD SPORTINSIEME CASTELLARANO ITA 1:36:31 1:36:27
864 195 4098 FORNASIER PIERANGELO M 1998 SM RUNCARD ITA 1:36:32 1:36:18
78 17 3981 MORETTO CHIARA F 1985 SF35 ATLETICA 2000 ITA 1:36:32 1:35:47
79 23 894 BARBETTA SOFIA F 1992 SF RUNNERS VALBOSSA-AZZATE ITA 1:36:34 1:36:13
865 167 406 ERLACHER GERHARD M 1977 SM45 S.G EISACKTAL RAIFFEISEN ASV ITA 1:36:35 1:36:22
866 156 1133 GALETTI MATTEO M 1981 SM40 ATLETICA TEAM LOPPIO ITA 1:36:35 1:36:09
    1380 ROMANI ASHLEE F 1987 SF35   USA 1:36:35 1:36:25
867 61 1170 OLIVARI PIERLUIGI M 1968 SM55 TIME FOR RUN ITA 1:36:37 1:35:42
868 13 1222 RIVA RAFFAELE M 1961 SM60 RUNCARD ITA 1:36:38 1:36:21
869 145 5171 NANIA VINCENZO M 1987 SM35 ATL. BANCOLE ITA 1:36:38 1:36:16
870 123 1323 TUVERI FRANCESCO M 1972 SM50 CAGLIARI MARATHON CLUB ITA 1:36:38 1:36:24
871 62 956 MENDUNI FRANCESCO M 1968 SM55 RUNCARD EPS - ASD INTERFORZE MODENA ITA 1:36:40 1:36:18
872 196 978 ROVIARO TADDEO M 1995 SM VICENZA MARATHON ITA 1:36:40 1:36:20
    809 CARTER PAUL M 1970 SM50   GBR 1:36:41 1:35:46
873 197 1419 ZAMPINI MATTEO M 1990 SM RUNCARD ITA 1:36:41 1:36:35
874 146 5087 AGOSTINI ADRIANO M 1985 SM35 RUNCARD ITA 1:36:43 1:36:30
875 124 4723 BORGATTI PAOLO M 1969 SM50 ATLETICA CORRIFERRARA ITA 1:36:44 1:36:02
876 125 796 BONAZZI ALESSANDRO M 1970 SM50 ATL. VIADANA ITA 1:36:45 1:36:28
877 147 5001 CAMPOSTRINI MARCO M 1984 SM35 LAGARINA CRUS TEAM ITA 1:36:45 1:36:38
878 126 4418 GIAZZON MAURO M 1973 SM50 GEMONATLETICA S.R.L. DIL. ITA 1:36:45 1:35:59
879 157 1096 PINTER ALBERTO M 1979 SM40 JUNIOR SPORT AVIO ITA 1:36:46 1:36:05
880 127 1945 FANTONI LEONARDO M 1969 SM50 POL. STELLA ALPINA RENAZZO ITA 1:36:46 1:36:27
881 158 4490 CAMPIGOTTO MARCO M 1983 SM40 GIRO DELLE MURA CITTA FELTRE ITA 1:36:47 1:36:14
882 159 1749 CONSONNI MASSIMO M 1981 SM40 RUNCARD ITA 1:36:47 1:36:38
883 198 1223 ZANOLINI LUCA M 1991 SM RUNCARD ITA 1:36:48 1:36:30
884 63 817 COPPOLA DOMENICO M 1968 SM55 ATLETICA MDS PANARIAGROUP ASD ITA 1:36:48 1:36:28
885 168 1158 ZOCCANTE RICCARDO M 1976 SM45 ATLETICA CORRIFERRARA ITA 1:36:49 1:36:05
886 160 1153 PACE GABRIELE M 1982 SM40 ASD PODISTICA SAN SALVO ITA 1:36:49 1:36:11
887 148 693 GALLINA NICOLA M 1985 SM35 G.P. AVIS POL. MALAVICINA ITA 1:36:50 1:36:36
80 13 4081 DEGANO SILVIA F 1974 SF45 G.M. G.S. AQUILE FRIULANE ITA 1:36:50 1:36:07
888 149 702 GADLER ALAN M 1988 SM35 RUNNING TEAM CONEGLIANO ITA 1:36:51 1:35:54
889 169 598 ZANETTI IVAN M 1978 SM45 RUNCARD ITA 1:36:51 1:36:02
890 170 1247 VITALI DARIO M 1976 SM45 RUNCARD ITA 1:36:51 1:36:25
891 64 854 FARINA MAURO M 1968 SM55 RUNNERS TEAM ZANE' ITA 1:36:51 1:36:31
892 171 1283 PEZZETTI FABIO M 1976 SM45 OMBRIANO RUNNING ITA 1:36:53 1:36:35
893 161 721 MINOPOLI ANTONIO M 1982 SM40 POLISPORTIVA ELLERA ASD ITA 1:36:54 1:36:40
894 65 3844 ZAMBONI LUCA M 1965 SM55 A.S.D. JESOLO TRIATHLON ITA 1:36:55 1:36:48
895 162 1150 CONA ANDREA M 1981 SM40 PODISTICA SAVONESE ITA 1:36:55 1:36:25
896 14 1104 ARDU FELICE M 1960 SM60 RIU MANNU GONNOSTRAMATZA ITA 1:36:55 1:36:30
897 172 5130 BARAUSSE MANUEL M 1976 SM45 VICENZA RUNNERS ITA 1:36:56 1:36:35
898 150 5127 BOIFAVA SIMONE M 1985 SM35 URBAN RUNNERS ITA 1:36:57 1:35:48
899 128 4492 ZANIBONI DAVIDE M 1970 SM50 RUNCARD ITA 1:36:58 1:36:40
900 66 4662 PIDALA' GIUSEPPE M 1967 SM55 ATL.VICENTINA ITA 1:36:58 1:36:40
901 173 938 TOFFOLETTO DAVIDE M 1975 SM45 RUNCARD ITA 1:36:58 1:35:59
81 24 1565 RENZI GIORGIA F 1991 SF ASD MIRAMARE RUNNER ITA 1:36:58 1:36:27
    849 NIELSEN ANDREAS M 1993 SM   DEN 1:36:59 1:36:53
902 129 642 TACCON GIAMPIETRO M 1969 SM50 RUNCARD ITA 1:36:59 1:36:27
903 130 829 BACCHETTINI NICOLA M 1969 SM50 PODISTICA CORREGGIO ITA 1:36:59 1:36:40
904 163 1685 ADOTTI GIACOMO M 1983 SM40 ASD BARIZZA SPORT ITA 1:37:00 1:36:55
905 131 860 SACCOMANI ANDREA M 1973 SM50 RUNNERS DESIO ITA 1:37:00 1:36:24
906 164 1103 OLIVETTI MICHELE M 1981 SM40 RUNNING CLUB VENEZIA A.S.D. ITA 1:37:02 1:36:17
907 199 1189 RICHINI MARCO M 1994 SM RUNCARD ITA 1:37:02 1:36:08
908 174 836 COLLI ALFREDO M 1978 SM45 PODISTICA CORREGGIO ITA 1:37:03 1:36:47
82 18 1141 BALDISSERRI ILARIA F 1985 SF35 LEOPODISTICA ITA 1:37:05 1:36:38
83 14 1062 JENSEN DORTE F 1976 SF45 A.S.D. ATLETICA LUPATOTINA DEN 1:37:05 1:36:31
909 67 5145 COLZANI MAURO M 1968 SM55 A.S.D. MARCIACARATESI ITA 1:37:06 1:36:27
910 132 695 DE POLI DENIS M 1972 SM50 RUNCARD ITA 1:37:09 1:36:10
911 165 1192 BOSCOLO LUCA M 1980 SM40 RUNCARD ITA 1:37:09 1:36:10
912 166 445 GUARANO ANDREA M 1979 SM40 I SARACENI DI LUCERA ITA 1:37:09 1:36:53
913 175 744 ZURLO LORENZO M 1974 SM45 MARATONETI CITTADELLESI ITA 1:37:09 1:36:11
914 133 401 BONISOLI OSMAN M 1969 SM50 ATL. REGGIO ASD ITA 1:37:10 1:36:52
915 134 843 TESSARINI FABIO M 1973 SM50 ASD MIRAMARE RUNNER ITA 1:37:10 1:36:53
916 135 973 MONTI PAOLO M 1969 SM50 LEOPODISTICA ITA 1:37:10 1:36:44
917 176 1877 FADDA ELIA M 1975 SM45 RUNNING CLUB VENEZIA A.S.D. ITA 1:37:11 1:37:11
84 25 1639 OTTAVIANI CHIARA F 1995 SF RUNNER VARESE ITA 1:37:11 1:37:07
918 136 975 COMIN MATTEO M 1972 SM50 ATL.JESOLO TURISMO ITA 1:37:12 1:36:41
85 26 1720 LA STELLA MARIA F 1996 SF RUNCARD ITA 1:37:12 1:37:07
919 137 2651 BIANCHI LUCA M 1972 SM50 RUNCARD ITA 1:37:13 1:35:41
920 68 1257 GIORI MARCO M 1966 SM55 G.S. MONTESTELLA ITA 1:37:14 1:36:19
86 27 1723 CELON GIULIA F 1997 SF RUNCARD ITA 1:37:14 1:37:09
921 167 1196 CASADEI ANDREA M 1980 SM40 RUNCARD ITA 1:37:16 1:36:38
922 200 2612 MARTIRANI PAOLO M 1996 SM RUNCARD ITA 1:37:17 1:36:06
923 177 1073 FRANCHI MARIANO M 1976 SM45 A.S.D. TEAM KM SPORT ITA 1:37:17 1:37:02
924 138 832 SODANO MASSIMILIANO M 1970 SM50 PISA ROAD RUNNERS CLUB ITA 1:37:18 1:37:06
925 178 1351 SALVATI SALVATORE M 1976 SM45 RUNNER VARESE ITA 1:37:19 1:36:32
926 179 1217 BUCK FRANCISCUS M 1977 SM45 EMME RUNNING TEAM NED 1:37:20 1:36:57
927 168 3959 HUBERT BAILLET M 1979 SM40 RUNCARD FRA 1:37:20 1:37:00
928 169 4665 SANTACROCE ALESSANDRO M 1981 SM40 RUNCARD EPS - RUNCARD ITA 1:37:20 1:36:24
929 180 763 OTTAVIANI MATTIAS M 1974 SM45 ASD MIRAMARE RUNNER ITA 1:37:21 1:37:01
87 19 1213 SANTI ELISA F 1985 SF35 ATLETICANELLI ITA 1:37:22 1:36:39
930 181 866 POLATO ENRICO M 1974 SM45 RUN SPINEA RUN A.S.D. ITA 1:37:23 1:37:07
931 139 1121 MARIN ROBERTO M 1969 SM50 SPOTORNI RUN ITA 1:37:24 1:37:08
932 170 5076 GAMBARETTO NICOLA M 1981 SM40 A.S.D. TEAM KM SPORT ITA 1:37:24 1:36:35
933 140 4703 BEDENDO LUCA M 1971 SM50 RUNCARD ITA 1:37:24 1:37:08
934 171 1001 SANTOLIN ANDREA M 1981 SM40 RUNCARD ITA 1:37:25 1:36:56
935 172 549 TREGNAGHI FILIPPO M 1981 SM40 A.S.D. TEAM KM SPORT ITA 1:37:25 1:36:34
936 15 5173 BETTEGA STEFANO M 1961 SM60 RUNCARD EPS - RUNCARD AUT 1:37:26 1:36:42
937 1 1343 PRONESTI ENZO M 1953 SM70 ATL. MALNATE ITA 1:37:27 1:37:01
938 201 1483 BONTORIN JACOPO M 1989 SM EMME RUNNING TEAM ITA 1:37:28 1:37:05
    1803 DRUCE SIMON M 1967 SM55   GBR 1:37:29 1:37:26
88 28 1592 BIANCONI ANGELICA F 1995 SF PODISTICA AMATORI POTENZA ITA 1:37:31 1:37:25
939 141 1252 CAVEDON DARIO M 1969 SM50 RUNNERS TEAM ZANE' ITA 1:37:31 1:37:11
940 142 1137 PEZZOLO MASSIMO M 1972 SM50 POLISPORTIVA AURORA 76 ASD ITA 1:37:32 1:36:55
941 173 3827 AIROLDI PAOLO M 1981 SM40 ATLETICA GALLIATE ITA 1:37:32 1:37:24
942 69 1193 ANDREOTTI CLAUDIO M 1965 SM55 RUNCARD ITA 1:37:32 1:37:03
943 70 777 RANZATO LUIGI M 1968 SM55 TRENTINO RUNNING TEAM ITA 1:37:34 1:37:07
89 20 827 HANGAN VALENTINA F 1986 SF35 PODISTICA CORREGGIO ITA 1:37:34 1:37:18
944 71 5526 CIVALE FRANCESCO M 1968 SM55 ASD TOP RUN ITA 1:37:35 1:37:26
945 182 4615 CAMPANA FEDERICO M 1976 SM45 TRI SCHIO ASD ITA 1:37:35 1:36:59
946 143 547 MALVAROSA ISIDORO M 1972 SM50 ATL. REGGIO ASD ITA 1:37:35 1:37:11
947 151 5322 ISOLAN DANIELE M 1986 SM35 A.S.D. TEAM KM SPORT ITA 1:37:35 1:37:30
948 72 906 PIZZATO PIERLUIGI M 1968 SM55 VENICEMARATHON SSD A R.L. ITA 1:37:36 1:36:52
949 152 1509 BATTISTELLA MATTEO M 1986 SM35 RUNCARD ITA 1:37:36 1:37:31
950 183 5081 STELLA DANIELE M 1974 SM45 A.S.D. TEAM KM SPORT ITA 1:37:37 1:36:44
951 174 1487 ZANESI STEFANO M 1982 SM40 A.S.D. LA RUSTICA PESCANTINA ITA 1:37:38 1:37:13
952 175 637 MIHAYLOV IVELIN MIHAYLOV M 1983 SM40 RUNCARD ITA 1:37:39 1:36:49
953 153 1235 FERRAZZO STEFANO M 1987 SM35 RUNCARD ITA 1:37:40 1:37:13
954 144 1978 BEDIN ATTILIO M 1969 SM50 VICENZA MARATHON ITA 1:37:41 1:36:53
955 73 1882 CUNSOLO ANTONINO M 1964 SM55 A.S.D. ATLETICA SICILIA ITA 1:37:41 1:37:02
956 202 2111 GIRARDELLO GIANMARCO M 1989 SM RUNCARD ITA 1:37:42 1:36:14
957 176 748 CANOSA ROCCO M 1979 SM40 PASSO CAPPONI ASD ITA 1:37:42 1:37:13
958 177 533 ROSSO FEDERICO M 1980 SM40 ASSINDUSTRIA SPORT ITA 1:37:42 1:37:20
959 203 1020 SALETTI ALESSANDRO M 1992 SM RUNCARD ITA 1:37:43 1:37:13
960 184 1123 D'AULERIO MASSIMO M 1974 SM45 RUNCARD ITA 1:37:44 1:36:54
961 178 1744 MANCINO PIERLUIGI M 1982 SM40 PARMARATHON ASD ITA 1:37:44 1:37:35
90 2 1010 ACCALAI PAOLA F 1962 SF60 RUNCARD EPS - RUNCARD ITA 1:37:44 1:37:11
962 179 5119 LAZZARIN MARCELLO M 1979 SM40 ATLETICA VALLE DI CEMBRA ITA 1:37:46 1:37:23
91 21 990 MELCHIORI IRENE F 1984 SF35 A.S.D. TEAM KM SPORT ITA 1:37:47 1:37:19
963 204 1917 GNOCCHINI ENRICO MARIA M 1996 SM A. ATL. PORTO S. ELPIDIO ITA 1:37:47 1:37:11
    3775 REYES CUBELLS MARC M 1989 SM   ESP 1:37:47 1:37:39
    919 SØRENSEN BO NYHOLM M 1979 SM40   DEN 1:37:48 1:36:58
964 180 1688 POLATI MARCO M 1980 SM40 VRM TEAM ASD ITA 1:37:48 1:37:22
965 74 925 ARRIGHINI SERGIO M 1967 SM55 9,92 RUNNING ASD ITA 1:37:49 1:36:56
966 185 5143 PIRRA' GIUSEPPE M 1978 SM45 RUNCARD ITA 1:37:49 1:37:18
967 145 784 ROSSI LUCA M 1970 SM50 ATL. PRESEZZO ITA 1:37:51 1:36:58
968 154 1408 VILLANOVA ALESSIO M 1984 SM35 A.S.D. HROBERT RUNNING TEAM ITA 1:37:51 1:37:38
969 155 927 ERCOLI ANDREA M 1988 SM35 RUNCARD ITA 1:37:53 1:37:23
970 75 1321 CERIANI ALBERTO M 1968 SM55 ATLETICA 3V ITA 1:37:55 1:37:43
92 15 4708 SANTINI MONICA F 1974 SF45 RUNCARD EPS - ZERO WATT ASD ITA 1:37:55 1:37:34
971 186 1136 GNUTTI MARIO M 1975 SM45 ATLETICA BRESCIA MARATHON ITA 1:37:56 1:37:24
93 22 1314 OKUNEVA ALLA F 1987 SF35 RUNCARD ITA 1:37:57 1:37:41
94 16 738 CITRINITI IOLE F 1974 SF45 ASD MIRAMARE RUNNER ITA 1:37:57 1:37:41
972 156 1083 MARIN LORIS M 1986 SM35 RUNCARD ITA 1:37:58 1:37:22
973 6 4640 BARON MARIO ALESSANDRO M 1956 SM65 SPORT RACE A.S.D. ITA 1:37:58 1:37:52
974 187 4468 COMASTRI FAUSTO M 1975 SM45 ASD 3'.30'' TEAM ITA 1:37:59 1:37:37
975 146 5357 RUFFINI GEMINIO CESARE M 1973 SM50 TRICOLORE SPORT MARATHON ASD ITA 1:37:59 1:37:45
976 76 946 DONDI MASSIMO M 1965 SM55 ATLETICA BLIZZARD ITA 1:37:59 1:37:45
977 77 1052 BERNASCONI CARLO M 1966 SM55 G.A.P. SARONNO ITA 1:38:00 1:37:27
978 157 1648 KENNEDY NICHOLAS M 1985 SM35 RUNCARD GBR 1:38:02 1:37:17
979 188 1430 ROSSI CRISTIAN M 1974 SM45 PODISTICA CORREGGIO ITA 1:38:02 1:37:24
980 158 1266 MARIOTTO STEFANO M 1985 SM35 G.P. ARCI GOODWIN ITA 1:38:02 1:37:38
981 189 1485 MAZZACURATI LORENZO M 1976 SM45 RUNCARD ITA 1:38:03 1:37:57
982 205 1760 PACCHIONI DANIELE M 1991 SM RUNCARD ITA 1:38:03 1:37:49
983 206 5333 SCARSINI PIETRO M 1999 SM RUNCARD ITA 1:38:03 1:37:52
984 190 760 PRATI DANIELE M 1975 SM45 TRAGUARDO VOLANTE RACING ITA 1:38:04 1:37:46
985 191 1970 BIRTELE EMANUELE M 1978 SM45 A.S.D. TEAM KM SPORT ITA 1:38:04 1:37:49
986 207 5375 ALPINO MICHELE M 1990 SM RUNCARD ITA 1:38:04 1:37:37
95 23 5139 BANZATO SERENA F 1984 SF35 ASSINDUSTRIA SPORT ITA 1:38:05 1:37:30
987 192 1065 ZIDDA MAURIZIO M 1978 SM45 PODISTICA CORREGGIO ITA 1:38:07 1:37:49
988 181 244 LA MOTTA ANTONIO M 1982 SM40 A.S.D. ATLETICA CAIVANO ITA 1:38:07 1:38:01
989 208 1244 CORDINI EDI M 1996 SM BOSCAINI RUNNERS ITA 1:38:09 1:37:38
990 182 952 SCOTTI RICCARDO M 1982 SM40 RUNTOME ASD ITA 1:38:09 1:37:41
991 159 3849 COCCARELLI ANDREA M 1988 SM35 RUNCARD ITA 1:38:10 1:38:07
992 193 729 FORLIN ALLAN M 1977 SM45 RUNCARD ITA 1:38:10 1:37:37
993 78 1337 PACCHETTI DAVIDE M 1968 SM55 POL. TEAM BRIANZA LISSONE ITA 1:38:12 1:37:45
994 183 1762 NORDIO DANIELE M 1981 SM40 ASD MARATHON CAVALLI MARINI ITA 1:38:13 1:37:38
995 147 4636 BULZOMI ALFREDO M 1971 SM50 RUNCARD EPS - EDEN SPORT SCSD ITA 1:38:14 1:37:38
96 29 5337 DERKACH YULIIA F 1989 SF RUNCARD UKR 1:38:16 1:38:09
996 184 1110 BALDON ALBERTO M 1979 SM40 I SARMATI ITA 1:38:18 1:37:55
997 148 1316 VENTURINI FABRIZIO M 1972 SM50 RUNCARD ITA 1:38:20 1:38:08
998 185 565 FRANZINI DANIELE M 1983 SM40 G.P. AVIS POL. MALAVICINA ITA 1:38:20 1:38:08
97 20 2768 POLITI ENRICA F 1983 SF40 RUNCARD ITA 1:38:20 1:37:41
999 209 1521 ABDULLATEEF AL-AMEEN M 1994 SM RUNCARD NGR 1:38:21 1:38:12
1000 149 1768 POZZANI MASSIMO M 1973 SM50 RUNCARD ITA 1:38:21 1:38:07
1001 186 4141 TOSCAN DAMIANO M 1980 SM40 A.S.D. HROBERT RUNNING TEAM ITA 1:38:22 1:37:56
1002 150 1091 BURTET FABRIS FILIPPO M 1973 SM50 RUNNERS PADOVA ITA 1:38:22 1:38:04
    5348 BELEZEKO YURIY M 1995 SM   RUS 1:38:22 1:37:38
1003 79 1645 ANTIDORMI FABIO M 1968 SM55 A.S.D. ESERCITO-15 CERIMANT ITA 1:38:24 1:37:50
1004 210 3097 DEL DIN WILLIAM M 1995 SM RUNCARD ITA 1:38:24 1:38:04
1005 160 1602 BURRI ANDREA M 1984 SM35 RUNCARD ITA 1:38:25 1:38:22
1006 80 5570 AMADI OSCAR M 1964 SM55 G.S.A. VENEZIA ITA 1:38:26 1:37:52
1007 151 5114 DAOLIO NICOLA M 1970 SM50 RUNCARD EPS - ROAD RUNNERS CLUB POVIGLIO ITA 1:38:27 1:38:06
1008 194 5131 BATTILANA DANIELE M 1974 SM45 VICENZA RUNNERS ITA 1:38:28 1:38:09
1009 211 4100 GAMBALONGA SPARTACO M 1993 SM RUNCARD ITA 1:38:28 1:37:59
1010 16 1844 FALCHIERI GRAZIANO M 1962 SM60 ASD POD. LIPPO CALDERARA ITA 1:38:29 1:38:17
1011 81 1034 DAL BELLO MIRCO M 1965 SM55 ATL.VICENTINA ITA 1:38:29 1:37:49
1012 152 440 CORDIOLI GIANLUIGI M 1971 SM50 VRM TEAM ASD ITA 1:38:30 1:38:12
1013 187 4405 MAGNI LUCA M 1979 SM40 RUNCARD ITA 1:38:31 1:37:27
1014 188 911 CALIANDRO LORENZO M 1980 SM40 ASD VENEZIA TRIATHLON ITA 1:38:31 1:38:06
1015 212 599 STEFANI GIULIO M 1991 SM AFV BELTRAME ITA 1:38:31 1:38:02
1016 161 935 ZACCARELLI EUGENIO M 1986 SM35 PICO RUNNERS ITA 1:38:31 1:37:48
1017 153 881 NANO PAOLO M 1972 SM50 RUNNERS DESIO ITA 1:38:32 1:37:55
1018 189 4608 TAMELLINI ENRICO M 1982 SM40 G.A.A.C. 2007 VERONAMARATHON ITA 1:38:32 1:37:50
98 30 5174 SANDRINI SARA F 1997 SF VENUS TRIATHLON ACADEMY SSDARL ITA 1:38:32 1:37:33
1019 213 1309 BONATTI GIANLUCA M 1995 SM G.P. AVIS SUZZARA ITA 1:38:32 1:37:55
1020 190 1084 GIACOMETTI ALESSANDRO M 1982 SM40 IMPOSSIBLE226 TRIATHLON FORLI ITA 1:38:34 1:37:56
1021 17 4568 CECCHETTO ROBERTO M 1963 SM60 SETTE LAGHI RUNNERS ITA 1:38:35 1:38:02
1022 18 4567 MERLI LORENZO M 1962 SM60 SETTE LAGHI RUNNERS ITA 1:38:35 1:38:02
1023 82 1452 LAURIOLA ALESSANDRO M 1968 SM55 A.S.D. TEAM KM SPORT ITA 1:38:35 1:38:19
1024 195 1081 TOLDO MASSIMILIANO M 1977 SM45 RUNCARD ITA 1:38:37 1:38:07
1025 196 921 PICCOLI DAVIDE M 1976 SM45 G.P. AVIS POL. MALAVICINA ITA 1:38:37 1:38:23
1026 154 5358 MENEGHETTI MICHELE M 1970 SM50 USMA ASD ITA 1:38:38 1:38:23
1027 214 1146 FENU MATTEO M 1991 SM RENSEN SPORT TEAM ASD ITA 1:38:39 1:38:13
1028 155 4542 CIANNARELLA NICOLA M 1972 SM50 BARLETTA SPORTIVA ITA 1:38:40 1:38:08
1029 197 4653 ZENARI ROBERTO M 1975 SM45 VRM TEAM ASD ITA 1:38:40 1:38:13
1030 215 4349 GHIDINI SIMONE M 1994 SM TRIATHLON DUATHLON CREMONA ITA 1:38:40 1:38:37
1031 83 1067 BOSCOLO CEGION RENATO M 1965 SM55 RUNCARD ITA 1:38:41 1:38:28
1032 191 1560 INGLIMA DAVIDE M 1983 SM40 ASD ATLETICA CEREA ITA 1:38:41 1:38:27
1033 192 1248 CREMONINI FABRIZIO M 1983 SM40 RUNCARD ITA 1:38:41 1:38:12
99 17 2593 COLOMBAROLLI LORENA F 1974 SF45 G.P. AVIS POL. MALAVICINA ITA 1:38:41 1:38:35
1034 193 877 MILANI MATTEO ROCCO M 1980 SM40 ASSINDUSTRIA SPORT ITA 1:38:41 1:38:06
1035 198 1455 SEDDA MIRKO M 1974 SM45 VICENZA MARATHON ITA 1:38:42 1:38:15
1036 19 1168 VANOGLIO IVANO ANGELO M 1963 SM60 ATL. PRESEZZO ITA 1:38:42 1:37:50
1037 156 986 MAISTRI GIANLUCA M 1973 SM50 A.S.D. TEAM KM SPORT ITA 1:38:43 1:37:54
100 6 2349 ASCHIERI SIMONA F 1971 SF50 ATL. VIADANA ITA 1:38:43 1:38:29
1038 194 1053 LAZZARO MATTEO M 1982 SM40 GENERALI RUNNERS ITA 1:38:44 1:37:49
1039 195 318 BISULCA DAVIDE M 1980 SM40 ATL. MALNATE ITA 1:38:45 1:38:32
1040 196 4623 FERRACUTI MIRKO M 1979 SM40 RICCIONE PODISMO ITA 1:38:45 1:38:26
1041 199 862 BORTOLOTTI TIZIANO M 1977 SM45 U.S. STELLA ALPINA CARANO ITA 1:38:45 1:38:28
    1626 BIERNAT DAWID M 1993 SM   POL 1:38:46 1:37:17
1042 157 4700 SABBATINI SILVANO M 1973 SM50 ATL.'BANCA DI PESARO'C.STORICO ITA 1:38:46 1:38:08
1043 158 1210 ZENTI FRANCESCO M 1973 SM50 A.S.D. TEAM KM SPORT ITA 1:38:47 1:38:19
1044 162 5169 MARSIGLIANTE AUGUSTO M 1984 SM35 ATLETICA TRENTO ITA 1:38:47 1:37:52
1045 163 1472 RUFFO MASSIMILIANO M 1987 SM35 A.S.D. TEAM KM SPORT ITA 1:38:47 1:38:17
1046 197 1463 NEGRINI LUCA M 1980 SM40 A.S.D. TEAM KM SPORT ITA 1:38:48 1:38:17
1047 159 1402 BERTOLASO DANIELE M 1969 SM50 RUNCARD ITA 1:38:49 1:38:36
1048 20 1552 ZAVATTERI CLAUDIO M 1959 SM60 RUNCARD ITA 1:38:49 1:38:33
1049 84 1538 BORZI ALFIO M 1968 SM55 ASD CORRENDO PER ACI -ACIREALE ITA 1:38:49 1:38:29
101 24 778 MINUCCI FRANCESCA F 1985 SF35 ALZAIA NAVIGLIO RUNNERS ITA 1:38:50 1:38:06
1050 160 1253 PATTI GASPARE M 1973 SM50 G.P. I GAMBER DE CUNCURESS ITA 1:38:51 1:38:13
1051 164 5153 MINOIA JONATHAN M 1985 SM35 6XCORRERE ITA 1:38:51 1:38:17
1052 161 5151 GABRIELLI GIANFRANCO M 1969 SM50 6XCORRERE ITA 1:38:51 1:38:33
1053 216 1272 MICCOLI VINCENZO M 1993 SM RUNCARD ITA 1:38:52 1:38:14
1054 165 1898 COSTA ZANNI CHRISTIAN M 1985 SM35 ATL. CASSANO D'ADDA ITA 1:38:53 1:38:31
102 18 3119 TREVISAN SARA F 1974 SF45 ATL.AUDACE NOALE ITA 1:38:53 1:37:45
1055 198 1305 AMELIO LUIGI M 1981 SM40 A.S.D. RUNNING SAVIANO ITA 1:38:54 1:38:29
1056 200 1457 MARCAZZAN CESARE M 1977 SM45 A.S.D. TEAM KM SPORT ITA 1:38:55 1:38:48
1057 85 1303 MAFFEZZINI ROMANO M 1967 SM55 G.S. CHIURO ITA 1:38:56 1:38:22
1058 21 1527 NIGRO FRANCO M 1963 SM60 SPORTS CLUB MELEGNANO ITA 1:38:57 1:38:55
1059 86 1865 DILETTUSO ARCANGELO M 1965 SM55 G.S.P. III REGIONE AEREA BARI ITA 1:38:57 1:38:54
1060 162 1167 FERRARINI ANDREA M 1973 SM50 RUNCARD ITA 1:38:58 1:38:35
1061 87 1919 FONTANA FAUSTO M 1966 SM55 RUNCARD ITA 1:39:00 1:38:18
1062 22 1561 VITULANO MATTEO M 1962 SM60 NRDC-ITA RUNNING CLUB ITA 1:39:00 1:38:53
1063 201 1171 DE CARLO CONO M 1976 SM45 KOS RUNNING A.S.D. ITA 1:39:01 1:38:32
1064 163 1824 ARMANI GRAZIANO M 1973 SM50 RUNCARD ITA 1:39:01 1:38:54
    1116 PONTI SARA F 1972 SF50   SUI 1:39:01 1:38:13
1065 88 648 RISATTI OTTAVIO M 1968 SM55 S.S. TENNO ITA 1:39:01 1:38:24
1066 166 5160 CAPELLI ANTONIO M 1988 SM35 POLISPORTIVA G.B. VIGHENZI ITA 1:39:01 1:38:23
1067 1 993 MAZZACAVALLO GIANTONIO M 1948 SM75 VICENZA MARATHON ITA 1:39:02 1:38:58
1068 164 2993 ZANETTI STEFANO M 1973 SM50 BOSCAINI RUNNERS ITA 1:39:03 1:38:54
1069 89 2059 VEZZANI ANTONIO M 1967 SM55 A.S. DILETTANTISTICA SESSANTAL ITA 1:39:03 1:38:11
1070 167 4212 RICCIO GERARDO M 1986 SM35 RUNCARD ITA 1:39:03 1:38:51
1071 23 958 RIMOLDI ALFREDO M 1961 SM60 RUNNERS DESIO ITA 1:39:04 1:38:29
1072 90 591 COLDEBELLA WALTER M 1968 SM55 RUNCARD EPS - GRUPPO PODISTICO GODIGESE ITA 1:39:05 1:38:11
1073 165 588 POLL MARKUS M 1969 SM50 LPSV-K AUT 1:39:05 1:38:55
103 19 1718 SOMMEREGGER TANJA F 1978 SF45 LPSV-K AUT 1:39:05 1:38:56
1074 166 1490 FANINI MARCO M 1970 SM50 A. ATL. PORTO S. ELPIDIO ITA 1:39:05 1:38:26
1075 217 1763 PETROSINO DONATO M 1990 SM A.S.D. TEAM KM SPORT ITA 1:39:06 1:38:36
1076 218 5567 FILIPPI ANDREA M 1997 SM RUNCARD ITA 1:39:06 1:37:26
104 20 1613 SALGARI PAOLA F 1977 SF45 VRM TEAM ASD ITA 1:39:07 1:38:41
1077 202 868 REINER MARTIN M 1977 SM45 ASV L.C. BOZEN RAIFFEISEN ITA 1:39:09 1:38:17
1078 203 1831 GUIDETTI GIANLUCA M 1974 SM45 ASD POD. LIPPO CALDERARA ITA 1:39:09 1:38:57
1079 167 1304 VOK TOMAZ M 1969 SM50 PETROVČE SLO 1:39:09 1:38:45
1080 204 5343 MONTANARI ALESSIO M 1978 SM45 ATLETICA CORRIFERRARA ITA 1:39:10 1:39:10
1081 205 4486 CANTALUPI GIUSEPPE M 1975 SM45 ASD 3'.30'' TEAM ITA 1:39:10 1:39:04
1082 168 5350 BAMBI GIANLUCA M 1986 SM35 RUNCARD EPS - RUNCARD ITA 1:39:11 1:38:55
105 3 4185 PARISI CRISTINA F 1966 SF55 RUNCARD ITA 1:39:11 1:38:47
1083 168 4266 MELUZZI YURI M 1969 SM50 POD. OZZANESE ITA 1:39:12 1:38:31
1084 199 5134 DALLE RIVE STEFANO M 1982 SM40 VICENZA RUNNERS ITA 1:39:12 1:38:49
1085 206 5339 BATTISTA ANGELO MARIA M 1977 SM45 ASSOCIAZIONE STRAVERONA ASD ITA 1:39:13 1:38:52
1086 219 4176 SUCCI CIMENTINI DANIELE M 1992 SM KINO MANA ITA 1:39:13 1:37:50
1087 169 1094 PENNA LUCA M 1972 SM50 RUNCARD ITA 1:39:13 1:38:28
1088 91 1021 PUGLIOLI MARCO M 1964 SM55 ASD POD. LIPPO CALDERARA ITA 1:39:14 1:38:23
1089 200 1251 SALVETTI MATTIA M 1982 SM40 JUNIOR SPORT AVIO ITA 1:39:15 1:38:36
1090 7 816 ROBOL DANILO M 1955 SM65 LAGARINA CRUS TEAM ITA 1:39:15 1:38:38
1091 201 1481 MARCOLINI MATTEO M 1979 SM40 RUNCARD ITA 1:39:17 1:38:55
1092 170 1055 MEROTTO SERGIO M 1969 SM50 ATL.VALDOBBIADENE G.S.A. ITA 1:39:17 1:39:07
1093 92 1319 MORANDI DENIS M 1968 SM55 LAGARINA CRUS TEAM ITA 1:39:17 1:38:52
1094 220 3717 SEGLIANI NICOLA M 1990 SM RAIN RUNNERS ITA 1:39:18 1:39:13
1095 171 639 ANGELI ALESSANDRO M 1972 SM50 RUNCARD EPS - RUNCARD ITA 1:39:19 1:38:33
1096 93 812 DOTTI FABRIZIO M 1966 SM55 C.U.S. PARMA ITA 1:39:19 1:38:30
    1180 DE VILLIERS BENOÎT M 1970 SM50   CAN 1:39:20 1:39:03
1097 207 1080 TROCKER MICHAEL M 1974 SM45 S.G EISACKTAL RAIFFEISEN ASV ITA 1:39:20 1:38:25
1098 172 4526 MANFRIN STEFANO M 1969 SM50 RUNCARD EPS - PACERS GLI ORIGINALI ITA 1:39:21 1:38:52
1099 221 4104 SIENA ANTONIO M 1995 SM RUNCARD ITA 1:39:21 1:38:54
1100 208 1612 CONSOLINI LUCA M 1976 SM45 G.P. AVIS SUZZARA ITA 1:39:21 1:39:09
1101 173 500 POLETTI GIANMARIA M 1971 SM50 RUNCARD ITA 1:39:23 1:38:51
106 31 1188 PORTAL SOPHIE F 1995 SF G.M. G.S. AQUILE FRIULANE ITA 1:39:23 1:38:56
1102 222 5984 BRANDUZZI DAVIDE M 1990 SM DELTA ATL. SASSUOLO ITA 1:39:24 1:38:32
1103 174 5157 CAPARCO ALESSIO M 1973 SM50 6XCORRERE ITA 1:39:24 1:39:06
1104 175 1326 BOSCOLO MARCHI LORENZO M 1973 SM50 ASD MARATHON CAVALLI MARINI ITA 1:39:25 1:38:55
    3834 SBABO PATRICIA F 1989 SF   BRA 1:39:28 1:39:14
1105 209 3938 GALLINARI DANIELE M 1977 SM45 RUNCARD ITA 1:39:28 1:39:10
107 32 2004 CONTESSO CAMILLA F 1990 SF RUNCARD ITA 1:39:28 1:38:45
1106 210 1624 BOTTELLI MASSIMO M 1974 SM45 RUNCARD ITA 1:39:29 1:38:51
1107 202 1870 PIPERNO FRANCESCO M 1982 SM40 G.S. AVIS - SEREGNO ITA 1:39:30 1:39:21
1108 94 1273 AJELLI GIANLUIGI M 1965 SM55 SPORTS CLUB MELEGNANO ITA 1:39:30 1:38:50
1109 169 443 GRASTA BIAGIO LUCA M 1984 SM35 G.S. AVIS - SEREGNO ITA 1:39:30 1:39:21
1110 203 948 CLOPÉS COLLBATALLÉ JORDI M 1980 SM40 RUNCARD ESP 1:39:30 1:38:32
1111 95 1092 DELMONTE MASSIMO M 1964 SM55 C.U.S. PARMA ITA 1:39:31 1:38:42
1112 176 4258 NOBILI ALESSANDRO M 1973 SM50 POD. OZZANESE ITA 1:39:32 1:38:49
1113 211 1706 GEROMEL MARCO M 1978 SM45 RUNCARD EPS - RUNCARD ITA 1:39:32 1:39:25
1114 177 1120 DELLAVEDOVA DAVIDE M 1973 SM50 ATLETICA P.A.R. CANEGRATE ITA 1:39:32 1:38:55
1115 178 1614 CARASI LUCA M 1972 SM50 RUNCARD ITA 1:39:34 1:39:28
1116 170 4428 DONATO DAVIDE M 1985 SM35 ATL. PIACENZA ITA 1:39:35 1:39:03
1117 212 1533 TOGNIN ALESSANDRO M 1976 SM45 RUNCARD ITA 1:39:35 1:39:19
1118 171 509 GRASSI STEFANO M 1985 SM35 A.S.D. TEAM KM SPORT ITA 1:39:35 1:38:51
1119 179 1623 DOSSO CHRISTIAN M 1971 SM50 RUNCARD ITA 1:39:37 1:39:24
1120 96 710 VERATI MARCO M 1968 SM55 TEAM MUD & SNOW ASD ITA 1:39:37 1:39:17
108 21 1459 NIERO SILVIA F 1980 SF40 VICENZA MARATHON ITA 1:39:38 1:39:32
1121 223 4446 SERTOLI EDOARDO M 1989 SM URBAN RUNNERS ITA 1:39:39 1:38:18
109 21 5086 VIRZI IOLANDA F 1975 SF45 RUNCARD ITA 1:39:39 1:39:03
110 22 1260 ZANELLA CHIARA F 1981 SF40 PASSO CAPPONI ASD ITA 1:39:39 1:39:02
1122 180 419 NOTARIANNI DOMENICO M 1970 SM50 ASD GIANNONERUNNING CIRCUIT ITA 1:39:42 1:39:05
1123 204 1579 VESENTINI ANDREA M 1982 SM40 A.S.D. TEAM KM SPORT ITA 1:39:42 1:39:23
1124 224 1478 BONFIGLI GIACOMO M 1994 SM RUNCARD ITA 1:39:43 1:39:13
1125 225 3043 MORETTO EDOARDO M 1997 SM VERONA RUNNER TOGETHER FREE ITA 1:39:44 1:38:38
1126 213 5511 STAMPANONI LEONIDA M 1974 SM45 USC CAPRIASCHESE ATLETICA SUI 1:39:45 1:38:26
1127 24 1576 ZOPPO MARTELLINI ALFONSO M 1961 SM60 A. ATL. PORTO S. ELPIDIO ITA 1:39:45 1:39:43
1128 97 5319 VERDI DANIELE M 1965 SM55 A.S.D. TEAM KM SPORT ITA 1:39:46 1:39:29
1129 205 942 MORANDINI DANIELE M 1979 SM40 RUNCARD Trail - RUNCARD ITA 1:39:47 1:39:17
1130 206 1194 ZACCARIELLO ENRICO M 1980 SM40 G.S.SELF ATL. MONTANARI GRUZZA ITA 1:39:47 1:39:15
1131 226 5367 BRUSCHI NICOLO M 1991 SM RUNCARD ITA 1:39:48 1:39:41
1132 214 3132 GASPARINI VANNI M 1978 SM45 G.P. AVIS POL. MALAVICINA ITA 1:39:48 1:39:09
1133 207 2340 SIRI MARCO M 1980 SM40 RUNCARD ITA 1:39:49 1:39:09
1134 98 903 TOMMASELLO MIRCO ALBERTO M 1968 SM55 POL. MONFORTESE RUNNING ITA 1:39:49 1:39:36
1135 227 2026 CECCATO MICHELE M 1989 SM RUNCARD ITA 1:39:50 1:39:14
1136 181 1332 PASQUALI MICHELE M 1972 SM50 A.S.D. LA RUSTICA PESCANTINA ITA 1:39:52 1:39:33
111 22 1148 COZZA NADIA F 1977 SF45 A.S.D. ATLETICA SALERNO ITA 1:39:52 1:39:37
1137 182 1017 BECCHETTI ENRICO M 1970 SM50 ATLETICA UMBERTIDE ITA 1:39:52 1:39:01
1138 183 965 PISTOLATO LUCA M 1969 SM50 RUNNING TEAM MESTRE ITA 1:39:52 1:39:23
1139 228 2764 CAROLLO GIOVANNI M 1994 SM C.U.S. VERONA SEZ. ATLETICA ITA 1:39:53 1:39:07
1140 229 1654 MARCHINI STEFANO M 1989 SM G.P. ARCI GOODWIN ITA 1:39:53 1:39:38
1141 184 4475 GILIOLI FRANCESCO M 1972 SM50 ATL. CIBENO ITA 1:39:55 1:39:26
1142 185 1234 PINZAN DAVIDE M 1969 SM50 CAJGO RUNNERS ITA 1:39:55 1:39:37
1143 186 1583 ZENATTO CLAUDIO M 1972 SM50 VRM TEAM ASD ITA 1:39:55 1:39:27
1144 215 745 BERRETTI MATTEO M 1978 SM45 VRM TEAM ASD ITA 1:39:56 1:39:28
112 33 1432 PEZZINI LISA F 1994 SF A.S.D. ATLETICA LUPATOTINA ITA 1:39:56 1:39:49
1145 208 4528 DANESI PATRIK M 1982 SM40 RUNCARD EPS - PACERS GLI ORIGINALI ITA 1:39:56 1:39:51
1146 99 4529 BERLANDA CORRADO M 1964 SM55 ATLETICA TEAM LOPPIO ITA 1:39:56 1:39:51
1147 230 4028 OSEI BENJAMIN M 1993 SM A.S.D. TEAM KM SPORT ITA 1:39:57 1:39:20
1148 231 1399 MIRANDOLA PIETRO M 1990 SM RUNCARD ITA 1:39:58 1:39:53
1149 187 1106 PAGNUTTI GIAMPAOLO M 1972 SM50 ATL.VICENTINA ITA 1:39:58 1:39:18
1150 172 2209 TAFELLI SEBASTIANO M 1985 SM35 RUNCARD ITA 1:39:58 1:38:51
1151 209 1578 TRUZZOLI SAMUELE M 1980 SM40 A.S.D. TEAM KM SPORT ITA 1:39:59 1:39:49
1152 216 5146 LACHIN CHRISTIAN M 1974 SM45 ATLETICA MONFALCONE ITA 1:40:00 1:39:16
113 23 5167 BALDINA MARIA F 1978 SF45 RAIN RUNNERS ITA 1:40:01 1:39:09
1153 188 3826 RETTONDINI FILIPPO M 1970 SM50 RUNCARD ITA 1:40:01 1:39:57
1154 2 865 FACOETTI ANGELO M 1953 SM70 ATL. PRESEZZO ITA 1:40:01 1:39:51
1155 232 1183 MAGRIN ALESSANDRO M 1994 SM RUNCARD ITA 1:40:02 1:39:29
1156 233 1951 RIZZINI ANDREA M 1989 SM RUNCARD ITA 1:40:02 1:39:41
1157 210 1558 LONARDONI FRANCESCO M 1982 SM40 A.S.D. TEAM KM SPORT ITA 1:40:03 1:39:26
114 24 1302 MEI MAIDA F 1974 SF45 ASD ATLETICA PISTOIA ITA 1:40:03 1:39:38
1158 100 3931 D'ANTONI MICHELE M 1968 SM55 ATLETICA RIVIERA DEL BRENTA ITA 1:40:04 1:39:48
1159 234 5121 BADIALI FRANCESCO M 1994 SM RUNCARD ITA 1:40:05 1:39:17
1160 235 4716 MALPETTI ALESSANDRO M 1993 SM RUNCARD ITA 1:40:05 1:39:58
1161 189 1145 PICCOLO ROBERTO M 1969 SM50 UNITED TRAIL&RUNNING ITA 1:40:06 1:39:22
1162 190 1531 SARTORE IVANO M 1969 SM50 RUNCARD ITA 1:40:06 1:40:06
1163 191 1438 SPARBER FLORIAN M 1969 SM50 A-LC KALTERN ITA 1:40:08 1:39:21
1164 236 3940 CASALINGO SIMONE M 1997 SM RUNCARD ITA 1:40:09 1:40:03
1165 101 5156 MELLI MARCO M 1966 SM55 6XCORRERE ITA 1:40:12 1:40:01
1166 217 2053 MAZZOTTA LORENZO M 1974 SM45 RUNCARD EPS - RUNCARD ITA 1:40:13 1:39:16
    4032 PIZZALI STEFANO M 1986 SM35   SUI 1:40:15 1:39:38
1167 211 4439 GIORDANO STEFANO M 1980 SM40 RUNCARD ITA 1:40:16 1:39:49
1168 173 1640 MONTORSI MASSIMO M 1984 SM35 ASD ZENA RUNNERS ITA 1:40:17 1:40:10
1169 192 1617 GUERRA MATTEO M 1971 SM50 G.P. S.ANGELA AVIS DESENZANO ITA 1:40:18 1:39:47
1170 218 562 DI MARCO MIRCO M 1975 SM45 ATL. MUGGIO` ITA 1:40:19 1:40:04
1171 219 1312 SCARDINA PAOLO M 1976 SM45 RUNCARD ITA 1:40:19 1:39:39
1172 237 1012 COGONI ALESSANDRO M 1992 SM MONZA MARATHON TEAM - A.S.D. ITA 1:40:20 1:39:33
1173 212 833 CROVETTI ANDREA M 1980 SM40 RUNCARD ITA 1:40:21 1:39:33
1174 220 1064 TONDIN ALERICO M 1974 SM45 AFV BELTRAME ITA 1:40:22 1:39:41
1175 25 5112 MARTELLI ROBERTO M 1961 SM60 RUNCARD EPS - RUNCARD ITA 1:40:23 1:40:02
1176 221 1541 RONCATO IRENO M 1976 SM45 GRUPPO ATLETICA VEDELAGO ITA 1:40:24 1:40:13
1177 222 1206 STAGNI OMAR M 1974 SM45 RUNCARD ITA 1:40:24 1:39:54
1178 193 595 COZZULA TIZIANO M 1969 SM50 BOSCAINI RUNNERS ITA 1:40:24 1:39:43
1179 238 5544 LADISA FRANCESCO M 1990 SM RUNCARD ITA 1:40:25 1:39:12
1180 194 5329 SODA CHRISTIAN M 1973 SM50 VRM TEAM ASD ITA 1:40:25 1:40:19
115 7 1231 DOSSI MONICA F 1972 SF50 LAGARINA CRUS TEAM ITA 1:40:25 1:40:01
116 25 972 REBECCHI AMBRA F 1988 SF35 LA FULMINEA RUNNING TEAM SINCE ITA 1:40:26 1:39:30
1181 102 1068 CARDIA SERGIO M 1965 SM55 ATLETICA 4 MORI ITA 1:40:27 1:40:14
1182 213 5118 GELOSINI SIMONE M 1980 SM40 ATL. REGGIO ASD ITA 1:40:27 1:39:48
    1664 BRANDON LOUISE F 1974 SF45   GBR 1:40:28 1:40:05
117 8 4502 BAGNARI SILVIA F 1969 SF50 ATLETICA 85 FAENZA ITA 1:40:29 1:39:51
1183 174 5148 ABBATTISTA ROCCO M 1984 SM35 RUNCARD ITA 1:40:29 1:39:51
1184 223 5331 BRACHI ANTONIO M 1977 SM45 RUNCARD EPS - RUNCARD ITA 1:40:30 1:40:23
1185 214 4289 PEDROTTI MIRKO M 1983 SM40 ATLETICA TEAM LOPPIO ITA 1:40:31 1:39:45
118 9 1200 GASPARINI GIORGIA F 1970 SF50 RUNCARD ITA 1:40:32 1:39:56
1186 224 701 ZULIAN MARCO M 1975 SM45 RIDE YOUR DREAMS TREVISO ITA 1:40:33 1:39:57
1187 175 2471 ROMANI DANIELE M 1984 SM35 RUNCARD ITA 1:40:33 1:39:36
1188 225 5144 VESCOVO MARCO M 1974 SM45 ASD BARIZZA SPORT ITA 1:40:33 1:40:02
1189 176 2194 DI MATTEO SIMONE M 1986 SM35 RUNCARD ITA 1:40:33 1:39:07
1190 195 901 NALIN ALESSANDRO M 1972 SM50 VICENZA RUNNERS ITA 1:40:34 1:39:45
1191 177 1467 GASPARI ANDREA M 1984 SM35 A.S.D. TEAM KM SPORT ITA 1:40:35 1:40:25
1192 8 2443 FUSON MARINO M 1957 SM65 ATL.VALDOBBIADENE G.S.A. ITA 1:40:35 1:39:58
    1790 MAGGI LAURA F 1987 SF35   SUI 1:40:35 1:40:28
1193 239 887 BUSATTO CLAUDIO M 1990 SM RUNCARD ITA 1:40:37 1:40:09
1194 196 461 RUFFONI ANDREA M 1970 SM50 VENICEMARATHON SSD A R.L. ITA 1:40:38 1:39:51
1195 197 749 COLOMBARI ROBERTO M 1972 SM50 G.P. AVIS POL. MALAVICINA ITA 1:40:39 1:40:02
1196 215 2110 PIENAZZA ANDREA M 1979 SM40 G.P. S.ANGELA AVIS DESENZANO ITA 1:40:39 1:39:54
1197 198 779 BUIO MASSIMO M 1969 SM50 G.P. AVIS POL. MALAVICINA ITA 1:40:40 1:40:03
119 25 3835 PIAGNO SAMANTA F 1977 SF45 PODISTI CORDENONS ITA 1:40:40 1:40:35
1198 226 1388 GALLI STEFANO M 1976 SM45 RUNCARD ITA 1:40:44 1:40:40
1199 227 1142 LICATA FRANCESCO DAVIDE M 1977 SM45 G.A.P. SARONNO ITA 1:40:44 1:39:55
1200 228 1320 HOCHGRUBER ROBERT M 1977 SM45 RUNCARD ITA 1:40:45 1:39:56
1201 199 3735 PERI ROBERTO M 1972 SM50 C.U.S. PARMA ITA 1:40:45 1:40:39
1202 240 1637 ODONE TOMMASO M 1989 SM RUNCARD ITA 1:40:46 1:40:10
120 26 1544 FELLER MANOLA F 1975 SF45 LAGARINA CRUS TEAM ITA 1:40:46 1:40:38
1203 229 662 PAZZOCCO DIEGO M 1975 SM45 A.S.D. TEAM KM SPORT ITA 1:40:46 1:40:01
1204 230 1570 CECCATO VITTORIO M 1975 SM45 ASD RUN IT ITA 1:40:48 1:40:36
1205 200 651 FONTANA GAETANO M 1972 SM50 LA FULMINEA RUNNING TEAM SINCE ITA 1:40:48 1:40:39
    1656 WEISS BERNHARD M 1961 SM60 SPORT RUSCHER TEAM GER 1:40:50 1:40:20
1206 231 1240 ZUCCHINI LUCA M 1978 SM45 RUNCARD ITA 1:40:50 1:39:49
1207 201 1406 VEROPALUMBO FRANCESCO M 1971 SM50 ATLETICA P.A.R. CANEGRATE ITA 1:40:50 1:40:50
1208 241 4159 ANCESCHI ALESSANDRO M 1990 SM RUNCARD ITA 1:40:50 1:39:59
1209 202 1344 CINTURRINO CARMELO M 1970 SM50 A.S.D. TRIATHLON LIGNANO SABB. ITA 1:40:51 1:40:18
121 23 4433 LOCCHI FEDERICA F 1980 SF40 PASSO CAPPONI ASD ITA 1:40:51 1:40:02
1210 26 5140 ROCCHINI SANDRO M 1959 SM60 RUNCARD ITA 1:40:55 1:40:15
122 26 1221 VICIDOMINI MARIA F 1988 SF35 CAIVANO RUNNERS ITA 1:40:57 1:40:42
1211 232 1174 ANDREATTA PAOLO M 1975 SM45 GS VALSUGANA TRENTINO ITA 1:40:59 1:40:28
1212 103 1165 DI VICO ANTONIO M 1964 SM55 G.P. MARCIATORI COGLIATE ITA 1:40:59 1:40:47
1213 216 1835 KRÜLL JOËL M 1983 SM40 RUNCARD SUI 1:40:59 1:40:45
1214 104 1566 GUADAGNINI FREDIANO M 1964 SM55 RUNCARD ITA 1:40:59 1:40:34
123 10 1475 TOLDO VERONICA F 1973 SF50 LAGARINA CRUS TEAM ITA 1:41:00 1:40:56
1215 233 3830 TIANI MAURO M 1975 SM45  ATLETIC TEAM TAVERNA ASD ITA 1:41:01 1:40:58
1216 105 2148 CAVA BETTINO M 1966 SM55 RUNCARD ITA 1:41:02 1:39:42
1217 106 2119 BARBETTA SALVATORE M 1966 SM55 ATL. ARCISATE ITA 1:41:02 1:40:38
1218 107 4650 MULTINEDDU MICHELE M 1968 SM55 EMME RUNNING TEAM ITA 1:41:03 1:40:19
1219 203 4421 FILIPPI MAURO M 1972 SM50 RUNCARD ITA 1:41:07 1:40:24
1220 178 1393 VEZZOLI MICOL M 1985 SM35 RUNCARD ITA 1:41:07 1:40:36
124 24 1804 BATTAN MICHELA F 1980 SF40 ATLETICA ROTALIANA ITA 1:41:07 1:41:07
1221 204 5956 CHIARI STEFANO M 1969 SM50 E.VO.3 A.S.D. ITA 1:41:09 1:40:21
125 27 988 CALLIARI ALESSANDRA F 1975 SF45 VICENZA MARATHON ITA 1:41:11 1:40:47
1222 234 773 FANTUZZI LUCA M 1978 SM45 PODISTICA CORREGGIO ITA 1:41:12 1:40:58
1223 217 943 MONTAGNER ALEX M 1983 SM40 RUNCARD ITA 1:41:12 1:40:41
1224 205 1712 PIRANA MATTEO M 1973 SM50 RUNCARD ITA 1:41:13 1:41:01
126 25 1615 CHINELLO LAURA F 1981 SF40 ASD I PODISTI DI NEMO ITA 1:41:14 1:41:07
1225 206 2035 DURACCIO SIMONE M 1972 SM50 ASD MIRAMARE RUNNER ITA 1:41:14 1:40:24
1226 179 1944 TAGLIANETTI LUCAS M 1988 SM35 RUNCARD ITA 1:41:16 1:40:55
1227 108 1414 ESPOSITO ANTONIO M 1968 SM55 OLIMPIA NUOVA RUNNING A.S.D. ITA 1:41:16 1:41:03
127 28 1403 IERARDI ANNA MARIA F 1978 SF45 ATL. AMBROSIANA ITA 1:41:16 1:41:03
1228 242 4423 BERGANTIN LUCA M 1989 SM ATLETICA OVEST TICINO ITA 1:41:16 1:40:30
128 26 1608 MOLENA ELISA F 1979 SF40 RUNCARD ITA 1:41:16 1:41:04
1229 109 1993 TREBESCHI GABRIELE M 1968 SM55 ROSA RUNNING TEAM ITA 1:41:18 1:40:47
129 4 1428 MARINI MARILENA F 1965 SF55 A.S.D. ATLETICA LUPATOTINA ITA 1:41:18 1:41:12
1230 110 1371 BELLIN FEDERICO M 1968 SM55 SWIM BIKE RUN 3ATHLON ASD ITA 1:41:18 1:41:10
1231 27 1539 GREGORI ROBERTO M 1959 SM60 ASD SUBBIANO MARATHON ITA 1:41:21 1:41:05
130 29 5172 SCHULZ DANA F 1978 SF45 SUEDTIROLER LV SPARKASSE ITA 1:41:21 1:40:33
1232 218 1584 BORDONI TOBIA M 1980 SM40 RUNCARD ITA 1:41:22 1:41:01
1233 9 3829 DI CIACCIO ANTONIO M 1955 SM65 RUNCARD ITA 1:41:24 1:40:53
1234 111 1313 ALBERGHINI ENRICO M 1968 SM55 G.P. I CAGNON ITA 1:41:24 1:40:51
131 30 1451 AZZALINI LUSCIKA F 1975 SF45 VICENZA MARATHON ITA 1:41:26 1:41:02
1235 235 5149 PRESA PAOLO ARTURO M 1974 SM45 A.S.D. TEAM KM SPORT ITA 1:41:28 1:40:46
1236 207 1122 GIACOMUZZO MARCO M 1972 SM50 RUNCARD ITA 1:41:29 1:41:02
1237 208 4652 CALOSI DANIELE M 1973 SM50 RUNCARD ITA 1:41:31 1:40:52
1238 243 1588 MANCINI FABIO M 1994 SM ASD RUNNERS CHIETI ITA 1:41:32 1:41:22
1239 180 1030 SBRISSA FEDERICO M 1985 SM35 ATL.MONTEBELLUNA ITA 1:41:34 1:40:46
1240 244 3893 BONELLI ROBERTO M 1990 SM RUNCARD ITA 1:41:35 1:41:30
132 11 1129 ZOTTA PAOLA F 1970 SF50 TRENTINO RUNNING TEAM ITA 1:41:35 1:41:03
1241 236 492 DE FAVERI GIUSEPPE M 1976 SM45 A.S.D. JESOLO TRIATHLON ITA 1:41:35 1:40:45
133 34 1999 BENDINELLI SHARON ELISABETTA F 1990 SF RUNCARD ITA 1:41:35 1:40:37
1242 209 1038 CELLA CHRISTIAN M 1972 SM50 RUNCARD ITA 1:41:35 1:40:43
1243 237 624 BALDESSARI MAURO M 1977 SM45 ATLETICA VALLE DI CEMBRA ITA 1:41:35 1:41:01
1244 181 5168 BALDO FABRIZIO M 1986 SM35 ATLETICA TRENTO ITA 1:41:36 1:40:41
134 12 5967 LANZANI ILARIA F 1971 SF50 P.B.M. BOVISIO MASCIAGO ITA 1:41:36 1:41:19
1245 210 1381 ROSSI ANDREA M 1971 SM50 RUNCARD EPS - RUNCARD ITA 1:41:37 1:41:01
1246 211 1589 TROCCOLI VINCENZO M 1971 SM50 RUNCARD ITA 1:41:37 1:41:01
135 13 1246 LOSI STEFANIA F 1972 SF50 G.P. AVIS POL. MALAVICINA ITA 1:41:40 1:41:14
1247 212 5124 ALGAROTTI LUCA M 1972 SM50 RUNNERS BERGAMO ITA 1:41:41 1:41:28
1248 182 2932 TRENTINI ANDREA M 1988 SM35 RUNCARD ITA 1:41:42 1:40:46
136 35 2979 CONCI ANNACHIARA F 1991 SF RUNCARD ITA 1:41:42 1:40:47
1249 213 1800 DE BATTISTI RICCARDO M 1969 SM50 RUNNER VARESE ITA 1:41:42 1:41:37
1250 219 1225 MERCI SIMONE M 1980 SM40 RUNCARD ITA 1:41:42 1:41:14
137 14 4645 MORO ROMINA F 1973 SF50 MONTELLO RUNNERS CLUB ITA 1:41:42 1:40:59
1251 28 1204 PAGANI CARLO DESIDERIO M 1959 SM60 A.S.D. ATLETICA LUPATOTINA ITA 1:41:43 1:41:28
1252 238 1279 CARREGARI DAVIDE M 1975 SM45 TRAGUARDO VOLANTE RACING ITA 1:41:43 1:41:03
1253 245 3779 SINISCALCHI ALESSANDRO M 1995 SM RUNCARD ITA 1:41:44 1:41:12
1254 214 5934 PAOLINI MARCO M 1972 SM50 PODISTI CASTIGLIONESI ITA 1:41:44 1:40:56
138 15 3942 CAMELI MARIA CRISTINA F 1969 SF50 G.P. AVIS SPINETOLI PAGLIARE ITA 1:41:45 1:41:15
    1628 THOMASSON STEVE M 1980 SM40   GBR 1:41:46 1:40:46
1255 215 1070 DAIDONE GIUSEPPE M 1971 SM50 PACECO RUNNERS ITA 1:41:46 1:40:55
1256 183 4199 CAMBIUZZI MATTEO M 1987 SM35 ENERGIA FOR SPORT S.S.D. R.L. ITA 1:41:47 1:41:43
1257 239 1710 RINDONE NICOLO' M 1976 SM45 A.S.D. BARRAFRANCA RUNNING ITA 1:41:48 1:41:37
1258 240 1078 MININNI FRANCESCO M 1974 SM45 CORRERE OLTRE ASD ITA 1:41:50 1:41:03
1259 112 1350 LEGGIERI MARCO GIUSEPPE M 1968 SM55 RUNNER VARESE ITA 1:41:50 1:41:03
1260 220 4451 FORNERA ALESSANDRO M 1980 SM40 RUNNING CLUB VENEZIA A.S.D. ITA 1:41:50 1:41:10
1261 246 5354 BAGNI LORENZO M 1998 SM MODENA RUNNERS CLUB ASD ITA 1:41:50 1:41:28
1262 113 1553 ZAMPIERI MAURO M 1967 SM55 VENICEMARATHON SSD A R.L. ITA 1:41:50 1:41:10
1263 241 633 TOMASIN NICOLA M 1974 SM45 RUNCARD EPS - RUNCARD ITA 1:41:50 1:40:59
139 5 4669 FRATERNALI MARGHERITA F 1967 SF55 G.S. AVIS AIDO URBINO ITA 1:41:50 1:41:30
1264 216 1361 DE MARCHI SIMONE M 1972 SM50 PADOVA TRIATHLON E DUATHLON ITA 1:41:50 1:41:44
1265 221 1387 LAMURA FIORENZO M 1979 SM40 RUNCARD ITA 1:41:51 1:41:17
1266 222 2779 FINOTTI NICO M 1983 SM40 ASD GRUPPO PODISTI PORTO TOLLE ITA 1:41:51 1:40:51
1267 217 2346 ANSALONI DANIELE M 1972 SM50 RUNCARD EPS - UISP ITA 1:41:52 1:40:50
140 27 1515 MORRI MICHELA F 1979 SF40 RIMINI MARATHON ITA 1:41:52 1:41:13
1268 242 2164 GARCIA FELIXBERTO M 1976 SM45 RUNCARD PHI 1:41:52 1:41:02
141 16 2140 SPERANZA MONIKA F 1973 SF50 A.S.D.ARIES COMO ATHLETIC TEAM SUI 1:41:52 1:41:16
1269 184 1418 LUONGO MARCO M 1988 SM35 RUNCARD EPS - BOMBERUN ITA 1:41:53 1:41:28
1270 223 4030 VIVIAN FEDERICO M 1983 SM40 RUNCARD ITA 1:41:53 1:40:56
1271 114 5093 BRAGAGNA LUCA M 1967 SM55 ATLETICA CLARINA TRENTINO ITA 1:41:56 1:41:31
1272 29 765 RUSSONIELLO PASQUALE M 1963 SM60 SPORT RUSCHER TEAM ITA 1:41:57 1:41:13
142 27 1842 CARETTA SARA F 1987 SF35 G.P. AVIS POL. MALAVICINA ITA 1:41:57 1:41:48
1273 247 2786 VENDEMA GIANLUCA M 1994 SM RUNCARD ITA 1:41:57 1:41:44
1274 248 2012 RONDININI MARCO M 1992 SM RUNCARD ITA 1:41:58 1:40:31
1275 243 1390 MUSSONI ALESSANDRO M 1975 SM45 ASD MIRAMARE RUNNER ITA 1:41:59 1:41:53
1276 224 1237 LAZZERIN ROBERTO M 1979 SM40 RUNCARD ITA 1:42:00 1:41:10
1277 249 3800 RIVA LUCA M 1990 SM RUNCARD ITA 1:42:00 1:41:44
1278 250 2553 GIOACHIN NICOLA M 1989 SM RUNCARD ITA 1:42:00 1:40:25
1279 115 4207 MAZZALAI GIANCARLO M 1966 SM55 ATLETICA ROTALIANA ITA 1:42:01 1:41:47
143 31 1416 SCACCHI SILVIA F 1978 SF45 ASD MIRAMARE RUNNER ITA 1:42:03 1:41:44
144 36 3755 RUSU ELENA F 1990 SF RUNNING TEAM MESTRE ITA 1:42:03 1:41:54
145 37 1340 CAPPELLARI MICHELA F 1989 SF RUNCARD ITA 1:42:04 1:41:08
146 28 5161 HOELLRIGL GERTRAUD F 1980 SF40 SPORTCLUB MERANO ITA 1:42:04 1:41:09
147 32 1650 COCCA ALESSIA F 1978 SF45 NOVARA CHE CORRE ITA 1:42:04 1:41:52
1280 218 4332 GALAS ERIC M 1972 SM50 RUNCARD ITA 1:42:05 1:41:35
1281 116 646 LORENZINI STEFANO M 1965 SM55 A.S.D. ATLETICA LUPATOTINA ITA 1:42:09 1:41:49
1282 219 5365 PASOLLI CLAUDIO M 1970 SM50 RUNCARD ITA 1:42:09 1:42:01
1283 244 1681 STEFANINI ALESSIO M 1974 SM45 G.P. AVIS POL. MALAVICINA ITA 1:42:10 1:42:01
1284 117 1209 BONINI DAVIDE M 1966 SM55 P&C PODISMOECAZZEGGIO ITA 1:42:10 1:41:36
1285 185 2303 XAMO MATTEO M 1987 SM35 RUNCARD ITA 1:42:11 1:41:24
1286 251 5056 BONI MATTEO M 1990 SM G.P. LA GUGLIA SASSUOLO S.S.D. ITA 1:42:12 1:41:38
148 6 1347 BATTISTOTTI GIANNA F 1967 SF55 G.P. AVIS POL. MALAVICINA ITA 1:42:13 1:41:40
1287 252 3044 PASQUAL STEFANO M 1992 SM ATL.JESOLO TURISMO ITA 1:42:13 1:41:11
1288 225 4067 CASTAGNETTI SIMONE M 1980 SM40 ASC NEUGRIES ITA 1:42:14 1:42:09
1289 186 1176 BESSI MARCO M 1986 SM35 RUNCARD ITA 1:42:14 1:41:43
1290 118 3862 PAROLOTTO ALESSIO M 1964 SM55 RUNCARD EPS - RUNCARD ITA 1:42:15 1:41:37
1291 253 1929 IANNELLI FEDERICO M 1991 SM RUNCARD ITA 1:42:15 1:41:43
1292 245 1933 MARANI DAVIDE M 1974 SM45 A.S. GINNIC-CLUB PIACENZA ITA 1:42:16 1:41:43
1293 246 4593 BUFFAGNI ROBERTO M 1977 SM45 ASD SPORTINSIEME CASTELLARANO ITA 1:42:16 1:42:10
1294 254 4501 BOSCOLO BULEGHIN STEFANO M 1989 SM VIGILI DEL FUOCO VENEZIA ITA 1:42:16 1:42:09
1295 255 5949 MALPARTE ANDREA M 1996 SM RUNCARD ITA 1:42:17 1:41:52
1296 256 2759 MANNERING GIAN MATTEO M 1989 SM RUNCARD ITA 1:42:18 1:40:59
1297 257 3833 SANTON NICOLO' M 1992 SM RUNCARD ITA 1:42:20 1:42:13
1298 247 1668 ZARDI PAOLO M 1978 SM45 ASD RIVAROLO DEL RE ITA 1:42:21 1:41:58
1299 220 767 BALDON MICHELE M 1971 SM50 PADOVA TRIATHLON E DUATHLON ITA 1:42:21 1:41:33
1300 258 1746 RIZZATO PAOLO M 1989 SM RUNCARD ITA 1:42:22 1:42:01
1301 226 4437 PICCOLO MARCO M 1981 SM40 RUNNERS DESIO ITA 1:42:22 1:42:14
    3820 SMALIUKAS ANDRIUS M 1978 SM45   LTU 1:42:24 1:41:43
1302 221 1629 TROVATO ANDREA M 1972 SM50 RUNNER VARESE ITA 1:42:25 1:42:25
1303 227 994 PAGGIARO DARIO M 1980 SM40 VICENZA MARATHON ITA 1:42:28 1:41:54
1304 248 1397 GAMBERINI MIRCO M 1978 SM45 ATL. CIBENO ITA 1:42:29 1:42:11
149 17 1028 SCANZIANI SOFIA F 1973 SF50 ROAD RUNNERS CLUB MILANO ITA 1:42:30 1:41:50
150 28 1594 FREZZA ILARIA F 1987 SF35 MOSTRORUN A.S.D. ITA 1:42:32 1:41:51
151 29 1980 MILANOV MELANIJA F 1981 SF40 A.S.D. TEAM KM SPORT ITA 1:42:33 1:42:29
152 33 5328 BALBONI ANNA F 1974 SF45 S.G.LA PATRIA 1879 CARPI ITA 1:42:33 1:42:13
1305 259 3832 VINCO ZENO M 1990 SM RUNCARD ITA 1:42:34 1:42:16
1306 30 2079 FONTANA GRANOTTO CARLO STEFANO M 1959 SM60 ATL. INSIEME VERONA ITA 1:42:34 1:41:53
153 34 1805 BELLOTTO FULVIA CHIARA F 1978 SF45 A.S.D. PODISTICA TORINO ITA 1:42:34 1:42:21
1307 31 1349 CHECCHINATO RAFFAELLO M 1963 SM60 ATLETICA CORRIFERRARA ITA 1:42:35 1:41:48
1308 187 1346 LAUTO ALESSANDRO M 1984 SM35 C.U.S. UDINE ITA 1:42:37 1:42:12
1309 228 1199 BRACCHI FRANCESCO M 1979 SM40 RUNCARD ITA 1:42:37 1:41:50
1310 229 2015 LENTINI GIUSEPPE DANIELE M 1980 SM40 TIME FOR RUN ITA 1:42:38 1:42:12
1311 222 561 RIODA LUCA M 1972 SM50 VENEZIA RUNNERS ATL.MURANO ITA 1:42:38 1:42:14
154 7 1643 BRAMBILLA MILENA F 1968 SF55 CANTO DI CORSA ITA 1:42:39 1:42:29
1312 32 1559 AGOSTINI SERGIO M 1959 SM60 G.S. TRILACUM ITA 1:42:39 1:42:36
1313 230 1695 ARGENTIERO LUIGIPIERO M 1979 SM40 ASD RBML ITA 1:42:40 1:42:33
    1280 HäFLIGER MIKE M 1976 SM45   SUI 1:42:40 1:41:47
1314 223 1144 GALLO IGNAZIO M 1969 SM50 ATL. MALNATE ITA 1:42:43 1:42:16
1315 224 1776 GIUFFREDA ROBERTO M 1969 SM50 VIESTE RUNNERS ITA 1:42:43 1:41:44
1316 33 4261 TORTORA NICOLA M 1961 SM60 POD. OZZANESE ITA 1:42:43 1:42:02
1317 225 3856 RONCARATI ENZO M 1973 SM50 ASD POD. LIPPO CALDERARA ITA 1:42:44 1:42:30
1318 231 1227 BONETTI DEMIS M 1980 SM40 RUNCARD ITA 1:42:46 1:42:22
1319 260 788 LIBARDONI MARCO M 1991 SM RUNCARD ITA 1:42:47 1:41:51
155 38 1268 SEGLIANI ALESSIA F 1996 SF RAIN RUNNERS ITA 1:42:48 1:41:56
1320 249 1263 BELVISO GIANLUCA M 1977 SM45 RUNCARD ITA 1:42:48 1:41:56
1321 188 1846 MASSA LUKAS M 1986 SM35 RUNCARD ITA 1:42:48 1:41:46
1322 261 463 LIPPI LORENZO M 1992 SM RUNCARD ITA 1:42:50 1:42:39
1323 262 5368 EDERLE FRANCESCO M 1989 SM RUNCARD ITA 1:42:50 1:42:42
1324 226 1394 TECCHIO LIVIO M 1971 SM50 G.M. G.S. AQUILE FRIULANE ITA 1:42:50 1:42:29
1325 34 4253 BOLLINI ANDREA M 1962 SM60 POD. OZZANESE ITA 1:42:51 1:42:10
1326 189 3746 CANUTO ALESSANDRO M 1984 SM35 RUNNING TEAM MESTRE ITA 1:42:51 1:42:42
156 18 947 GUIZZO TANIA F 1971 SF50 GRUPPO ATLETICA VEDELAGO ITA 1:42:51 1:42:32
1327 250 1329 ARMIGLIATO ANDREA M 1976 SM45 MARATHON LEGNAGO ITA 1:42:51 1:41:56
1328 227 1781 NADAL CARLO M 1969 SM50 CIMAVILLA RUNNING TEAM ITA 1:42:53 1:42:41
1329 190 722 TRIPOLINO FRANCESCO M 1985 SM35 RUNCARD ITA 1:42:54 1:42:04
1330 251 1015 LAVARDA DANIELE M 1978 SM45 ASD NICO RUNNERS ITA 1:42:54 1:42:27
1331 228 4400 RAVAGLI FRANCO M 1973 SM50 RUNCARD ITA 1:42:55 1:41:58
157 19 1678 MARTINI SABRINA F 1971 SF50 TRENTINO RUNNING TEAM ITA 1:42:55 1:42:55
1332 35 690 ROSCIO GIUSEPPINO M 1960 SM60 ASD TEAM PERETTI ITA 1:42:56 1:42:16
1333 229 4574 GIORGIANO FABRIZIO M 1973 SM50 RUNCARD ITA 1:42:56 1:42:10
1334 119 1574 TREVISAN EMILIO M 1966 SM55 G.S. CASTELLANIA - GOZZANO ITA 1:42:56 1:42:47
158 35 1050 PENZO LUISA F 1978 SF45 FUMANE TRIATHLON ITA 1:42:57 1:42:05
1335 230 3207 ZORZONI DAVIDE M 1970 SM50 BOSCAINI RUNNERS ITA 1:42:58 1:42:15
    1619 ZELENAK PETER M 1972 SM50   SVK 1:42:58 1:42:34
1336 191 629 SILVESTRO VINCENZO M 1985 SM35 G.S.D. 5 TORRI  FIAMME CREMISI ITA 1:42:58 1:42:39
1337 231 1440 TOMASINI ANDREA M 1973 SM50 LA FULMINEA RUNNING TEAM SINCE ITA 1:42:59 1:42:50
1338 252 918 DI FELICE RICCARDO M 1977 SM45 GSBR ITA 1:42:59 1:42:01
159 29 2858 BENETTI ELENA F 1986 SF35 RUNCARD ITA 1:42:59 1:42:03
1339 253 4152 BONACCINI STEFANO M 1974 SM45 RUNCARD EPS - CAMPOGALLIANO CIRCOLO POL. ITA 1:43:02 1:42:07
1340 254 2113 CATUCCI DANIELE M 1978 SM45 ZEROTRIUNO TRIATHLON TEAM COMO ITA 1:43:04 1:42:14
1341 120 448 FUSARO ALFONSO M 1966 SM55 PARMARATHON ASD ITA 1:43:04 1:42:14
    1752 PIRLA SANVISEN EVA F 1972 SF50   ESP 1:43:05 1:42:30
1342 263 5955 DE GRANDIS LEONARDO M 2000 SM RUNCARD ITA 1:43:05 1:42:29
1343 10 1601 GRAMMATICO ANTONINO M 1958 SM65 ATL. MALNATE ITA 1:43:06 1:43:03
1344 255 1024 FELISARI RICCARDO M 1975 SM45 G.P. AVIS POL. MALAVICINA ITA 1:43:08 1:42:21
1345 232 4444 CHIGIONI ANDREA M 1983 SM40 RUNCARD ITA 1:43:09 1:42:44
160 8 1893 GIURISSA LORENA F 1964 SF55 G.S.D.  VAL ROSANDRA TRIESTE ITA 1:43:10 1:42:58
1346 121 1357 FAVORIDO ANDREA M 1967 SM55 RUNCARD ITA 1:43:10 1:42:10
1347 233 1249 NOBIS RICCARDO M 1983 SM40 G.P. AVIS POL. MALAVICINA ITA 1:43:10 1:43:00
1348 256 2318 LARGAIOLLI MAURO M 1976 SM45 RUNCARD ITA 1:43:11 1:41:54
1349 232 1102 ZALDINI MARCO M 1973 SM50 G.P. AVIS SUZZARA ITA 1:43:14 1:42:32
1350 234 1265 BULLETTI ALESSIO M 1979 SM40 ASD ATLETICA  PRATO ITA 1:43:15 1:42:28
1351 192 2367 DEIANA GIANCARLO M 1988 SM35 PODISTI CORDENONS ITA 1:43:16 1:43:00
161 30 1203 AVITABILE MARIANTONIETTA F 1986 SF35 PODISTI CORDENONS ITA 1:43:16 1:43:00
1352 257 1245 MARCONI ANDREA M 1975 SM45 BIKE & RUN ITA 1:43:16 1:42:25
1353 36 1683 SALA PAOLO M 1962 SM60 A.S. CANTURINA POL. S.MARCO ITA 1:43:19 1:43:12
1354 235 1984 MENEGATTI ALBERTO M 1981 SM40 VICENZA MARATHON ITA 1:43:20 1:43:06
162 9 1345 VILLA MARIA ROSA F 1967 SF55 AZZURRA GARBAGNATE M.SE ITA 1:43:21 1:42:48
1355 264 4184 MASSARI SIMONE M 1991 SM BUSHIDO TRI&RUN ITA 1:43:21 1:42:30
1356 193 2682 ZANCHETTA MARCO M 1984 SM35 RUNCARD ITA 1:43:21 1:42:32
1357 233 1032 LUZI CRIVELLINI ROBERTO M 1971 SM50 RUNCARD ITA 1:43:23 1:42:45
1358 122 1113 TONCELLI ANDREA M 1967 SM55 RUNCARD ITA 1:43:24 1:42:50
1359 265 69 MANTOVANI ANDREA M 1995 SM RUNCARD ITA 1:43:24 1:43:15
1360 236 1894 MAGATON GIULIO M 1979 SM40 RYDE YOUR DREAMS TREVISO ITA 1:43:25 1:43:22
1361 123 4460 METTIFOGO MASSIMO M 1968 SM55 RUNNERS TEAM ZANE' ITA 1:43:25 1:42:34
1362 234 1812 CARRARETTO WALTER M 1973 SM50 RUNCARD EPS - RYDE YOUR DREAMS TREVISO ITA 1:43:25 1:43:22
1363 124 1426 GALIOTTO PAOLO M 1965 SM55 PODISTICA CORREGGIO ITA 1:43:25 1:43:14
1364 258 845 ROSSI PINO M 1976 SM45 A.S.D. PODISTICA APRILIA ITA 1:43:26 1:43:04
1365 125 2272 FURLAN GIANCARLO M 1966 SM55 ATLETICA  VILLORBA ITA 1:43:26 1:42:33
1366 266 2091 ORSINI FIORTINI ALEX M 1990 SM RUNCARD ITA 1:43:27 1:42:33
1367 259 5613 BARBERA IVANO M 1978 SM45 9,92 RUNNING ASD ITA 1:43:28 1:42:48
1368 237 2066 RENSI GIACOMO M 1979 SM40 RUNCARD ITA 1:43:28 1:42:09
1369 194 658 SACCOZZA GIANMATTIA M 1987 SM35 VICENZA MARATHON ITA 1:43:29 1:42:58
1370 235 1503 BALDI STEFANO M 1971 SM50 IMPOSSIBLE226 TRIATHLON FORLI ITA 1:43:31 1:43:21
1371 238 985 POMPONIO MATTEO M 1982 SM40 VICENZA MARATHON ITA 1:43:31 1:42:49
1372 236 3825 CARBOLLI GIANPIETRO M 1971 SM50 ATL. CASTEL ROZZONE ITA 1:43:32 1:43:20
1373 239 1134 RANZATO STEFANO M 1979 SM40 RUNCARD EPS - RUNCARD ITA 1:43:32 1:42:44
1374 260 1606 PICCOLI ANDREA M 1974 SM45 RUNCARD ITA 1:43:33 1:43:08
1375 267 1972 LAI SALVATORE M 1991 SM A.S.D. TEAM KM SPORT ITA 1:43:34 1:43:24
163 39 1449 MANGANELLO GIULIA F 1991 SF A.S.D. TEAM KM SPORT ITA 1:43:35 1:43:11
164 20 1895 NOVEL MARINA F 1972 SF50 G.S.D.  VAL ROSANDRA TRIESTE ITA 1:43:35 1:43:24
1376 195 2294 KÖNIG GEORGE M 1986 SM35 RUNCARD GER 1:43:36 1:42:34
1377 237 1061 BORGHI IVAN M 1971 SM50 RUNCARD EPS - ASD INTERFORZE MODENA ITA 1:43:39 1:43:19
165 30 1669 NELBA CHIARA F 1980 SF40 ATL. MALNATE ITA 1:43:39 1:43:28
1378 196 1607 CONTALDO ALESSANDRO M 1988 SM35 RUNCARD ITA 1:43:41 1:43:21
166 31 5372 BUSCARDO TIZIANA F 1982 SF40 VRM TEAM ASD ITA 1:43:42 1:43:17
1379 238 1537 GUALTIERI CHRISTIAN M 1972 SM50 ROMAGNOLA TRIATHLON ITA 1:43:42 1:43:31
1380 197 2670 NADALI ANDREA M 1988 SM35 ASD ATLETICA CEREA ITA 1:43:42 1:42:36
1381 239 2049 FRANCIA MARCELLO M 1969 SM50 RUNCARD ITA 1:43:43 1:42:59
1382 240 1622 CARLETTI MAURO M 1972 SM50 A.S.D. TEAM KM SPORT ITA 1:43:44 1:43:25
1383 268 5951 PIZZATO GIOVANNI M 1990 SM RUNNERS TEAM ZANE' ITA 1:43:44 1:43:38
1384 126 2287 ERBISTI DAVIDE M 1968 SM55 RUNCARD ITA 1:43:44 1:43:28
1385 241 4143 MINGRONE LUCA FRANCESCO M 1971 SM50 ASD FILMAR RUNNING ITA 1:43:44 1:43:30
    1513 CLAUDE RUTISHAUSER M 1960 SM60   SUI 1:43:45 1:43:33
1386 269 4725 PAGANELLO MARCO M 1994 SM RUNCARD ITA 1:43:45 1:42:43
1387 270 1693 FANTUZZI MARCELLO M 1995 SM RUNCARD ITA 1:43:47 1:43:27
1388 240 1269 GUERRA PAOLO M 1980 SM40 RUNCARD ITA 1:43:47 1:43:13
1389 271 4154 DE CAO SEBASTIANO M 1990 SM A.S. DILETTANTISTICA SESSANTAL ITA 1:43:47 1:43:11
1390 261 1635 SALVADORI DANIELE M 1977 SM45 RUNCARD ITA 1:43:48 1:43:14
1391 127 1680 CO' MASSIMO M 1966 SM55 G.S. CARLO BUTTARELLI ITA 1:43:48 1:43:00
1392 242 1940 BORDONALI MASSIMO M 1973 SM50 ASD TRI AIRONI ITA 1:43:48 1:43:01
1393 272 1450 CALOI RICCARDO M 1991 SM A.S.D. TEAM KM SPORT ITA 1:43:48 1:43:22
167 40 2257 LENZI MARTA F 1992 SF LA BOTTEGA CASINALBO ASD ITA 1:43:48 1:43:01
1394 273 4181 MAZZUCCHI SIMONE M 2000 SM ATLETICA TEAM LOPPIO ITA 1:43:49 1:43:16
168 41 2230 ZULIAN SAMANTHA F 1989 SF LIGER TEAM RUNNING ITA 1:43:50 1:42:52
1395 128 5057 INGLESE LUCA M 1965 SM55 ASS.SPORT.DILETTANT.DRIBBLING ITA 1:43:51 1:43:09
169 42 1128 TELA ALESSIA F 1992 SF TRENTINO RUNNING TEAM ITA 1:43:52 1:43:16
1396 274 1229 MARIANI LUCA M 1992 SM RUNCARD ITA 1:43:52 1:43:17
170 36 3036 LEPRI DANIELA F 1975 SF45 RUNCARD ITA 1:43:52 1:42:55
171 10 4292 MARTINELLI PATRIZIA F 1964 SF55 POD. FORMIGINESE ITA 1:43:52 1:42:51
172 11 1582 STEDILE KATIA F 1965 SF55 U.S. QUERCIA TRENTINGRANA ITA 1:43:53 1:43:47
1397 241 3924 CADIOLI FRANCESCO M 1979 SM40 RUNCARD ITA 1:43:53 1:43:28
173 12 1555 BIASISSI MAURA F 1968 SF55 VENICEMARATHON SSD A R.L. ITA 1:43:53 1:43:50
1398 37 1258 TRACOLLI EUGENIO M 1962 SM60 GR. ESCURS. FALCHI OLGINATESI ITA 1:43:54 1:43:28
1399 275 1997 CHINAGLIA RICCARDO M 1995 SM RAIN RUNNERS ITA 1:43:55 1:43:27
1400 242 4710 TURRI FABRIZIO M 1982 SM40 RUNCARD ITA 1:43:55 1:43:39
1401 276 4504 PASSAMONTI SIMONE M 1990 SM A. ATL. PORTO S. ELPIDIO ITA 1:43:55 1:43:16
1402 38 1630 POLI FLAVIO M 1962 SM60 RUNCARD EPS - RUNCARD ITA 1:43:55 1:43:43
1403 243 4610 GRISO STEFANO M 1970 SM50 RUNCARD ITA 1:43:55 1:43:36
1404 277 5122 FERRARI STEFANO M 1990 SM ASD SPORTINSIEME CASTELLARANO ITA 1:43:55 1:43:44
1405 243 1143 UBERTI FOPPA MATTEO M 1980 SM40 RUNCARD ITA 1:43:55 1:43:25
1406 262 404 MANTOVANI DARIO M 1977 SM45 RUNCARD ITA 1:43:56 1:43:16
1407 129 5378 DREONI GIAN LUCA M 1966 SM55 RUNCARD ITA 1:43:56 1:43:42
174 43 1611 CIOETTO LAURA F 1993 SF RUNCARD ITA 1:43:56 1:43:48
1408 278 5080 ROSSETTO MATTIA M 1991 SM A.S.D. TEAM KM SPORT ITA 1:43:56 1:43:18
1409 279 5336 MASONI LUCA M 1995 SM RUNCARD ITA 1:43:57 1:43:46
1410 130 2055 OSSO MARCELLO M 1968 SM55 A. ATL. PORTO S. ELPIDIO ITA 1:43:57 1:42:43
175 37 1976 RAMPULLA JANA F 1977 SF45 A.S.D. TEAM KM SPORT ITA 1:43:58 1:43:54
    844 AGUILAR SALAMANCA KEVIN M 1993 SM   ESP 1:43:58 1:43:29
1411 198 5573 GROFF DANIEL M 1988 SM35 RUNCARD ITA 1:43:58 1:43:09
    1536 IRIZAR KAREN F 2002 PF   ESP 1:43:58 1:43:22
1412 199 5325 CARLESSO ANDREA M 1984 SM35 RUNCARD ITA 1:43:58 1:43:52
1413 280 1334 FAGGIAN FILIPPO M 1990 SM RUNCARD EPS - RUNCARD ITA 1:43:58 1:43:05
1414 200 325 TAVARES DE SOUZA PAULO M 1985 SM35 RUNCARD BRA 1:43:59 1:43:20
1415 131 1151 CAPONIGRO ORLANDO M 1968 SM55 SALERNO MARATHON ITA 1:44:00 1:43:21
1416 263 2033 DORIGUZZI BREATTA ROBERTO M 1974 SM45 A.S.D. PODISTICA TORINO ITA 1:44:00 1:43:30
1417 244 1526 ILLARI LUCA M 1983 SM40 RUNCARD ITA 1:44:01 1:43:54
176 32 1920 COGONI MARIA ELENA F 1979 SF40 ASD ATLETICA SINNAI ITA 1:44:02 1:43:30
1418 245 1767 CANEPA ALESSIO M 1983 SM40 RUNCARD ITA 1:44:04 1:43:17
1419 244 1465 AGOSTINELLI ALBERTO M 1972 SM50 A.S.D. TEAM KM SPORT ITA 1:44:04 1:43:48
1420 201 1621 CHIARO ALEX M 1988 SM35 RUNCARD ITA 1:44:04 1:44:00
1421 264 2298 MARANI LUCA M 1978 SM45 RUNCARD ITA 1:44:05 1:43:26
1422 265 2387 BARBIERO LEONARDO M 1978 SM45 RUNCARD ITA 1:44:08 1:43:39
1423 266 1441 BUSIN GIOVANNI M 1974 SM45 LA FULMINEA RUNNING TEAM SINCE ITA 1:44:08 1:43:21
1424 246 2722 ACERBIS ALBERTO M 1981 SM40 G.S. OREZZO ITA 1:44:08 1:43:16
1425 245 983 GARIGGIO ALESSANDRO M 1973 SM50 A.S.D. TEAM KM SPORT ITA 1:44:09 1:43:12
1426 246 1881 IANNIELLO NICOLA M 1969 SM50 G.M. G.S. AQUILE FRIULANE ITA 1:44:10 1:43:49
1427 132 1858 VANDELLI LUIGI M 1964 SM55 ASD POD. LIPPO CALDERARA ITA 1:44:10 1:43:59
1428 247 1848 SACCARDO WALTER M 1969 SM50 LA FULMINEA RUNNING TEAM SINCE ITA 1:44:12 1:44:04
177 13 1801 BUSA MARIA F 1964 SF55 VICENZA MARATHON ITA 1:44:13 1:44:10
1429 247 2256 MANZINI RICCARDO M 1982 SM40 A.S.D. ATLETICA LUPATOTINA ITA 1:44:15 1:43:51
1430 248 402 DAVIDE IVAN M 1970 SM50 RUN & SMILE ASD ITA 1:44:16 1:43:52
178 38 1330 BARBIERI SILVIA F 1974 SF45 RUN & SMILE ASD ITA 1:44:16 1:43:52
1431 248 1625 MASIERO CRISTIAN M 1979 SM40 RUNCARD ITA 1:44:16 1:43:48
1432 249 1797 LONARDI ANDREA MARIA M 1980 SM40 RUNCARD ITA 1:44:18 1:43:56
1433 3 1609 BERTOLINI DANILO M 1953 SM70 ATL. VERBANO ITA 1:44:18 1:44:15
1434 202 1152 FRISONI DAVIDE M 1987 SM35 RUNCARD ITA 1:44:19 1:43:49
1435 11 873 MICHELOTTI MAURO M 1957 SM65 VRM TEAM ASD ITA 1:44:20 1:43:35
1436 203 2472 AMBROSI MARCO M 1986 SM35 RUNCARD ITA 1:44:20 1:43:58
1437 250 2204 BERNASCONI LUCA M 1981 SM40 RUNCARD ITA 1:44:20 1:43:56
1438 267 5158 MARCHI SIMONE M 1975 SM45 6XCORRERE ITA 1:44:21 1:44:03
179 39 1409 ZANETTE KATTY F 1978 SF45 SCUOLA DI MARATONA  VITTORIO V ITA 1:44:22 1:43:24
1439 249 818 ROSSO FIORENZO M 1971 SM50 G.M. G.S. AQUILE FRIULANE ITA 1:44:22 1:43:59
1440 281 4117 MORFEA GIUSEPPE M 1989 SM RUNCARD ITA 1:44:22 1:43:24
180 33 2458 ORVISO SANCHEZ TANIA F 1981 SF40 MARATON RIOJA ESP 1:44:23 1:43:23
1441 268 1573 FAVARO MASSIMO M 1978 SM45 SCUOLA ITALIANA RUNNING ITA 1:44:24 1:44:07
1442 282 1191 TOMMASI NICOLO' M 1991 SM A.S.D. TEAM KM SPORT ITA 1:44:25 1:43:25
1443 133 1256 PAGANIN GIAN PAOLO M 1964 SM55 ASD GRUPPO PODISTI PORTO TOLLE ITA 1:44:26 1:43:47
1444 134 4570 GOZIO RENATO M 1964 SM55 ROSA RUNNING TEAM ITA 1:44:27 1:43:53
1445 135 1741 PERTILE IVANO M 1964 SM55 ASD BARIZZA SPORT ITA 1:44:27 1:44:19
1446 251 4329 DI CAPRIO ALAN M 1982 SM40 G.P. AVIS POL. MALAVICINA ITA 1:44:28 1:43:33
1447 204 609 TOGNON ANDREA M 1984 SM35 CORPOLIBERO ATHLETICS TEAM ITA 1:44:28 1:43:11
1448 250 4577 MIRANDOLA CLAUDIO M 1969 SM50 STIVO RUNNING A.S.D. ITA 1:44:30 1:43:56
1449 251 1595 BALDI ANDREA M 1970 SM50 ASSI GIGLIO ROSSO FIRENZE ITA 1:44:30 1:44:18
1450 283 557 TOMASETTO CRISTIAN M 1990 SM RUNCARD ITA 1:44:30 1:43:42
1451 252 727 D'IGNOTI PARENTI MATTEO M 1983 SM40 A.S.D.ARIES COMO ATHLETIC TEAM ITA 1:44:31 1:44:04
1452 284 5545 GALLO FRANCESCO ENNIO M 1998 SM G.A.A.C. 2007 VERONAMARATHON ITA 1:44:31 1:42:59
181 31 995 MARTINATO GIADA F 1985 SF35 VICENZA MARATHON ITA 1:44:32 1:43:44
182 40 2048 ANTONACI SIMONA F 1976 SF45 SPORTS CLUB MELEGNANO ITA 1:44:32 1:43:37
1453 252 1259 PRETTI SIMONE M 1972 SM50 G.P. AVIS PAVIA ITA 1:44:32 1:43:25
1454 205 1764 BUSNARDO MAURO M 1987 SM35 EMME RUNNING TEAM ITA 1:44:33 1:44:09
1455 253 2002 MANFRIN FEDERICO M 1971 SM50 A.S.D. TEAM KM SPORT ITA 1:44:33 1:44:17
1456 253 705 CIUCCI MONTEFORTE MICHELE M 1979 SM40 G.S. ATLETICA 75 CATTOLICA ITA 1:44:33 1:43:54
1457 12 4531 BASSANESI ANDREA M 1958 SM65 G.S. ZELOFORAMAGNO ITA 1:44:34 1:44:24
1458 254 2268 ZENATTI LUCA M 1982 SM40 RUNCARD ITA 1:44:34 1:44:02
1459 254 1600 DALL'OMO EDGARDO M 1970 SM50 ATL. INSIEME VERONA ITA 1:44:34 1:44:23
1460 285 2077 GIRARDI MARTINO M 1992 SM RUNCARD Trail - RUNCARD ITA 1:44:35 1:43:27
1461 269 1195 LOVATO FEDERICO M 1977 SM45 RUNCARD ITA 1:44:36 1:44:03
1462 270 961 GRIECO MARCO M 1977 SM45 RUNNING TEAM MESTRE ITA 1:44:36 1:44:24
1463 206 3988 MORINI STEFANO M 1987 SM35 RUNCARD ITA 1:44:36 1:43:55
1464 136 4704 BRUTTI LUCA M 1965 SM55 G.A.A.C. 2007 VERONAMARATHON ITA 1:44:37 1:44:15
1465 255 1542 DI FEDERICO PIERPAOLO M 1972 SM50 ENERGIA FOR SPORT S.S.D. R.L. ITA 1:44:37 1:44:22
1466 255 976 BRUSCO STEFANO M 1980 SM40 ATLETICA TEAM LOPPIO ITA 1:44:37 1:43:51
1467 256 5512 FONTANA NICOLA M 1973 SM50 RUNAWAY MILANO A.S.D. SUI 1:44:38 1:43:19
1468 271 1524 SERUSI MARCO M 1976 SM45 RUNCARD ITA 1:44:39 1:44:10
183 41 1971 BARTOLACCI SAMUELA F 1975 SF45 VICENZA MARATHON ITA 1:44:39 1:44:26
184 32 1498 FRANCESCUTTO LAURA F 1984 SF35 RUNCARD ITA 1:44:39 1:44:18
1469 207 2099 GOVONI MARCO M 1985 SM35 RUNCARD ITA 1:44:40 1:44:26
1470 137 852 DE ANTONI ALBERTO M 1966 SM55 RUNCARD ITA 1:44:41 1:43:51
1471 256 1277 BURATTO MORRIS M 1980 SM40 G.A.A.C. 2007 VERONAMARATHON ITA 1:44:42 1:44:15
185 34 1757 GRISO ELISA F 1979 SF40 WOMAN TRIATHLON ITALIA A.S.D. ITA 1:44:44 1:44:24
1472 138 5579 LANFREDI MARCO M 1968 SM55 SPARTACUS A.S.D. ITA 1:44:44 1:43:10
1473 272 1255 BETTIOL GRAZIANO M 1975 SM45 ATL.MONTEBELLUNA ITA 1:44:45 1:43:46
1474 286 2668 CASA ALESSANDRO M 1991 SM RUNCARD ITA 1:44:45 1:43:18
1475 273 1789 CASTAGNETI MARCO M 1977 SM45 ATLETICA FRIGNANO PAVULLO ASD ITA 1:44:45 1:44:33
1476 274 4293 CAPPELLI STEFANO M 1974 SM45 RUNCARD EPS - SPORTING CLUB SASSUOLO ITA 1:44:47 1:43:55
1477 1 4303 - - M 2023 -   ITA 1:44:47 1:43:54
1478 287 1953 POZZA STEFANO M 1990 SM A.S.D. TEAM KM SPORT ITA 1:44:48 1:44:29
186 44 1439 GOSTNER SANDRA F 1998 SF RUNCARD ITA 1:44:48 1:44:41
1479 275 1271 LUCA SIMIONATO M 1976 SM45 RUNCARD ITA 1:44:49 1:44:06
1480 39 1564 BARCA SALVATORE M 1963 SM60 A.S.D. CENTRO FITNESS MONTELLO ITA 1:44:49 1:44:42
    2271 YU MARIA F 1981 SF40   CAN 1:44:50 1:43:50
1481 288 1379 MASON GIANLUCA M 1990 SM RUNCARD ITA 1:44:50 1:44:46
1482 257 5310 DI BELLA DAVIDE M 1973 SM50 RUNCARD EPS - RUNCARD ITA 1:44:53 1:44:02
1483 139 4707 NAPOLI GIUSEPPE M 1967 SM55 RUNCARD ITA 1:44:53 1:44:45
1484 258 1906 BUDASZ TOMASZ M 1972 SM50 RUNCARD POL 1:44:53 1:44:20
187 14 5597 BOTTAZZI CRISTINA F 1965 SF55 VICENZA RUNNERS ITA 1:44:54 1:43:40
1485 40 5359 MACARIO RUGGERO M 1959 SM60 CORRINTIME ITA 1:44:55 1:44:32
1486 140 1822 GRECO CARMELO M 1965 SM55 TEKASKI  ITA 1:44:56 1:44:42
1487 276 1421 SELVAGGI FABIO M 1977 SM45 PASSO CAPPONI ASD ITA 1:44:56 1:43:49
1488 141 3836 OLTRAMARI MARCO M 1967 SM55 A.S.D. TEAM KM SPORT ITA 1:44:56 1:44:51
1489 142 1003 RHO ROBERTO M 1964 SM55 G.P. CASALESE ITA 1:44:57 1:43:57
1490 289 4597 CITTON NICHOLAS M 1993 SM EMME RUNNING TEAM ITA 1:44:58 1:44:13
1491 208 4269 LAMALFA SALVATORE M 1985 SM35 POD. OZZANESE ITA 1:45:00 1:44:18
1492 277 1820 BENETTI ANDREA M 1974 SM45 RUNCARD ITA 1:45:00 1:44:51
    2058 SCHADOW LAURA F 1986 SF35 RUNCARD GER 1:45:03 1:44:26
188 35 2848 AVIGNI SARA F 1979 SF40 MARATHON LEGNAGO ITA 1:45:05 1:44:39
    1404 IMRE MAGYAR M 1966 SM55   HUN 1:45:05 1:44:42
189 45 1420 ZINI MARIKA F 1990 SF ATLETICA BLIZZARD ITA 1:45:05 1:44:58
1493 278 5568 CIAMBOTTINI MARCO M 1974 SM45 ASD PODISTICA LINO SPAGNOLI ITA 1:45:06 1:43:34
190 42 2017 MEINERO BARBARA F 1974 SF45 ATLETICA CAIRO ITA 1:45:07 1:44:36
    2275 LANGBEHN KATHRYN F 1976 SF45   USA 1:45:07 1:44:08
191 21 1636 DAVI MARA F 1969 SF50 TRENTINO RUNNING TEAM ITA 1:45:08 1:44:40
1494 290 5940 BAMPA MICHELE M 1991 SM BLACK WARRIORS ASD ITA 1:45:10 1:44:58
1495 259 2128 BUONOCORE GIOVANNI M 1969 SM50 A.S.D. GO RUNNING ITA 1:45:11 1:44:17
192 33 1911 DOMBEK DZIONEK ANNA F 1986 SF35 RUNCARD POL 1:45:12 1:44:52
1496 41 4342 NICCOLAI LUCIANO M 1959 SM60 I GHIBELLINI GP MASSAECOZZILE ITA 1:45:12 1:44:28
1497 257 2202 SEGHEZZI ALESSANDRO M 1980 SM40 RUNCARD ITA 1:45:12 1:44:28
1498 143 1605 BISI PAOLO M 1965 SM55 G.P. ARCI GOODWIN ITA 1:45:12 1:44:57
193 34 2089 CAMILLO ELENA F 1984 SF35 RUN RAN RUN ASD ITA 1:45:13 1:44:52
194 46 708 VITELLOZZI MARGHERITA F 1989 SF A.S.D. TEAM KM SPORT ITA 1:45:14 1:44:56
1499 144 2186 CANEO VITTORIO M 1966 SM55 RUNCARD EPS - RUNCARD ITA 1:45:14 1:44:31
1500 279 5079 ZENDRINI DENIS M 1978 SM45 A.S.D. TEAM KM SPORT ITA 1:45:14 1:44:56
195 47 1960 CESTARO GIULIA F 1991 SF A.S.D. TEAM KM SPORT ITA 1:45:14 1:44:56
1501 260 4493 DONELLI CARLO M 1970 SM50 PODISTICA CORREGGIO ITA 1:45:15 1:44:24
1502 145 5078 MAZZANTI STEFANO M 1968 SM55 A.S.D. TEAM KM SPORT ITA 1:45:15 1:44:48
1503 146 1747 CAPODIVACCA PAOLO M 1966 SM55 ATL. MALNATE ITA 1:45:16 1:45:05
1504 261 1044 BLASI SIMONE M 1972 SM50 DK RUNNERS MILANO ITA 1:45:17 1:44:55
1505 280 1778 PENNO ROBERTO M 1975 SM45 SAI FRECCE BIANCHE TRIATHLON ITA 1:45:18 1:45:05
1506 147 1756 GIACOMETTI ANDREA M 1965 SM55 ASSOCIAZIONE STRAVERONA ASD ITA 1:45:19 1:45:00
1507 281 2074 ROSSI EMANUELE M 1976 SM45 POL.VA GIUDICARIE ESTERIORI ITA 1:45:19 1:44:14
1508 262 1238 SOFFIANTINI PAOLO M 1970 SM50 RUNCARD ITA 1:45:19 1:44:38
1509 258 1026 BELLINI STEFANO M 1983 SM40 ASD ATLETICA CEREA ITA 1:45:21 1:44:54
1510 282 1140 BOSCARO ALESSANDRO M 1978 SM45 ASD ATLETICA CEREA ITA 1:45:21 1:44:54
196 15 1275 ROSSI NICOLETTA F 1965 SF55 AMATORI ATL.CHIRIGNAGO ITA 1:45:22 1:44:43
1511 148 1385 ROSSI GABRIELE M 1966 SM55 RIMINI MARATHON ITA 1:45:23 1:45:20
197 35 2171 FERMAN ANNA F 1984 SF35 MOSTRORUN A.S.D. ITA 1:45:24 1:43:50
    2533 CSOMóS GABRIEL M 1969 SM50   SVK 1:45:25 1:43:41
198 1 1572 TIZZI VALENTINA F 2001 PF RUNCARD ITA 1:45:25 1:44:44
1512 291 1571 SANGERMANO GABRIELE M 2000 SM RUNCARD ITA 1:45:25 1:44:44
1513 263 4532 MAGNATI FRANCESCO M 1970 SM50 RUNCARD EPS - PACER GLI ORIGINALI ITA 1:45:26 1:45:18
1514 292 2210 SPINA ALESSANDRO M 1991 SM POL. PORTA SARAGOZZA ITA 1:45:27 1:44:14
1515 42 4533 URSO VINCENZO M 1960 SM60 G.A.P. SARONNO ITA 1:45:27 1:45:15
199 36 2702 GABRIELLI MANUELA F 1979 SF40 TRIIRON ITA 1:45:27 1:45:16
1516 4 2448 CAPUZZO ENRICO M 1953 SM70 G.P. AVIS POL. MALAVICINA ITA 1:45:27 1:45:15
1517 264 1568 GRADARA PIETRO M 1971 SM50 ASD MIRAMARE RUNNER ITA 1:45:27 1:44:50
1518 43 2170 TOFFOLETTI GIACOMO M 1963 SM60 MOSTRORUN A.S.D. ITA 1:45:29 1:43:54
1519 265 2188 BAUSONE DAVIDE M 1970 SM50 0131RUN OF MADE A.S.D. ITA 1:45:29 1:45:04
200 48 4137 TOMMASINI GIULIA F 1989 SF RUNCARD ITA 1:45:29 1:45:01
1520 209 4123 FANTON MIRCO M 1986 SM35 RUNCARD ITA 1:45:29 1:45:01
    2143 BESSON KARL M 1959 SM60 SPORT RUSCHER TEAM GER 1:45:32 1:45:18
1521 259 1988 SIMONINI LUCA M 1983 SM40 G.S. CHIURO ITA 1:45:33 1:45:28
1522 149 360 OREFICE MICHELE M 1964 SM55 ASD I PODISTI DI NEMO ITA 1:45:34 1:44:49
1523 150 1753 TONOLI ENRICO M 1968 SM55 RUNCARD ITA 1:45:35 1:45:32
201 43 1755 BORSANI VALENTINA F 1974 SF45 AZZURRA GARBAGNATE M.SE ITA 1:45:35 1:45:23
1524 266 1460 BISSOLI FABIO M 1969 SM50 A.S.D. TEAM KM SPORT ITA 1:45:36 1:45:19
1525 267 5320 NEGRI GIOVANNI M 1971 SM50 A.S.D. TEAM KM SPORT ITA 1:45:37 1:45:29
1526 283 2080 GHILOTTI MARCO M 1978 SM45 RUNCARD ITA 1:45:37 1:44:52
1527 13 1518 COMINI FRANCO M 1954 SM65 ATL. BANCOLE ITA 1:45:38 1:45:30
1528 268 1377 REGGIANI CARLO M 1969 SM50 G.S.D. MOMBOCAR ITA 1:45:38 1:45:26
1529 151 4510 VERNESONI GERMANO M 1968 SM55 U.S. MONTE BALDO ITA 1:45:39 1:45:08
1530 260 5509 MICHELUCCI LORENZO M 1981 SM40 MONTECATINI MARATHON ASD ITA 1:45:39 1:45:14
1531 152 4534 POLICHETTI LUIGI M 1965 SM55 SALERNO MARATHON ITA 1:45:41 1:45:32
1532 153 1770 BEAZELEY CHRIS M 1966 SM55 SPRINGFIELD STRIDERS GBR 1:45:42 1:45:10
1533 284 1525 SANNICOLO' FABRIZIO M 1975 SM45 TRENTINO RUNNING TEAM ITA 1:45:43 1:45:38
1534 261 5592 ADAMOLI MARCO M 1980 SM40 TRIATHLON & TRAINING SSD A RL ITA 1:45:44 1:44:17
1535 154 963 CARLOTTO RICCARDO M 1964 SM55 RUNNING TEAM MESTRE ITA 1:45:45 1:45:15
202 22 5593 DI BITONTO MONICA F 1970 SF50 LA BOTTEGA CASINALBO ASD ITA 1:45:45 1:45:02
1536 155 1708 BAIETTA MASSIMO M 1966 SM55 RUNCARD ITA 1:45:46 1:45:23
1537 44 939 KONDRUK VALERIY M 1963 SM60 RUNCARD UKR 1:45:46 1:45:03
1538 45 1567 MANCIAVILLANO EMANUELE M 1960 SM60 ATL. MALNATE ITA 1:45:46 1:45:41
1539 210 2014 LUNARI EMANUELE M 1985 SM35 RUNCARD ITA 1:45:48 1:45:00
1540 285 2020 SCARPI GIANLUCA M 1974 SM45 ASD VENEZIA TRIATHLON ITA 1:45:50 1:44:41
1541 269 1267 TRAPLETTI ROBERTO M 1973 SM50 ASD RUNNERS VALCALEPIO ITA 1:45:51 1:44:46
203 49 3288 MARASTONI ELENA F 1996 SF RUNCARD ITA 1:45:52 1:44:44
    1992 KASOVERSKIJ SERGEI M 1983 SM40   BLR 1:45:52 1:45:40
1542 286 620 LOMBARDO PONTILLO VITTORIO M 1975 SM45 ASD POD. LIPPO CALDERARA ITA 1:45:53 1:45:14
1543 270 3736 MARCHIORATO NICOLA M 1969 SM50 RUNCARD ITA 1:45:53 1:45:44
1544 156 826 PANINI GIANCARLO M 1967 SM55 RUNCARD EPS - RUNCARD ITA 1:45:54 1:44:52
1545 287 837 MESSINA MICHELE M 1976 SM45 DE RAN CLAB ITA 1:45:54 1:45:17
204 23 2069 PERRONE FILOMENA F 1973 SF50 RUNCARD EPS - RUNCARD ITA 1:45:54 1:44:53
1546 293 4052 TOSATTO GIOVANNI M 1996 SM RUNCARD ITA 1:45:54 1:44:48
1547 294 1925 BUSOLA NICOLO' M 1995 SM LATIN MARATHON LOVERS ITA 1:45:55 1:45:50
205 44 4565 CASARI SILVIA F 1976 SF45 RUNCARD EPS - RUNCARD ITA 1:45:58 1:45:41
206 37 1796 VETTORATO FABIOLA F 1979 SF40 ASD RUN IT ITA 1:45:59 1:45:26
207 45 1186 CARPENEDO CHIARA F 1975 SF45 G.M. G.S. AQUILE FRIULANE ITA 1:46:00 1:45:40
1548 295 5556 ELLECOSTA THOMAS M 1995 SM RUNCARD ITA 1:46:01 1:44:14
    4430 BAKHRAKH VLADY M 1973 SM50   ISR 1:46:01 1:45:04
1549 211 1243 PAPANDREA DOMENICO M 1987 SM35 ATLETICA MARATHON BELLINZAGO ITA 1:46:01 1:45:31
1550 271 1354 FILLORAMO SERGIO M 1972 SM50 A.S.D. ATHLON KAMARINA ITA 1:46:03 1:44:24
1551 296 4561 PERAZZINI PIERFEDERICO M 1991 SM RUNCARD ITA 1:46:04 1:45:08
1552 272 1694 LOCATELLI IVAN M 1970 SM50 RUNNERS BERGAMO ITA 1:46:04 1:44:31
1553 288 2704 BUNIOTTO STEFANO M 1974 SM45 ASD ATLETICA CEREA ITA 1:46:04 1:45:13
1554 273 1549 PASQUARDINI ATTILIO M 1969 SM50 G.P. AVIS POL. MALAVICINA ITA 1:46:04 1:45:52
208 38 2655 MARINONI ARIANNA F 1979 SF40 RUNCARD ITA 1:46:05 1:45:45
1555 1 4070 NOFERINI MICHELE M 2005 JM RAVENNA RUNNERS CLUB ASD ITA 1:46:06 1:45:54
1556 297 2503 CORDIOLI MASSIMILIANO M 1990 SM RUNCARD ITA 1:46:06 1:44:41
1557 298 1488 ROMEO JESSI M 1996 SM ASD GP GARLASCHESE ITA 1:46:07 1:45:38
1558 289 1278 CALZAVARA ALESSIO M 1975 SM45 RUNCARD ITA 1:46:08 1:45:21
1559 274 3864 MORACE GIOVANNI M 1971 SM50 RUNCARD ITA 1:46:08 1:46:02
1560 275 2245 ZENI FABIO M 1972 SM50 G.P. S.ANGELA AVIS DESENZANO ITA 1:46:08 1:45:25
209 39 1772 ALTOLINI ERICA F 1980 SF40 ATL.VICENTINA ITA 1:46:09 1:45:55
1561 276 2184 KOSTNER MANFRED M 1970 SM50 RUNCARD ITA 1:46:09 1:45:33
1562 277 1575 KORMOS MATTEO M 1973 SM50 PRO SESTO ATL. CERNUSCO ITA 1:46:09 1:46:00
1563 262 2522 CERESA FRANZ M 1979 SM40 ATLETICA PERTICA BASSA ITA 1:46:09 1:45:18
1564 278 2030 SERAFINI ALESSANDRO M 1973 SM50 ATL.VICENTINA ITA 1:46:10 1:45:23
210 40 2523 ANTONINI LAURA F 1983 SF40 ATLETICA PERTICA BASSA ITA 1:46:10 1:45:19
1565 263 1464 FARINA ALESSANDRO M 1980 SM40 VICENZA MARATHON ITA 1:46:11 1:45:49
1566 290 5601 PACIFICO CARMINE M 1978 SM45 A.S.D. PODISTICA POLLESE ITA 1:46:11 1:44:56
1567 5 776 BURATO ARTURO M 1953 SM70 G.S.D. VALDALPONE DE MEGNI ITA 1:46:11 1:45:45
    2101 BARAC LUCIJA F 1994 SF   CRO 1:46:12 1:45:02
    1207 SHERWOOD MICHAEL M 1999 SM   GBR 1:46:12 1:45:41
211 41 2006 BIONDOLILLO CRISTINA F 1982 SF40 G.P. QUADRIFOGLIO ITA 1:46:15 1:44:53
1568 264 1022 BACCHI TANANI CRISTIANO M 1979 SM40 G.P. QUADRIFOGLIO ITA 1:46:15 1:44:53
1569 291 1788 BASSO CLAUDIO M 1977 SM45 MOSTRORUN A.S.D. ITA 1:46:15 1:45:34
1570 279 2411 BATTOCCHIO MASSIMILIANO M 1970 SM50 VICENZA MARATHON ITA 1:46:17 1:45:52
1571 280 2088 APICELLA PASQUALE M 1969 SM50 SALERNO MARATHON ITA 1:46:20 1:45:06
1572 299 4506 PAROLOTTO ANDREA M 1991 SM RUNCARD ITA 1:46:21 1:45:44
212 1 2317 CANARECCI ANNA MARIA F 1955 SF65 RIMINI MARATHON ITA 1:46:22 1:45:39
1573 292 1750 RUSCONI TIZIANO M 1977 SM45 RUNCARD ITA 1:46:25 1:45:47
1574 157 1131 BONI ANDREA M 1968 SM55 A.S.D. TEAM KM SPORT ITA 1:46:25 1:45:57
213 42 680 RUBERT RAFFAELLA F 1982 SF40 ATLETICA MOTTENSE ITA 1:46:26 1:46:00
    2421 WALDVOGEL STEVEN M 1994 SM   SUI 1:46:26 1:45:25
1575 281 1647 PALLAVICINI LEONARDO M 1972 SM50 TRIATHLON DUATHLON CREMONA ITA 1:46:27 1:46:12
1576 293 2716 PAJUSCO MASSIMO M 1977 SM45 RUNCARD ITA 1:46:27 1:45:13
214 16 3906 ANSOLEAGA GIL SUSANA F 1966 SF55 MARATON RIOJA ESP 1:46:27 1:46:22
    1903 FERENC LIKAVCSAN M 1978 SM45   HUN 1:46:29 1:46:02
1577 282 2131 TROMBETTA VINCENZO M 1970 SM50 SALERNO MARATHON ITA 1:46:29 1:45:15
1578 294 1310 ARTIOLI SIMONE M 1978 SM45 G.P. AVIS SUZZARA ITA 1:46:29 1:45:46
1579 158 4001 ROSA GIOVANNI M 1967 SM55 ASSOCIAZIONE STRAVERONA ASD ITA 1:46:29 1:45:36
1580 300 1799 SIGNORATO LUCA M 1997 SM FREE RUNNERS SAN GIUSTINO ASD ITA 1:46:30 1:46:01
    4213 SLADECKOVA KATARINA F 1981 SF40   SVK 1:46:31 1:45:38
1581 265 5950 PAVONE ALFREDO M 1982 SM40 IMPOSSIBLE226 TRIATHLON FORLI ITA 1:46:32 1:45:17
1582 295 4129 GIANNELLI ENRICO M 1975 SM45 IMPOSSIBLE226 TRIATHLON FORLI ITA 1:46:32 1:45:23
215 36 2307 VERRI MONICA F 1987 SF35 RUNCARD ITA 1:46:33 1:45:47
216 24 1787 CIOCCHI SIMONA F 1972 SF50 G.P. AVIS POL. MALAVICINA ITA 1:46:33 1:46:27
1583 283 1896 PORRI MARCO M 1971 SM50 RUNNING OLTREPO' ITA 1:46:34 1:46:30
1584 284 1301 LADISA ANDREA M 1969 SM50 VENICEMARATHON SSD A R.L. ITA 1:46:35 1:45:47
1585 266 1852 MANNOCCHI GIANLUCA M 1980 SM40 RUNCARD ITA 1:46:35 1:46:08
1586 301 4139 MASO ANDREA M 1991 SM RUNCARD ITA 1:46:36 1:46:19
217 37 1707 DI MARIA ANTONELLA F 1984 SF35 RUNCARD ITA 1:46:37 1:46:20
218 25 2153 NEBULONI RAFFAELLA F 1972 SF50 ATL. SAN MARCO U.S. ACLI ITA 1:46:37 1:45:07
219 26 1758 SANTI NATASHA F 1972 SF50 RUNCARD ITA 1:46:37 1:46:21
1587 159 1324 PERATHONER ERICH M 1967 SM55 ASV GHERDEINA RUNNERS ITA 1:46:38 1:46:00
1588 285 1631 RUZZA FILIPPO M 1973 SM50 ASD GRUPPO PODISTI PORTO TOLLE ITA 1:46:39 1:46:17
1589 160 4590 MACCIO LUIGI M 1964 SM55 ATL. NOVESE ITA 1:46:42 1:46:28
220 27 2813 MAGNI ROBERTA F 1972 SF50 RUNCARD ITA 1:46:43 1:45:54
1590 302 4569 BONAZZA NICOLA M 1995 SM RUNCARD ITA 1:46:43 1:46:09
1591 267 603 DE STEFANI GIACOMO M 1981 SM40 ASD GRUPPO PODISTI PORTO TOLLE ITA 1:46:43 1:46:05
221 3 2250 BUSA FABIOLA F 1962 SF60 VICENZA MARATHON ITA 1:46:43 1:46:18
1592 161 5164 POZZI DANIELE M 1967 SM55 MARATHON CREMONA ITA 1:46:44 1:45:58
1593 303 1936 MARINI SILVIO M 1989 SM RUNCARD ITA 1:46:44 1:46:16
1594 304 1177 GHEZZO MATTIA M 1989 SM RUNCARD ITA 1:46:46 1:45:47
1595 296 2609 GUCCIONE RICCARDO M 1977 SM45 RUNCARD ITA 1:46:47 1:45:21
222 4 1834 FAVA BARBARA F 1963 SF60 RUNCARD ITA 1:46:49 1:46:44
1596 297 4626 AKNAZZAY MOHAMED M 1976 SM45 RUNCARD